<?xml version='1.0' encoding='UTF-8'?><gpx version="1.1" creator="JPX - https://github.com/jenetics/jpx" xmlns="http://www.topografix.com/GPX/1/1"><trk><trkseg><trkpt lat="44.9708453730745" lon="8.615538007931452"><ele>120.0</ele><time>2026-04-22T11:05:31Z</time></trkpt><trkpt lat="44.9707275255227" lon="8.615579703325427"><ele>120.0</ele><time>2026-04-22T11:05:33Z</time></trkpt><trkpt lat="44.97064126569672" lon="8.615599437577693"><ele>120.0</ele><time>2026-04-22T11:05:34Z</time></trkpt><trkpt lat="44.97048178722753" lon="8.615666117165535"><ele>120.0</ele><time>2026-04-22T11:05:35Z</time></trkpt><trkpt lat="44.97034938015957" lon="8.615707649136633"><ele>120.0</ele><time>2026-04-22T11:05:36Z</time></trkpt><trkpt lat="44.97024308528815" lon="8.615729925507129"><ele>120.0</ele><time>2026-04-22T11:05:37Z</time></trkpt><trkpt lat="44.97014810515338" lon="8.615771294248903"><ele>120.0</ele><time>2026-04-22T11:05:38Z</time></trkpt><trkpt lat="44.9700923620423" lon="8.615815651882233"><ele>120.0</ele><time>2026-04-22T11:05:39Z</time></trkpt><trkpt lat="44.97002293571042" lon="8.615815387549276"><ele>120.0</ele><time>2026-04-22T11:05:40Z</time></trkpt><trkpt lat="44.96997588517001" lon="8.615630272662465"><ele>119.6</ele><time>2026-04-22T11:05:43Z</time></trkpt><trkpt lat="44.96993778329014" lon="8.615511973250564"><ele>119.2</ele><time>2026-04-22T11:05:44Z</time></trkpt><trkpt lat="44.96990276066129" lon="8.615379687763511"><ele>118.80000000000001</ele><time>2026-04-22T11:05:45Z</time></trkpt><trkpt lat="44.96987331068708" lon="8.615242425299211"><ele>118.4</ele><time>2026-04-22T11:05:46Z</time></trkpt><trkpt lat="44.96984337289714" lon="8.615093214034776"><ele>118.0</ele><time>2026-04-22T11:05:47Z</time></trkpt><trkpt lat="44.96980433866259" lon="8.614983713115627"><ele>118.0</ele><time>2026-04-22T11:05:48Z</time></trkpt><trkpt lat="44.969778287942475" lon="8.614881061564814"><ele>118.0</ele><time>2026-04-22T11:05:49Z</time></trkpt><trkpt lat="44.96975112284923" lon="8.614724806203066"><ele>118.0</ele><time>2026-04-22T11:05:50Z</time></trkpt><trkpt lat="44.96971187885441" lon="8.614535837317892"><ele>118.0</ele><time>2026-04-22T11:05:51Z</time></trkpt><trkpt lat="44.96966543418058" lon="8.614324529419147"><ele>117.66666666666667</ele><time>2026-04-22T11:05:52Z</time></trkpt><trkpt lat="44.96961827332189" lon="8.614092463804111"><ele>117.33333333333334</ele><time>2026-04-22T11:05:53Z</time></trkpt><trkpt lat="44.969562829868664" lon="8.613837056128089"><ele>117.0</ele><time>2026-04-22T11:05:54Z</time></trkpt><trkpt lat="44.96950304308117" lon="8.613595915949695"><ele>116.33333333333334</ele><time>2026-04-22T11:05:55Z</time></trkpt><trkpt lat="44.96943266042488" lon="8.613355139471622"><ele>115.66666666666667</ele><time>2026-04-22T11:05:56Z</time></trkpt><trkpt lat="44.969366120132655" lon="8.613120877791966"><ele>115.0</ele><time>2026-04-22T11:05:57Z</time></trkpt><trkpt lat="44.969292159089015" lon="8.61289856908715"><ele>114.66666666666667</ele><time>2026-04-22T11:05:58Z</time></trkpt><trkpt lat="44.96921622549686" lon="8.612657857560798"><ele>114.33333333333334</ele><time>2026-04-22T11:05:59Z</time></trkpt><trkpt lat="44.96915889424789" lon="8.612429249317438"><ele>114.0</ele><time>2026-04-22T11:06:00Z</time></trkpt><trkpt lat="44.96907535661168" lon="8.612221404001536"><ele>114.0</ele><time>2026-04-22T11:06:01Z</time></trkpt><trkpt lat="44.96899664598452" lon="8.612039434279053"><ele>114.0</ele><time>2026-04-22T11:06:02Z</time></trkpt><trkpt lat="44.96888370147193" lon="8.611867537565027"><ele>114.0</ele><time>2026-04-22T11:06:03Z</time></trkpt><trkpt lat="44.968753089704165" lon="8.611734243467962"><ele>114.0</ele><time>2026-04-22T11:06:04Z</time></trkpt><trkpt lat="44.96859829501632" lon="8.61161444122304"><ele>114.0</ele><time>2026-04-22T11:06:05Z</time></trkpt><trkpt lat="44.968439208183916" lon="8.61151404314662"><ele>114.0</ele><time>2026-04-22T11:06:06Z</time></trkpt><trkpt lat="44.968278089376774" lon="8.611390950701116"><ele>114.0</ele><time>2026-04-22T11:06:07Z</time></trkpt><trkpt lat="44.96811313017573" lon="8.611282476636896"><ele>114.0</ele><time>2026-04-22T11:06:08Z</time></trkpt><trkpt lat="44.96794624322226" lon="8.61117291794508"><ele>114.0</ele><time>2026-04-22T11:06:09Z</time></trkpt><trkpt lat="44.96779124273543" lon="8.611071162527246"><ele>113.66666666666666</ele><time>2026-04-22T11:06:10Z</time></trkpt><trkpt lat="44.96762057993416" lon="8.610957360626971"><ele>113.33333333333333</ele><time>2026-04-22T11:06:11Z</time></trkpt><trkpt lat="44.967455442835714" lon="8.610846805219666"><ele>113.0</ele><time>2026-04-22T11:06:12Z</time></trkpt><trkpt lat="44.967291165752506" lon="8.610736825598215"><ele>112.66666666666666</ele><time>2026-04-22T11:06:13Z</time></trkpt><trkpt lat="44.96712022911959" lon="8.610655495516813"><ele>112.33333333333334</ele><time>2026-04-22T11:06:14Z</time></trkpt><trkpt lat="44.96695218616358" lon="8.610544318902559"><ele>112.0</ele><time>2026-04-22T11:06:15Z</time></trkpt><trkpt lat="44.966794656563614" lon="8.61043602601826"><ele>112.0</ele><time>2026-04-22T11:06:16Z</time></trkpt><trkpt lat="44.966636558846986" lon="8.610333956322911"><ele>112.0</ele><time>2026-04-22T11:06:17Z</time></trkpt><trkpt lat="44.96648455300484" lon="8.610203507745616"><ele>112.0</ele><time>2026-04-22T11:06:18Z</time></trkpt><trkpt lat="44.9663188840103" lon="8.61009249209696"><ele>111.66666666666667</ele><time>2026-04-22T11:06:19Z</time></trkpt><trkpt lat="44.966154279841525" lon="8.609982191767617"><ele>111.33333333333334</ele><time>2026-04-22T11:06:20Z</time></trkpt><trkpt lat="44.96600204621648" lon="8.609882885081726"><ele>111.0</ele><time>2026-04-22T11:06:21Z</time></trkpt><trkpt lat="44.96586306852902" lon="8.609802064680013"><ele>110.75</ele><time>2026-04-22T11:06:22Z</time></trkpt><trkpt lat="44.96574417936882" lon="8.609741761577318"><ele>110.5</ele><time>2026-04-22T11:06:23Z</time></trkpt><trkpt lat="44.96561047784538" lon="8.609685491878409"><ele>110.25</ele><time>2026-04-22T11:06:24Z</time></trkpt><trkpt lat="44.96546212321102" lon="8.609627104961609"><ele>110.0</ele><time>2026-04-22T11:06:25Z</time></trkpt><trkpt lat="44.96531532375875" lon="8.609569669846051"><ele>110.0</ele><time>2026-04-22T11:06:26Z</time></trkpt><trkpt lat="44.96515401279481" lon="8.609503952953961"><ele>110.0</ele><time>2026-04-22T11:06:27Z</time></trkpt><trkpt lat="44.96499171564243" lon="8.60943943736047"><ele>110.0</ele><time>2026-04-22T11:06:28Z</time></trkpt><trkpt lat="44.96483935253078" lon="8.609386058796984"><ele>109.75</ele><time>2026-04-22T11:06:29Z</time></trkpt><trkpt lat="44.96468693677102" lon="8.609348481205055"><ele>109.5</ele><time>2026-04-22T11:06:30Z</time></trkpt><trkpt lat="44.964542073335316" lon="8.609368119255684"><ele>109.25</ele><time>2026-04-22T11:06:31Z</time></trkpt><trkpt lat="44.96442279068698" lon="8.609387135117077"><ele>109.0</ele><time>2026-04-22T11:06:32Z</time></trkpt><trkpt lat="44.964297562728085" lon="8.609398210964992"><ele>108.75</ele><time>2026-04-22T11:06:33Z</time></trkpt><trkpt lat="44.96416689551551" lon="8.609426726028055"><ele>108.5</ele><time>2026-04-22T11:06:34Z</time></trkpt><trkpt lat="44.96403191410653" lon="8.609457369486357"><ele>108.25</ele><time>2026-04-22T11:06:35Z</time></trkpt><trkpt lat="44.963897158038094" lon="8.609488187578547"><ele>108.0</ele><time>2026-04-22T11:06:36Z</time></trkpt><trkpt lat="44.963725036216076" lon="8.609527554267265"><ele>108.66666666666666</ele><time>2026-04-22T11:06:37Z</time></trkpt><trkpt lat="44.96352490312578" lon="8.609573330399073"><ele>109.33333333333333</ele><time>2026-04-22T11:06:38Z</time></trkpt><trkpt lat="44.963310242822416" lon="8.609645168245555"><ele>110.0</ele><time>2026-04-22T11:06:39Z</time></trkpt><trkpt lat="44.963077473341386" lon="8.60967184192306"><ele>110.0</ele><time>2026-04-22T11:06:40Z</time></trkpt><trkpt lat="44.962835028902546" lon="8.609720273819313"><ele>110.0</ele><time>2026-04-22T11:06:41Z</time></trkpt><trkpt lat="44.96261385112673" lon="8.609763513527282"><ele>110.33333333333333</ele><time>2026-04-22T11:06:42Z</time></trkpt><trkpt lat="44.96242137728028" lon="8.609817655483322"><ele>110.66666666666666</ele><time>2026-04-22T11:06:43Z</time></trkpt><trkpt lat="44.9622157220341" lon="8.609855614629524"><ele>111.0</ele><time>2026-04-22T11:06:44Z</time></trkpt><trkpt lat="44.96200764058791" lon="8.609902207375798"><ele>111.0</ele><time>2026-04-22T11:06:45Z</time></trkpt><trkpt lat="44.961799391888235" lon="8.609947029514668"><ele>111.0</ele><time>2026-04-22T11:06:46Z</time></trkpt><trkpt lat="44.961628268732525" lon="8.609990056065413"><ele>111.0</ele><time>2026-04-22T11:06:47Z</time></trkpt><trkpt lat="44.96147062385054" lon="8.61001749021693"><ele>110.33333333333334</ele><time>2026-04-22T11:06:48Z</time></trkpt><trkpt lat="44.961299564213405" lon="8.61005351313886"><ele>109.66666666666667</ele><time>2026-04-22T11:06:49Z</time></trkpt><trkpt lat="44.96113850179167" lon="8.610091014520094"><ele>109.0</ele><time>2026-04-22T11:06:50Z</time></trkpt><trkpt lat="44.96098779704647" lon="8.610119419838119"><ele>108.0</ele><time>2026-04-22T11:06:51Z</time></trkpt><trkpt lat="44.96084424798489" lon="8.610156983679376"><ele>107.0</ele><time>2026-04-22T11:06:52Z</time></trkpt><trkpt lat="44.960699461045614" lon="8.610188750747191"><ele>106.0</ele><time>2026-04-22T11:06:53Z</time></trkpt><trkpt lat="44.96054451739285" lon="8.610228741395902"><ele>106.0</ele><time>2026-04-22T11:06:54Z</time></trkpt><trkpt lat="44.960396355410026" lon="8.61028394164657"><ele>106.0</ele><time>2026-04-22T11:06:55Z</time></trkpt><trkpt lat="44.96024629773062" lon="8.610335923580012"><ele>106.0</ele><time>2026-04-22T11:06:56Z</time></trkpt><trkpt lat="44.96009029947519" lon="8.610411069784064"><ele>106.0</ele><time>2026-04-22T11:06:57Z</time></trkpt><trkpt lat="44.95993898784727" lon="8.610505556509223"><ele>106.0</ele><time>2026-04-22T11:06:58Z</time></trkpt><trkpt lat="44.95979289312142" lon="8.610598803849602"><ele>106.0</ele><time>2026-04-22T11:06:59Z</time></trkpt><trkpt lat="44.95965113247577" lon="8.610674332641452"><ele>106.0</ele><time>2026-04-22T11:07:00Z</time></trkpt><trkpt lat="44.95954120962694" lon="8.610764976060915"><ele>106.0</ele><time>2026-04-22T11:07:01Z</time></trkpt><trkpt lat="44.95941917558564" lon="8.610831775158143"><ele>106.0</ele><time>2026-04-22T11:07:02Z</time></trkpt><trkpt lat="44.95927799387311" lon="8.610904408294816"><ele>106.0</ele><time>2026-04-22T11:07:03Z</time></trkpt><trkpt lat="44.959122290929216" lon="8.610967501458388"><ele>105.0</ele><time>2026-04-22T11:07:04Z</time></trkpt><trkpt lat="44.958952501850426" lon="8.611032922397499"><ele>104.0</ele><time>2026-04-22T11:07:05Z</time></trkpt><trkpt lat="44.958796107385815" lon="8.611067315099572"><ele>103.0</ele><time>2026-04-22T11:07:06Z</time></trkpt><trkpt lat="44.95865264446185" lon="8.611141053429174"><ele>102.75</ele><time>2026-04-22T11:07:07Z</time></trkpt><trkpt lat="44.958499973318396" lon="8.611191236143442"><ele>102.5</ele><time>2026-04-22T11:07:08Z</time></trkpt><trkpt lat="44.958400389438566" lon="8.611213099865468"><ele>102.25</ele><time>2026-04-22T11:07:09Z</time></trkpt><trkpt lat="44.95829142178078" lon="8.611252422552417"><ele>102.0</ele><time>2026-04-22T11:07:09.999Z</time></trkpt><trkpt lat="44.9582026885422" lon="8.611297044075423"><ele>102.0</ele><time>2026-04-22T11:07:10.999Z</time></trkpt><trkpt lat="44.958117738490195" lon="8.61128653758846"><ele>102.0</ele><time>2026-04-22T11:07:11.999Z</time></trkpt><trkpt lat="44.958043395823886" lon="8.61123343811294"><ele>102.0</ele><time>2026-04-22T11:07:12.999Z</time></trkpt><trkpt lat="44.95797621018992" lon="8.611184818032344"><ele>102.0</ele><time>2026-04-22T11:07:13.999Z</time></trkpt><trkpt lat="44.95790759939768" lon="8.611191354498855"><ele>102.0</ele><time>2026-04-22T11:07:14.999Z</time></trkpt><trkpt lat="44.95785998988624" lon="8.611266911561206"><ele>102.0</ele><time>2026-04-22T11:07:15.999Z</time></trkpt><trkpt lat="44.957825841874815" lon="8.611392222515049"><ele>102.0</ele><time>2026-04-22T11:07:16.999Z</time></trkpt><trkpt lat="44.95783620437904" lon="8.611510779642988"><ele>102.0</ele><time>2026-04-22T11:07:17.999Z</time></trkpt><trkpt lat="44.95788572392348" lon="8.611603836225468"><ele>102.0</ele><time>2026-04-22T11:07:18.999Z</time></trkpt><trkpt lat="44.95793860154801" lon="8.611705836270737"><ele>102.0</ele><time>2026-04-22T11:07:19.999Z</time></trkpt><trkpt lat="44.95792270997092" lon="8.611837390803556"><ele>102.0</ele><time>2026-04-22T11:07:20.999Z</time></trkpt><trkpt lat="44.957828320243756" lon="8.611958106530894"><ele>102.66666666666666</ele><time>2026-04-22T11:07:21.999Z</time></trkpt><trkpt lat="44.95775357401299" lon="8.612149493618078"><ele>103.33333333333333</ele><time>2026-04-22T11:07:22.999Z</time></trkpt><trkpt lat="44.95769683908304" lon="8.612386122743578"><ele>104.0</ele><time>2026-04-22T11:07:23.999Z</time></trkpt><trkpt lat="44.95762539837908" lon="8.612632378023722"><ele>104.0</ele><time>2026-04-22T11:07:24.999Z</time></trkpt><trkpt lat="44.95753843293866" lon="8.61286480252202"><ele>104.0</ele><time>2026-04-22T11:07:25.999Z</time></trkpt><trkpt lat="44.95745817217429" lon="8.613083511672665"><ele>104.0</ele><time>2026-04-22T11:07:26.999Z</time></trkpt><trkpt lat="44.95740397084764" lon="8.613266114577824"><ele>104.0</ele><time>2026-04-22T11:07:27.999Z</time></trkpt><trkpt lat="44.95734077627467" lon="8.613435859348412"><ele>104.0</ele><time>2026-04-22T11:07:28.999Z</time></trkpt><trkpt lat="44.957284568616984" lon="8.61361015549687"><ele>104.0</ele><time>2026-04-22T11:07:30Z</time></trkpt><trkpt lat="44.9572238956591" lon="8.6137896223075"><ele>104.0</ele><time>2026-04-22T11:07:31Z</time></trkpt><trkpt lat="44.95717229825275" lon="8.613984310523941"><ele>105.0</ele><time>2026-04-22T11:07:32Z</time></trkpt><trkpt lat="44.9571254845075" lon="8.614181897631164"><ele>106.0</ele><time>2026-04-22T11:07:33Z</time></trkpt><trkpt lat="44.957043920931746" lon="8.614368562459621"><ele>107.0</ele><time>2026-04-22T11:07:34Z</time></trkpt><trkpt lat="44.956964049457305" lon="8.614564981113547"><ele>107.66666666666666</ele><time>2026-04-22T11:07:35Z</time></trkpt><trkpt lat="44.95687986989768" lon="8.614764051323856"><ele>108.33333333333334</ele><time>2026-04-22T11:07:36Z</time></trkpt><trkpt lat="44.956802489982536" lon="8.614976456822488"><ele>109.0</ele><time>2026-04-22T11:07:37Z</time></trkpt><trkpt lat="44.95671918201665" lon="8.615184629689987"><ele>109.33333333333334</ele><time>2026-04-22T11:07:38Z</time></trkpt><trkpt lat="44.95662550536507" lon="8.61538679752531"><ele>109.66666666666666</ele><time>2026-04-22T11:07:39Z</time></trkpt><trkpt lat="44.956561531013506" lon="8.615598795023303"><ele>110.0</ele><time>2026-04-22T11:07:40Z</time></trkpt><trkpt lat="44.9565110737566" lon="8.61585439163879"><ele>110.0</ele><time>2026-04-22T11:07:41Z</time></trkpt><trkpt lat="44.95646263437964" lon="8.616120872440876"><ele>110.0</ele><time>2026-04-22T11:07:42Z</time></trkpt><trkpt lat="44.95640299992056" lon="8.616333830598196"><ele>110.0</ele><time>2026-04-22T11:07:43Z</time></trkpt><trkpt lat="44.956351030155986" lon="8.61658323805774"><ele>110.0</ele><time>2026-04-22T11:07:44Z</time></trkpt><trkpt lat="44.956297273434686" lon="8.616839081989525"><ele>110.0</ele><time>2026-04-22T11:07:45Z</time></trkpt><trkpt lat="44.95624443010573" lon="8.617093169508646"><ele>110.0</ele><time>2026-04-22T11:07:46Z</time></trkpt><trkpt lat="44.95619278776961" lon="8.617347425625693"><ele>110.0</ele><time>2026-04-22T11:07:47Z</time></trkpt><trkpt lat="44.95615838462848" lon="8.617588363376166"><ele>110.0</ele><time>2026-04-22T11:07:48Z</time></trkpt><trkpt lat="44.95609325068267" lon="8.617832181973506"><ele>110.0</ele><time>2026-04-22T11:07:49Z</time></trkpt><trkpt lat="44.95605282089734" lon="8.618074187536067"><ele>110.0</ele><time>2026-04-22T11:07:50Z</time></trkpt><trkpt lat="44.956017400929255" lon="8.618328223448183"><ele>110.0</ele><time>2026-04-22T11:07:51Z</time></trkpt><trkpt lat="44.95598058742328" lon="8.618562329674004"><ele>110.0</ele><time>2026-04-22T11:07:52Z</time></trkpt><trkpt lat="44.955930377710416" lon="8.618794572808763"><ele>109.66666666666666</ele><time>2026-04-22T11:07:53Z</time></trkpt><trkpt lat="44.955843266097084" lon="8.619022237440506"><ele>109.33333333333334</ele><time>2026-04-22T11:07:54Z</time></trkpt><trkpt lat="44.95577146848593" lon="8.619253193275974"><ele>109.0</ele><time>2026-04-22T11:07:55Z</time></trkpt><trkpt lat="44.9556991969794" lon="8.619512892419925"><ele>108.66666666666667</ele><time>2026-04-22T11:07:56Z</time></trkpt><trkpt lat="44.955647343821475" lon="8.619752149774202"><ele>108.33333333333334</ele><time>2026-04-22T11:07:57Z</time></trkpt><trkpt lat="44.95558182110193" lon="8.619985407234093"><ele>108.0</ele><time>2026-04-22T11:07:58Z</time></trkpt><trkpt lat="44.95549051807408" lon="8.620195908149164"><ele>107.33333333333334</ele><time>2026-04-22T11:07:59Z</time></trkpt><trkpt lat="44.955433977214135" lon="8.620447715516276"><ele>106.66666666666667</ele><time>2026-04-22T11:08:00Z</time></trkpt><trkpt lat="44.955383364538605" lon="8.620686500092438"><ele>106.0</ele><time>2026-04-22T11:08:01Z</time></trkpt><trkpt lat="44.955358387961674" lon="8.620928876299976"><ele>106.0</ele><time>2026-04-22T11:08:02Z</time></trkpt><trkpt lat="44.95532258546006" lon="8.621140462264512"><ele>106.0</ele><time>2026-04-22T11:08:03Z</time></trkpt><trkpt lat="44.95528071926805" lon="8.621344164371118"><ele>106.0</ele><time>2026-04-22T11:08:04Z</time></trkpt><trkpt lat="44.955217111292164" lon="8.621591629469464"><ele>105.33333333333334</ele><time>2026-04-22T11:08:05Z</time></trkpt><trkpt lat="44.95514171236446" lon="8.621822996750142"><ele>104.66666666666666</ele><time>2026-04-22T11:08:06Z</time></trkpt><trkpt lat="44.95507515632356" lon="8.622083231937289"><ele>104.0</ele><time>2026-04-22T11:08:07Z</time></trkpt><trkpt lat="44.95502572540978" lon="8.622314998238885"><ele>104.33333333333333</ele><time>2026-04-22T11:08:08Z</time></trkpt><trkpt lat="44.95500191049835" lon="8.62255683120601"><ele>104.66666666666666</ele><time>2026-04-22T11:08:09Z</time></trkpt><trkpt lat="44.95499854338091" lon="8.622807429517625"><ele>105.0</ele><time>2026-04-22T11:08:10Z</time></trkpt><trkpt lat="44.95495794054489" lon="8.623012661572862"><ele>105.0</ele><time>2026-04-22T11:08:11Z</time></trkpt><trkpt lat="44.95490883823742" lon="8.623203662471095"><ele>105.0</ele><time>2026-04-22T11:08:12Z</time></trkpt><trkpt lat="44.95484812597924" lon="8.62337719435392"><ele>105.0</ele><time>2026-04-22T11:08:13Z</time></trkpt><trkpt lat="44.95476184585982" lon="8.623539177583144"><ele>105.0</ele><time>2026-04-22T11:08:14Z</time></trkpt><trkpt lat="44.954634187464784" lon="8.623623718310963"><ele>105.33333333333334</ele><time>2026-04-22T11:08:15Z</time></trkpt><trkpt lat="44.95448037171614" lon="8.623743150727458"><ele>105.66666666666667</ele><time>2026-04-22T11:08:16Z</time></trkpt><trkpt lat="44.954368332158936" lon="8.623873435461457"><ele>106.0</ele><time>2026-04-22T11:08:17Z</time></trkpt><trkpt lat="44.954257393903696" lon="8.624022292651755"><ele>105.0</ele><time>2026-04-22T11:08:18Z</time></trkpt><trkpt lat="44.95415532477134" lon="8.624213705716476"><ele>104.0</ele><time>2026-04-22T11:08:19Z</time></trkpt><trkpt lat="44.9540377191452" lon="8.624443949367349"><ele>103.0</ele><time>2026-04-22T11:08:20Z</time></trkpt><trkpt lat="44.95393377280633" lon="8.624657631778499"><ele>103.0</ele><time>2026-04-22T11:08:21Z</time></trkpt><trkpt lat="44.95381749099437" lon="8.62489900799156"><ele>103.0</ele><time>2026-04-22T11:08:22Z</time></trkpt><trkpt lat="44.953713653692986" lon="8.625128590425687"><ele>103.0</ele><time>2026-04-22T11:08:23Z</time></trkpt><trkpt lat="44.95361675442954" lon="8.625305543624508"><ele>103.33333333333334</ele><time>2026-04-22T11:08:24Z</time></trkpt><trkpt lat="44.95349639447668" lon="8.625445393639604"><ele>103.66666666666666</ele><time>2026-04-22T11:08:25Z</time></trkpt><trkpt lat="44.953328982340345" lon="8.625616138167219"><ele>104.0</ele><time>2026-04-22T11:08:26Z</time></trkpt><trkpt lat="44.95317956317383" lon="8.62575468428279"><ele>103.0</ele><time>2026-04-22T11:08:27Z</time></trkpt><trkpt lat="44.95304504359742" lon="8.625889642976981"><ele>102.0</ele><time>2026-04-22T11:08:28Z</time></trkpt><trkpt lat="44.952946521412635" lon="8.626041048772958"><ele>101.0</ele><time>2026-04-22T11:08:29Z</time></trkpt><trkpt lat="44.952849491883825" lon="8.62620703085007"><ele>101.0</ele><time>2026-04-22T11:08:30Z</time></trkpt><trkpt lat="44.952770681013654" lon="8.626406162415218"><ele>101.0</ele><time>2026-04-22T11:08:31Z</time></trkpt><trkpt lat="44.95271434099855" lon="8.62658338150658"><ele>101.0</ele><time>2026-04-22T11:08:32Z</time></trkpt><trkpt lat="44.95267717066855" lon="8.626692716511169"><ele>101.0</ele><time>2026-04-22T11:08:33Z</time></trkpt><trkpt lat="44.9526539026804" lon="8.626813726582379"><ele>101.0</ele><time>2026-04-22T11:08:57Z</time></trkpt><trkpt lat="44.95272918267148" lon="8.626870009264758"><ele>101.0</ele><time>2026-04-22T11:08:58Z</time></trkpt><trkpt lat="44.9528017501119" lon="8.626902031477112"><ele>101.0</ele><time>2026-04-22T11:08:59Z</time></trkpt><trkpt lat="44.952936373359506" lon="8.626993917757689"><ele>101.0</ele><time>2026-04-22T11:09:01Z</time></trkpt><trkpt lat="44.95302953230393" lon="8.627059844567432"><ele>101.0</ele><time>2026-04-22T11:09:03Z</time></trkpt><trkpt lat="44.95316243566036" lon="8.627165623901105"><ele>100.8</ele><time>2026-04-22T11:09:05Z</time></trkpt><trkpt lat="44.953213811819516" lon="8.627304271949534"><ele>100.6</ele><time>2026-04-22T11:09:07Z</time></trkpt><trkpt lat="44.95317505735512" lon="8.627463263652661"><ele>100.4</ele><time>2026-04-22T11:09:09Z</time></trkpt><trkpt lat="44.9531318559746" lon="8.627542573425497"><ele>100.2</ele><time>2026-04-22T11:09:10Z</time></trkpt><trkpt lat="44.95306495331297" lon="8.627661532055281"><ele>100.0</ele><time>2026-04-22T11:09:12Z</time></trkpt><trkpt lat="44.95301966019239" lon="8.627756665615637"><ele>99.8</ele><time>2026-04-22T11:09:13Z</time></trkpt><trkpt lat="44.9529459791418" lon="8.627907682910134"><ele>99.6</ele><time>2026-04-22T11:09:15Z</time></trkpt><trkpt lat="44.95288579565774" lon="8.628038506959996"><ele>99.4</ele><time>2026-04-22T11:09:16Z</time></trkpt><trkpt lat="44.95283197612958" lon="8.628161792895604"><ele>99.2</ele><time>2026-04-22T11:09:17Z</time></trkpt><trkpt lat="44.95279028649195" lon="8.628291361727921"><ele>99.0</ele><time>2026-04-22T11:09:18Z</time></trkpt><trkpt lat="44.95276090176525" lon="8.628407030813293"><ele>99.0</ele><time>2026-04-22T11:09:19Z</time></trkpt><trkpt lat="44.95274835991267" lon="8.628501787074496"><ele>99.0</ele><time>2026-04-22T11:09:20Z</time></trkpt><trkpt lat="44.95274524518088" lon="8.628644276246547"><ele>99.0</ele><time>2026-04-22T11:09:22Z</time></trkpt><trkpt lat="44.952744360752675" lon="8.62879029677508"><ele>99.0</ele><time>2026-04-22T11:09:24Z</time></trkpt><trkpt lat="44.95274198640411" lon="8.628925763226624"><ele>99.0</ele><time>2026-04-22T11:09:25Z</time></trkpt><trkpt lat="44.95273780419944" lon="8.629065034070106"><ele>99.2</ele><time>2026-04-22T11:09:27Z</time></trkpt><trkpt lat="44.9527343756921" lon="8.629205512706989"><ele>99.4</ele><time>2026-04-22T11:09:28.999Z</time></trkpt><trkpt lat="44.9527238701142" lon="8.629315640387047"><ele>99.6</ele><time>2026-04-22T11:09:29.999Z</time></trkpt><trkpt lat="44.952725667634816" lon="8.629470320389304"><ele>99.8</ele><time>2026-04-22T11:09:31.999Z</time></trkpt><trkpt lat="44.952692761362115" lon="8.6295883073891"><ele>100.0</ele><time>2026-04-22T11:09:32.999Z</time></trkpt><trkpt lat="44.95267102416802" lon="8.629689452388575"><ele>100.16666666666667</ele><time>2026-04-22T11:09:33.999Z</time></trkpt><trkpt lat="44.95266371926709" lon="8.629779648166792"><ele>100.33333333333334</ele><time>2026-04-22T11:09:34.999Z</time></trkpt><trkpt lat="44.95263413033269" lon="8.629876665436452"><ele>100.5</ele><time>2026-04-22T11:09:36Z</time></trkpt><trkpt lat="44.95260451274813" lon="8.629972895496788"><ele>100.66666666666666</ele><time>2026-04-22T11:09:37Z</time></trkpt><trkpt lat="44.952553697881875" lon="8.630078537479244"><ele>100.83333333333333</ele><time>2026-04-22T11:09:38Z</time></trkpt><trkpt lat="44.95250861300946" lon="8.630197974612352"><ele>101.0</ele><time>2026-04-22T11:09:39Z</time></trkpt><trkpt lat="44.9524830239441" lon="8.630317592081997"><ele>101.25</ele><time>2026-04-22T11:09:40Z</time></trkpt><trkpt lat="44.95244033898122" lon="8.630436377502683"><ele>101.5</ele><time>2026-04-22T11:09:41Z</time></trkpt><trkpt lat="44.952393781391834" lon="8.63058324449487"><ele>101.75</ele><time>2026-04-22T11:09:42Z</time></trkpt><trkpt lat="44.95234655106624" lon="8.630740171435303"><ele>102.0</ele><time>2026-04-22T11:09:43Z</time></trkpt><trkpt lat="44.9522930652064" lon="8.6309147919132"><ele>102.0</ele><time>2026-04-22T11:09:44Z</time></trkpt><trkpt lat="44.9522317275026" lon="8.63110403234402"><ele>102.0</ele><time>2026-04-22T11:09:45Z</time></trkpt><trkpt lat="44.95216207295055" lon="8.63129870260624"><ele>102.0</ele><time>2026-04-22T11:09:46Z</time></trkpt><trkpt lat="44.95209379867721" lon="8.63150428641341"><ele>101.5</ele><time>2026-04-22T11:09:47Z</time></trkpt><trkpt lat="44.952033114060534" lon="8.631704710101008"><ele>101.0</ele><time>2026-04-22T11:09:48Z</time></trkpt><trkpt lat="44.951980675681845" lon="8.631886749793562"><ele>100.5</ele><time>2026-04-22T11:09:49Z</time></trkpt><trkpt lat="44.95192328724619" lon="8.632060695365556"><ele>100.0</ele><time>2026-04-22T11:09:50Z</time></trkpt><trkpt lat="44.95186215791987" lon="8.632243274070078"><ele>100.0</ele><time>2026-04-22T11:09:51Z</time></trkpt><trkpt lat="44.95180455993609" lon="8.632425513693585"><ele>100.0</ele><time>2026-04-22T11:09:52Z</time></trkpt><trkpt lat="44.95175072181476" lon="8.632607489277339"><ele>100.0</ele><time>2026-04-22T11:09:53Z</time></trkpt><trkpt lat="44.95170570903944" lon="8.632801658871447"><ele>100.0</ele><time>2026-04-22T11:09:54Z</time></trkpt><trkpt lat="44.95167533058401" lon="8.632993779545895"><ele>100.0</ele><time>2026-04-22T11:09:55Z</time></trkpt><trkpt lat="44.95165184092767" lon="8.633193571093246"><ele>100.0</ele><time>2026-04-22T11:09:56Z</time></trkpt><trkpt lat="44.95162525937768" lon="8.633397358187253"><ele>100.0</ele><time>2026-04-22T11:09:57Z</time></trkpt><trkpt lat="44.95160027326247" lon="8.633599210243688"><ele>100.0</ele><time>2026-04-22T11:09:58Z</time></trkpt><trkpt lat="44.95157124492544" lon="8.633807003245838"><ele>99.75</ele><time>2026-04-22T11:09:59Z</time></trkpt><trkpt lat="44.95153716757379" lon="8.634001438156025"><ele>99.5</ele><time>2026-04-22T11:10:00Z</time></trkpt><trkpt lat="44.95151218984579" lon="8.634217046678666"><ele>99.25</ele><time>2026-04-22T11:10:01Z</time></trkpt><trkpt lat="44.95148650792178" lon="8.634424786236812"><ele>99.0</ele><time>2026-04-22T11:10:02Z</time></trkpt><trkpt lat="44.95146088347121" lon="8.634639271218603"><ele>98.75</ele><time>2026-04-22T11:10:03Z</time></trkpt><trkpt lat="44.951443855344024" lon="8.634838598121489"><ele>98.5</ele><time>2026-04-22T11:10:04Z</time></trkpt><trkpt lat="44.95142199881055" lon="8.635038877710583"><ele>98.25</ele><time>2026-04-22T11:10:05Z</time></trkpt><trkpt lat="44.951404225774326" lon="8.635235462385191"><ele>98.0</ele><time>2026-04-22T11:10:06Z</time></trkpt><trkpt lat="44.95138242914694" lon="8.635428878543596"><ele>98.0</ele><time>2026-04-22T11:10:07Z</time></trkpt><trkpt lat="44.95136301841498" lon="8.635612747850303"><ele>98.0</ele><time>2026-04-22T11:10:08Z</time></trkpt><trkpt lat="44.95132545689072" lon="8.635778859195671"><ele>98.0</ele><time>2026-04-22T11:10:09Z</time></trkpt><trkpt lat="44.95129692641783" lon="8.63596765404931"><ele>98.0</ele><time>2026-04-22T11:10:10Z</time></trkpt><trkpt lat="44.951287347470846" lon="8.636145611664745"><ele>98.25</ele><time>2026-04-22T11:10:11Z</time></trkpt><trkpt lat="44.95126117625317" lon="8.636344343838344"><ele>98.5</ele><time>2026-04-22T11:10:12Z</time></trkpt><trkpt lat="44.95123864472813" lon="8.636549801369421"><ele>98.75</ele><time>2026-04-22T11:10:13Z</time></trkpt><trkpt lat="44.951221701740174" lon="8.63675452633746"><ele>99.0</ele><time>2026-04-22T11:10:14Z</time></trkpt><trkpt lat="44.951180440714175" lon="8.636954897945284"><ele>99.0</ele><time>2026-04-22T11:10:15Z</time></trkpt><trkpt lat="44.95117120378979" lon="8.637153472820087"><ele>99.0</ele><time>2026-04-22T11:10:16Z</time></trkpt><trkpt lat="44.95114547047216" lon="8.637335137951514"><ele>99.0</ele><time>2026-04-22T11:10:17Z</time></trkpt><trkpt lat="44.95111445877242" lon="8.637531941906614"><ele>99.0</ele><time>2026-04-22T11:10:18Z</time></trkpt><trkpt lat="44.95108010914233" lon="8.63771708503857"><ele>100.0</ele><time>2026-04-22T11:10:19Z</time></trkpt><trkpt lat="44.95105173702407" lon="8.637907139570926"><ele>101.0</ele><time>2026-04-22T11:10:20Z</time></trkpt><trkpt lat="44.95101512808629" lon="8.638096436998207"><ele>102.0</ele><time>2026-04-22T11:10:21Z</time></trkpt><trkpt lat="44.95094985219029" lon="8.638289100301678"><ele>103.0</ele><time>2026-04-22T11:10:22Z</time></trkpt><trkpt lat="44.950900145779606" lon="8.638486858748575"><ele>101.5</ele><time>2026-04-22T11:10:23Z</time></trkpt><trkpt lat="44.95085235767645" lon="8.638676985354644"><ele>100.0</ele><time>2026-04-22T11:10:24Z</time></trkpt><trkpt lat="44.9508101251075" lon="8.63884500879149"><ele>98.5</ele><time>2026-04-22T11:10:25Z</time></trkpt><trkpt lat="44.950772041681496" lon="8.638996524538422"><ele>97.0</ele><time>2026-04-22T11:10:26Z</time></trkpt><trkpt lat="44.95074860460717" lon="8.639159313931112"><ele>97.0</ele><time>2026-04-22T11:10:27Z</time></trkpt><trkpt lat="44.9507083313011" lon="8.639309558027694"><ele>97.0</ele><time>2026-04-22T11:10:28Z</time></trkpt><trkpt lat="44.950662416475694" lon="8.639447688913343"><ele>97.0</ele><time>2026-04-22T11:10:29Z</time></trkpt><trkpt lat="44.950633876926425" lon="8.63958196705706"><ele>97.0</ele><time>2026-04-22T11:10:30Z</time></trkpt><trkpt lat="44.95060836880184" lon="8.639708025194697"><ele>97.0</ele><time>2026-04-22T11:10:31Z</time></trkpt><trkpt lat="44.95058873460375" lon="8.639809156093087"><ele>97.16666666666667</ele><time>2026-04-22T11:10:32Z</time></trkpt><trkpt lat="44.95058747002721" lon="8.639912381583489"><ele>97.33333333333334</ele><time>2026-04-22T11:10:33Z</time></trkpt><trkpt lat="44.95056663104218" lon="8.640006828762509"><ele>97.5</ele><time>2026-04-22T11:10:34Z</time></trkpt><trkpt lat="44.950533514812406" lon="8.640127796358186"><ele>97.66666666666666</ele><time>2026-04-22T11:10:36Z</time></trkpt><trkpt lat="44.95050431963752" lon="8.640211098495733"><ele>97.83333333333333</ele><time>2026-04-22T11:11:40Z</time></trkpt><trkpt lat="44.95059738090666" lon="8.6403689592517"><ele>98.0</ele><time>2026-04-22T11:11:43Z</time></trkpt><trkpt lat="44.95066675402253" lon="8.64039564844406"><ele>98.2</ele><time>2026-04-22T11:11:44Z</time></trkpt><trkpt lat="44.95074700850106" lon="8.640427727861924"><ele>98.4</ele><time>2026-04-22T11:11:45Z</time></trkpt><trkpt lat="44.95084124282952" lon="8.640464951994236"><ele>98.60000000000001</ele><time>2026-04-22T11:11:46Z</time></trkpt><trkpt lat="44.950940490878445" lon="8.640497763531398"><ele>98.80000000000001</ele><time>2026-04-22T11:11:47Z</time></trkpt><trkpt lat="44.95104561935276" lon="8.640536487897993"><ele>99.0</ele><time>2026-04-22T11:11:48Z</time></trkpt><trkpt lat="44.9511609586047" lon="8.640568652076105"><ele>99.0</ele><time>2026-04-22T11:11:49Z</time></trkpt><trkpt lat="44.951272298830105" lon="8.640601531542625"><ele>99.0</ele><time>2026-04-22T11:11:50Z</time></trkpt><trkpt lat="44.95139582464198" lon="8.64064785827383"><ele>99.0</ele><time>2026-04-22T11:11:51Z</time></trkpt><trkpt lat="44.95151859479923" lon="8.640689701861232"><ele>99.0</ele><time>2026-04-22T11:11:52Z</time></trkpt><trkpt lat="44.95164318613158" lon="8.640734203229657"><ele>100.0</ele><time>2026-04-22T11:11:53Z</time></trkpt><trkpt lat="44.95177027036264" lon="8.640774682733975"><ele>101.0</ele><time>2026-04-22T11:11:54Z</time></trkpt><trkpt lat="44.9519091963067" lon="8.640818942329913"><ele>102.0</ele><time>2026-04-22T11:11:55Z</time></trkpt><trkpt lat="44.95204718844269" lon="8.6408610853683"><ele>103.0</ele><time>2026-04-22T11:11:56Z</time></trkpt><trkpt lat="44.95218581567928" lon="8.6409050474123"><ele>103.0</ele><time>2026-04-22T11:11:57Z</time></trkpt><trkpt lat="44.95233208907939" lon="8.640959703151296"><ele>103.0</ele><time>2026-04-22T11:11:58Z</time></trkpt><trkpt lat="44.952475621031574" lon="8.641006630654287"><ele>103.0</ele><time>2026-04-22T11:11:59Z</time></trkpt><trkpt lat="44.95262088710012" lon="8.64106130696398"><ele>103.0</ele><time>2026-04-22T11:12:00Z</time></trkpt><trkpt lat="44.95276323177167" lon="8.641110115308662"><ele>104.0</ele><time>2026-04-22T11:12:01Z</time></trkpt><trkpt lat="44.95291127806351" lon="8.641177139473827"><ele>105.0</ele><time>2026-04-22T11:12:02Z</time></trkpt><trkpt lat="44.953056284621425" lon="8.641231900369288"><ele>106.0</ele><time>2026-04-22T11:12:03Z</time></trkpt><trkpt lat="44.95320070741336" lon="8.641281355957233"><ele>106.0</ele><time>2026-04-22T11:12:04Z</time></trkpt><trkpt lat="44.95334546328111" lon="8.641334420333559"><ele>106.0</ele><time>2026-04-22T11:12:05Z</time></trkpt><trkpt lat="44.95346402711185" lon="8.641380227638518"><ele>106.0</ele><time>2026-04-22T11:12:06Z</time></trkpt><trkpt lat="44.95358028832843" lon="8.641428334511872"><ele>106.0</ele><time>2026-04-22T11:12:07Z</time></trkpt><trkpt lat="44.953710392176845" lon="8.641512235123521"><ele>106.66666666666667</ele><time>2026-04-22T11:12:08Z</time></trkpt><trkpt lat="44.953838991314484" lon="8.641628347053517"><ele>107.33333333333334</ele><time>2026-04-22T11:12:09Z</time></trkpt><trkpt lat="44.953970561899666" lon="8.64177268919299"><ele>108.0</ele><time>2026-04-22T11:12:10Z</time></trkpt><trkpt lat="44.954100965649424" lon="8.641908267499213"><ele>108.66666666666666</ele><time>2026-04-22T11:12:11Z</time></trkpt><trkpt lat="44.95424243966607" lon="8.642040661772105"><ele>109.33333333333333</ele><time>2026-04-22T11:12:12Z</time></trkpt><trkpt lat="44.954383540235916" lon="8.642164366957255"><ele>110.0</ele><time>2026-04-22T11:12:13Z</time></trkpt><trkpt lat="44.95451028918659" lon="8.642278026081703"><ele>110.0</ele><time>2026-04-22T11:12:14Z</time></trkpt><trkpt lat="44.95463321312976" lon="8.642365291539672"><ele>110.0</ele><time>2026-04-22T11:12:15Z</time></trkpt><trkpt lat="44.95476447549842" lon="8.64246766752423"><ele>110.0</ele><time>2026-04-22T11:12:16Z</time></trkpt><trkpt lat="44.9548880981719" lon="8.642581866877395"><ele>110.0</ele><time>2026-04-22T11:12:17Z</time></trkpt><trkpt lat="44.95499148086311" lon="8.642696544113354"><ele>110.25</ele><time>2026-04-22T11:12:18Z</time></trkpt><trkpt lat="44.9550809045511" lon="8.642813862034382"><ele>110.5</ele><time>2026-04-22T11:12:19Z</time></trkpt><trkpt lat="44.95516081442358" lon="8.642924566212374"><ele>110.75</ele><time>2026-04-22T11:12:20Z</time></trkpt><trkpt lat="44.95523869696907" lon="8.643025162509549"><ele>111.0</ele><time>2026-04-22T11:12:21Z</time></trkpt><trkpt lat="44.95532164423219" lon="8.64313215260653"><ele>111.0</ele><time>2026-04-22T11:12:22Z</time></trkpt><trkpt lat="44.9554111714705" lon="8.64324285347039"><ele>111.0</ele><time>2026-04-22T11:12:23Z</time></trkpt><trkpt lat="44.95550564396397" lon="8.643364915992318"><ele>111.0</ele><time>2026-04-22T11:12:24Z</time></trkpt><trkpt lat="44.9556043588194" lon="8.64349732834331"><ele>111.0</ele><time>2026-04-22T11:12:25Z</time></trkpt><trkpt lat="44.955697942269225" lon="8.643608108913755"><ele>111.4</ele><time>2026-04-22T11:12:26Z</time></trkpt><trkpt lat="44.95577640700156" lon="8.643697581399085"><ele>111.8</ele><time>2026-04-22T11:12:27Z</time></trkpt><trkpt lat="44.95585221943703" lon="8.64377689334548"><ele>112.20000000000002</ele><time>2026-04-22T11:12:28Z</time></trkpt><trkpt lat="44.9559295457496" lon="8.643843991647591"><ele>112.60000000000001</ele><time>2026-04-22T11:12:29Z</time></trkpt><trkpt lat="44.956006620874014" lon="8.64389741306219"><ele>113.0</ele><time>2026-04-22T11:12:30Z</time></trkpt><trkpt lat="44.956076851333926" lon="8.643945596464675"><ele>113.60000000000001</ele><time>2026-04-22T11:12:31Z</time></trkpt><trkpt lat="44.956141219943945" lon="8.644019785491805"><ele>114.20000000000002</ele><time>2026-04-22T11:12:32Z</time></trkpt><trkpt lat="44.95620376724803" lon="8.644127336622722"><ele>114.8</ele><time>2026-04-22T11:12:33Z</time></trkpt><trkpt lat="44.956282067657575" lon="8.644250208432291"><ele>115.4</ele><time>2026-04-22T11:12:34Z</time></trkpt><trkpt lat="44.956373880933725" lon="8.644381801634628"><ele>116.0</ele><time>2026-04-22T11:12:35Z</time></trkpt><trkpt lat="44.95644013480975" lon="8.644538016068243"><ele>116.5</ele><time>2026-04-22T11:12:36Z</time></trkpt><trkpt lat="44.956519255407684" lon="8.644691682137552"><ele>117.0</ele><time>2026-04-22T11:12:37Z</time></trkpt><trkpt lat="44.956588565366474" lon="8.644845096314304"><ele>117.5</ele><time>2026-04-22T11:12:38Z</time></trkpt><trkpt lat="44.95665593462613" lon="8.64502386493232"><ele>118.0</ele><time>2026-04-22T11:12:39Z</time></trkpt><trkpt lat="44.956718428480684" lon="8.645201448552024"><ele>120.33333333333334</ele><time>2026-04-22T11:12:40Z</time></trkpt><trkpt lat="44.95677885830344" lon="8.645393027631966"><ele>122.66666666666666</ele><time>2026-04-22T11:12:41Z</time></trkpt><trkpt lat="44.95686090493118" lon="8.645571528015791"><ele>125.0</ele><time>2026-04-22T11:12:42Z</time></trkpt><trkpt lat="44.95693950710945" lon="8.645756702732866"><ele>125.0</ele><time>2026-04-22T11:12:43Z</time></trkpt><trkpt lat="44.95702281986928" lon="8.645938581115576"><ele>125.0</ele><time>2026-04-22T11:12:44Z</time></trkpt><trkpt lat="44.95711962987844" lon="8.646108395459194"><ele>125.0</ele><time>2026-04-22T11:12:45Z</time></trkpt><trkpt lat="44.95721222610736" lon="8.646266592144366"><ele>124.33333333333333</ele><time>2026-04-22T11:12:46Z</time></trkpt><trkpt lat="44.95732739925571" lon="8.646441946784055"><ele>123.66666666666666</ele><time>2026-04-22T11:12:47Z</time></trkpt><trkpt lat="44.957442079671445" lon="8.646604385616978"><ele>123.0</ele><time>2026-04-22T11:12:48Z</time></trkpt><trkpt lat="44.95755890188362" lon="8.646767983905674"><ele>124.75</ele><time>2026-04-22T11:12:49Z</time></trkpt><trkpt lat="44.957632401808446" lon="8.646900732938647"><ele>126.5</ele><time>2026-04-22T11:12:50Z</time></trkpt><trkpt lat="44.957729007712196" lon="8.646999727886216"><ele>128.25</ele><time>2026-04-22T11:12:51Z</time></trkpt><trkpt lat="44.957822185466284" lon="8.647094156701145"><ele>130.0</ele><time>2026-04-22T11:12:52Z</time></trkpt><trkpt lat="44.95793095099001" lon="8.647157231572459"><ele>130.0</ele><time>2026-04-22T11:12:53Z</time></trkpt><trkpt lat="44.95805682471845" lon="8.647192712268618"><ele>130.0</ele><time>2026-04-22T11:12:54Z</time></trkpt><trkpt lat="44.958182980242086" lon="8.647224641834596"><ele>130.0</ele><time>2026-04-22T11:12:55Z</time></trkpt><trkpt lat="44.95832505750621" lon="8.64727200162019"><ele>130.0</ele><time>2026-04-22T11:12:56Z</time></trkpt><trkpt lat="44.958468073745344" lon="8.64731415601795"><ele>134.33333333333334</ele><time>2026-04-22T11:12:57Z</time></trkpt><trkpt lat="44.958621284093404" lon="8.647368360958321"><ele>138.66666666666666</ele><time>2026-04-22T11:12:58Z</time></trkpt><trkpt lat="44.958772782666955" lon="8.647420682325192"><ele>143.0</ele><time>2026-04-22T11:12:59Z</time></trkpt><trkpt lat="44.95891374316475" lon="8.647477143382998"><ele>143.0</ele><time>2026-04-22T11:13:00Z</time></trkpt><trkpt lat="44.959073021269894" lon="8.647536995894859"><ele>143.0</ele><time>2026-04-22T11:13:01Z</time></trkpt><trkpt lat="44.95927773149401" lon="8.647629825369494"><ele>143.0</ele><time>2026-04-22T11:13:02Z</time></trkpt><trkpt lat="44.95944121482777" lon="8.647712057150017"><ele>144.75</ele><time>2026-04-22T11:13:03Z</time></trkpt><trkpt lat="44.95957994478777" lon="8.647800923815955"><ele>146.5</ele><time>2026-04-22T11:13:04Z</time></trkpt><trkpt lat="44.95972165914245" lon="8.647882313936233"><ele>148.25</ele><time>2026-04-22T11:13:05Z</time></trkpt><trkpt lat="44.95985246112426" lon="8.647947902718236"><ele>150.0</ele><time>2026-04-22T11:13:06Z</time></trkpt><trkpt lat="44.95998202100228" lon="8.647993890817713"><ele>151.25</ele><time>2026-04-22T11:13:07Z</time></trkpt><trkpt lat="44.96011479677509" lon="8.648033483105374"><ele>152.5</ele><time>2026-04-22T11:13:08Z</time></trkpt><trkpt lat="44.96024688629249" lon="8.648065721610722"><ele>153.75</ele><time>2026-04-22T11:13:09Z</time></trkpt><trkpt lat="44.960350488202344" lon="8.64810920585437"><ele>155.0</ele><time>2026-04-22T11:13:10Z</time></trkpt><trkpt lat="44.960450912227124" lon="8.64816658279579"><ele>155.0</ele><time>2026-04-22T11:13:11Z</time></trkpt><trkpt lat="44.96055125784781" lon="8.64823915264763"><ele>155.0</ele><time>2026-04-22T11:13:12Z</time></trkpt><trkpt lat="44.96061316120179" lon="8.648372489573484"><ele>155.0</ele><time>2026-04-22T11:13:13Z</time></trkpt><trkpt lat="44.96069129787422" lon="8.6484872736647"><ele>155.0</ele><time>2026-04-22T11:13:14Z</time></trkpt><trkpt lat="44.96075435957312" lon="8.648616386459775"><ele>155.0</ele><time>2026-04-22T11:13:15Z</time></trkpt><trkpt lat="44.96083904018365" lon="8.648765990537106"><ele>157.33333333333331</ele><time>2026-04-22T11:13:16Z</time></trkpt><trkpt lat="44.96095798839272" lon="8.648966045454175"><ele>159.66666666666666</ele><time>2026-04-22T11:13:17Z</time></trkpt><trkpt lat="44.96107790826488" lon="8.649147882698935"><ele>162.0</ele><time>2026-04-22T11:13:18Z</time></trkpt><trkpt lat="44.96120718017958" lon="8.649296434047917"><ele>162.0</ele><time>2026-04-22T11:13:19Z</time></trkpt><trkpt lat="44.96134469242923" lon="8.649413153350984"><ele>162.0</ele><time>2026-04-22T11:13:20Z</time></trkpt><trkpt lat="44.96150103635643" lon="8.649506283821486"><ele>162.0</ele><time>2026-04-22T11:13:21Z</time></trkpt><trkpt lat="44.96167183669618" lon="8.64961498084416"><ele>164.33333333333334</ele><time>2026-04-22T11:13:22Z</time></trkpt><trkpt lat="44.96183163632936" lon="8.649734336246661"><ele>166.66666666666669</ele><time>2026-04-22T11:13:23Z</time></trkpt><trkpt lat="44.96197099613849" lon="8.649846501271757"><ele>169.0</ele><time>2026-04-22T11:13:24Z</time></trkpt><trkpt lat="44.962091141641366" lon="8.64996330341094"><ele>169.0</ele><time>2026-04-22T11:13:25Z</time></trkpt><trkpt lat="44.962203924020955" lon="8.650087831783317"><ele>169.0</ele><time>2026-04-22T11:13:26Z</time></trkpt><trkpt lat="44.96230787603636" lon="8.650222412181321"><ele>169.0</ele><time>2026-04-22T11:13:27Z</time></trkpt><trkpt lat="44.96240910892874" lon="8.650370418123599"><ele>169.0</ele><time>2026-04-22T11:13:28Z</time></trkpt><trkpt lat="44.96252972283441" lon="8.650495852038382"><ele>170.33333333333334</ele><time>2026-04-22T11:13:29Z</time></trkpt><trkpt lat="44.96268270894293" lon="8.650612479170036"><ele>171.66666666666666</ele><time>2026-04-22T11:13:30Z</time></trkpt><trkpt lat="44.962838125517216" lon="8.650705343537647"><ele>173.0</ele><time>2026-04-22T11:13:31Z</time></trkpt><trkpt lat="44.96299914229486" lon="8.650827366963192"><ele>173.0</ele><time>2026-04-22T11:13:32Z</time></trkpt><trkpt lat="44.963166314519256" lon="8.650971772152275"><ele>173.0</ele><time>2026-04-22T11:13:33Z</time></trkpt><trkpt lat="44.963316884551325" lon="8.65110333497292"><ele>173.0</ele><time>2026-04-22T11:13:34Z</time></trkpt><trkpt lat="44.9634027110731" lon="8.651221386514369"><ele>174.75</ele><time>2026-04-22T11:13:35Z</time></trkpt><trkpt lat="44.96349328096454" lon="8.651341173145042"><ele>176.5</ele><time>2026-04-22T11:13:36Z</time></trkpt><trkpt lat="44.963573966782725" lon="8.65151010887315"><ele>178.25</ele><time>2026-04-22T11:13:37Z</time></trkpt><trkpt lat="44.96365701631434" lon="8.651705280239963"><ele>180.0</ele><time>2026-04-22T11:13:38Z</time></trkpt><trkpt lat="44.96373679571139" lon="8.651925269888718"><ele>184.0</ele><time>2026-04-22T11:13:39Z</time></trkpt><trkpt lat="44.963804498728955" lon="8.652184095942799"><ele>188.0</ele><time>2026-04-22T11:13:40Z</time></trkpt><trkpt lat="44.96386729964013" lon="8.652458576785335"><ele>192.0</ele><time>2026-04-22T11:13:41Z</time></trkpt><trkpt lat="44.963908336788045" lon="8.652682424257248"><ele>194.0</ele><time>2026-04-22T11:13:42Z</time></trkpt><trkpt lat="44.963929182479596" lon="8.652928410868494"><ele>196.0</ele><time>2026-04-22T11:13:43Z</time></trkpt><trkpt lat="44.96393345802127" lon="8.65322764983728"><ele>198.0</ele><time>2026-04-22T11:13:44Z</time></trkpt><trkpt lat="44.96392434522471" lon="8.653528177151555"><ele>199.66666666666669</ele><time>2026-04-22T11:13:45Z</time></trkpt><trkpt lat="44.963918410696" lon="8.65376904807453"><ele>201.33333333333334</ele><time>2026-04-22T11:13:46Z</time></trkpt><trkpt lat="44.9639411415884" lon="8.654003445126751"><ele>203.0</ele><time>2026-04-22T11:13:47Z</time></trkpt><trkpt lat="44.964000100011816" lon="8.654265347528401"><ele>204.66666666666669</ele><time>2026-04-22T11:13:48Z</time></trkpt><trkpt lat="44.96404899756633" lon="8.654541960044034"><ele>206.33333333333331</ele><time>2026-04-22T11:13:49Z</time></trkpt><trkpt lat="44.96405695213896" lon="8.654885168095868"><ele>208.0</ele><time>2026-04-22T11:13:50Z</time></trkpt><trkpt lat="44.96407878452102" lon="8.655274015506246"><ele>209.0</ele><time>2026-04-22T11:13:51Z</time></trkpt><trkpt lat="44.96409026794401" lon="8.655605915202283"><ele>210.0</ele><time>2026-04-22T11:13:52Z</time></trkpt><trkpt lat="44.96410618008429" lon="8.655865873585078"><ele>211.0</ele><time>2026-04-22T11:13:53Z</time></trkpt><trkpt lat="44.96410945074355" lon="8.656055222974013"><ele>211.33333333333331</ele><time>2026-04-22T11:13:54Z</time></trkpt><trkpt lat="44.96411539126503" lon="8.656186175264484"><ele>211.66666666666666</ele><time>2026-04-22T11:13:55Z</time></trkpt><trkpt lat="44.96413474680691" lon="8.656297009031286"><ele>212.0</ele><time>2026-04-22T11:13:57Z</time></trkpt><trkpt lat="44.964056141477265" lon="8.656353585295074"><ele>212.33333333333331</ele><time>2026-04-22T11:14:10Z</time></trkpt><trkpt lat="44.963976634882194" lon="8.656433004207065"><ele>212.66666666666666</ele><time>2026-04-22T11:14:12Z</time></trkpt><trkpt lat="44.96392510270688" lon="8.656484479550189"><ele>213.0</ele><time>2026-04-22T11:14:13Z</time></trkpt><trkpt lat="44.96385975861974" lon="8.656552384087641"><ele>213.0</ele><time>2026-04-22T11:14:14Z</time></trkpt><trkpt lat="44.96377742526621" lon="8.656643391003596"><ele>213.0</ele><time>2026-04-22T11:14:15Z</time></trkpt><trkpt lat="44.96371577281273" lon="8.6567139900798"><ele>213.0</ele><time>2026-04-22T11:14:16Z</time></trkpt><trkpt lat="44.96366667417343" lon="8.656770529114036"><ele>213.0</ele><time>2026-04-22T11:14:17Z</time></trkpt><trkpt lat="44.96359659012007" lon="8.656852787515513"><ele>213.0</ele><time>2026-04-22T11:14:19Z</time></trkpt><trkpt lat="44.963524124253496" lon="8.656939840410974"><ele>213.0</ele><time>2026-04-22T11:14:20Z</time></trkpt><trkpt lat="44.9634747084517" lon="8.657003859427128"><ele>212.8</ele><time>2026-04-22T11:14:21Z</time></trkpt><trkpt lat="44.963421804676855" lon="8.657075271365782"><ele>212.60000000000002</ele><time>2026-04-22T11:14:22Z</time></trkpt><trkpt lat="44.96336029170403" lon="8.657162306817446"><ele>212.39999999999998</ele><time>2026-04-22T11:14:23Z</time></trkpt><trkpt lat="44.96329655589508" lon="8.657252771272608"><ele>212.2</ele><time>2026-04-22T11:14:24Z</time></trkpt><trkpt lat="44.9632236503628" lon="8.657356756855133"><ele>212.0</ele><time>2026-04-22T11:14:25Z</time></trkpt><trkpt lat="44.963162112192634" lon="8.657462927376413"><ele>212.0</ele><time>2026-04-22T11:14:26Z</time></trkpt><trkpt lat="44.963100318227454" lon="8.657553085966965"><ele>212.0</ele><time>2026-04-22T11:14:27Z</time></trkpt><trkpt lat="44.96304324375016" lon="8.657637361181308"><ele>212.0</ele><time>2026-04-22T11:14:28Z</time></trkpt><trkpt lat="44.96296714743506" lon="8.657705536886745"><ele>212.0</ele><time>2026-04-22T11:14:29Z</time></trkpt><trkpt lat="44.962852652510826" lon="8.65780257125068"><ele>212.0</ele><time>2026-04-22T11:14:31Z</time></trkpt><trkpt lat="44.96277264984252" lon="8.657860098459867"><ele>212.2</ele><time>2026-04-22T11:14:32Z</time></trkpt><trkpt lat="44.96270024175469" lon="8.657907042429768"><ele>212.39999999999998</ele><time>2026-04-22T11:14:33Z</time></trkpt><trkpt lat="44.96263691902805" lon="8.657947120659285"><ele>212.60000000000002</ele><time>2026-04-22T11:14:34Z</time></trkpt><trkpt lat="44.96253125748902" lon="8.658013995971555"><ele>212.8</ele><time>2026-04-22T11:14:36Z</time></trkpt><trkpt lat="44.96242212857779" lon="8.658084660469914"><ele>213.0</ele><time>2026-04-22T11:14:38Z</time></trkpt><trkpt lat="44.96234026674996" lon="8.658165026963196"><ele>213.0</ele><time>2026-04-22T11:14:40Z</time></trkpt><trkpt lat="44.962264530982914" lon="8.658219216790908"><ele>213.0</ele><time>2026-04-22T11:14:42Z</time></trkpt><trkpt lat="44.962193967091565" lon="8.658290214683827"><ele>213.0</ele><time>2026-04-22T11:14:44Z</time></trkpt><trkpt lat="44.962127683610476" lon="8.658350396969787"><ele>213.0</ele><time>2026-04-22T11:14:46Z</time></trkpt><trkpt lat="44.96204554284731" lon="8.658418745009596"><ele>213.0</ele><time>2026-04-22T11:14:48Z</time></trkpt><trkpt lat="44.96198273054935" lon="8.65848378179682"><ele>213.0</ele><time>2026-04-22T11:14:49Z</time></trkpt><trkpt lat="44.96190042310364" lon="8.658561812815194"><ele>213.4</ele><time>2026-04-22T11:14:50Z</time></trkpt><trkpt lat="44.9618189413082" lon="8.65865262425832"><ele>213.8</ele><time>2026-04-22T11:14:51Z</time></trkpt><trkpt lat="44.96174922333914" lon="8.658712976576265"><ele>214.2</ele><time>2026-04-22T11:14:52Z</time></trkpt><trkpt lat="44.96169189136134" lon="8.65875443591323"><ele>214.6</ele><time>2026-04-22T11:14:53Z</time></trkpt><trkpt lat="44.96162050015347" lon="8.658831645871718"><ele>215.0</ele><time>2026-04-22T11:14:55Z</time></trkpt><trkpt lat="44.96163531422826" lon="8.659095511192874"><ele>215.0</ele><time>2026-04-22T11:14:57Z</time></trkpt><trkpt lat="44.961630136833925" lon="8.6592674010003"><ele>215.0</ele><time>2026-04-22T11:14:58Z</time></trkpt><trkpt lat="44.96163872306189" lon="8.65949595680833"><ele>215.0</ele><time>2026-04-22T11:14:59Z</time></trkpt><trkpt lat="44.96164520434911" lon="8.659753915750581"><ele>215.5</ele><time>2026-04-22T11:15:00Z</time></trkpt><trkpt lat="44.96164284981383" lon="8.659941277840916"><ele>216.0</ele><time>2026-04-22T11:15:01Z</time></trkpt><trkpt lat="44.961640435250565" lon="8.66009841453958"><ele>216.5</ele><time>2026-04-22T11:15:02Z</time></trkpt><trkpt lat="44.9616382131729" lon="8.660265710926328"><ele>217.0</ele><time>2026-04-22T11:15:03Z</time></trkpt><trkpt lat="44.961642823346516" lon="8.660439977702731"><ele>217.2</ele><time>2026-04-22T11:15:04Z</time></trkpt><trkpt lat="44.96163916398478" lon="8.660606034212293"><ele>217.39999999999998</ele><time>2026-04-22T11:15:05Z</time></trkpt><trkpt lat="44.961635268755415" lon="8.660765509492043"><ele>217.60000000000002</ele><time>2026-04-22T11:15:06Z</time></trkpt><trkpt lat="44.96163873376903" lon="8.660913243405025"><ele>217.8</ele><time>2026-04-22T11:15:07Z</time></trkpt><trkpt lat="44.961645359793295" lon="8.661037464379465"><ele>218.0</ele><time>2026-04-22T11:15:08Z</time></trkpt><trkpt lat="44.96162905736171" lon="8.661170042477632"><ele>216.75</ele><time>2026-04-22T11:15:09Z</time></trkpt><trkpt lat="44.961611680335494" lon="8.661299669301687"><ele>215.5</ele><time>2026-04-22T11:15:10Z</time></trkpt><trkpt lat="44.96158740056863" lon="8.66145283855624"><ele>214.25</ele><time>2026-04-22T11:15:11Z</time></trkpt><trkpt lat="44.96153998808131" lon="8.66165994167413"><ele>213.0</ele><time>2026-04-22T11:15:12Z</time></trkpt><trkpt lat="44.961485861308866" lon="8.66186001851633"><ele>212.25</ele><time>2026-04-22T11:15:13Z</time></trkpt><trkpt lat="44.96144116898054" lon="8.662040265294827"><ele>211.5</ele><time>2026-04-22T11:15:14Z</time></trkpt><trkpt lat="44.96136567900692" lon="8.662199117004652"><ele>210.75</ele><time>2026-04-22T11:15:15Z</time></trkpt><trkpt lat="44.9612950770025" lon="8.66237089324722"><ele>210.0</ele><time>2026-04-22T11:15:16Z</time></trkpt><trkpt lat="44.96122995933686" lon="8.662541382236178"><ele>210.0</ele><time>2026-04-22T11:15:17Z</time></trkpt><trkpt lat="44.961190314508876" lon="8.662704929072175"><ele>210.0</ele><time>2026-04-22T11:15:18Z</time></trkpt><trkpt lat="44.961143464896274" lon="8.662855098654383"><ele>210.0</ele><time>2026-04-22T11:15:19Z</time></trkpt><trkpt lat="44.96111343141007" lon="8.663006976297378"><ele>210.0</ele><time>2026-04-22T11:15:20Z</time></trkpt><trkpt lat="44.961099324258804" lon="8.663172543583148"><ele>210.75</ele><time>2026-04-22T11:15:21Z</time></trkpt><trkpt lat="44.96109130249185" lon="8.663347339538502"><ele>211.5</ele><time>2026-04-22T11:15:22Z</time></trkpt><trkpt lat="44.961093787508965" lon="8.663527587510698"><ele>212.25</ele><time>2026-04-22T11:15:23Z</time></trkpt><trkpt lat="44.96109110373804" lon="8.663707229518746"><ele>213.0</ele><time>2026-04-22T11:15:24Z</time></trkpt><trkpt lat="44.961092374472486" lon="8.663879156744127"><ele>213.0</ele><time>2026-04-22T11:15:25Z</time></trkpt><trkpt lat="44.96110520294074" lon="8.664091262537106"><ele>213.0</ele><time>2026-04-22T11:15:26Z</time></trkpt><trkpt lat="44.96112440224153" lon="8.664264647275743"><ele>213.0</ele><time>2026-04-22T11:15:27Z</time></trkpt><trkpt lat="44.961141818149116" lon="8.664429718914441"><ele>213.0</ele><time>2026-04-22T11:15:28Z</time></trkpt><trkpt lat="44.96113056642902" lon="8.664591971597366"><ele>212.75</ele><time>2026-04-22T11:15:29Z</time></trkpt><trkpt lat="44.96111229983172" lon="8.664766166043915"><ele>212.5</ele><time>2026-04-22T11:15:30Z</time></trkpt><trkpt lat="44.961093392702736" lon="8.665008011460566"><ele>212.25</ele><time>2026-04-22T11:15:31Z</time></trkpt><trkpt lat="44.96105070342432" lon="8.665189838928642"><ele>212.0</ele><time>2026-04-22T11:15:32Z</time></trkpt><trkpt lat="44.961050222924406" lon="8.665339038337553"><ele>212.5</ele><time>2026-04-22T11:15:33Z</time></trkpt><trkpt lat="44.96103172043208" lon="8.665504427759089"><ele>213.0</ele><time>2026-04-22T11:15:34Z</time></trkpt><trkpt lat="44.96103511705015" lon="8.665665326571592"><ele>213.5</ele><time>2026-04-22T11:15:35Z</time></trkpt><trkpt lat="44.96100855894434" lon="8.665826889440195"><ele>214.0</ele><time>2026-04-22T11:15:36Z</time></trkpt><trkpt lat="44.96098534287624" lon="8.665980718862187"><ele>214.6</ele><time>2026-04-22T11:15:37Z</time></trkpt><trkpt lat="44.96094470216748" lon="8.666138071412764"><ele>215.2</ele><time>2026-04-22T11:15:38Z</time></trkpt><trkpt lat="44.960889718319024" lon="8.666270466206129"><ele>215.79999999999998</ele><time>2026-04-22T11:15:39Z</time></trkpt><trkpt lat="44.960834587205746" lon="8.666405401259585"><ele>216.39999999999998</ele><time>2026-04-22T11:15:40Z</time></trkpt><trkpt lat="44.96078265127119" lon="8.666527278335575"><ele>217.0</ele><time>2026-04-22T11:15:41Z</time></trkpt><trkpt lat="44.96072662557423" lon="8.666665504810927"><ele>219.0</ele><time>2026-04-22T11:15:42Z</time></trkpt><trkpt lat="44.96067341289592" lon="8.66679864100711"><ele>221.0</ele><time>2026-04-22T11:15:43Z</time></trkpt><trkpt lat="44.960623022889884" lon="8.666924714958128"><ele>223.0</ele><time>2026-04-22T11:15:44Z</time></trkpt><trkpt lat="44.96056695165488" lon="8.667067419303965"><ele>225.0</ele><time>2026-04-22T11:15:45Z</time></trkpt><trkpt lat="44.96050508566505" lon="8.667213769195206"><ele>227.0</ele><time>2026-04-22T11:15:46Z</time></trkpt><trkpt lat="44.96045046048815" lon="8.667333230327095"><ele>227.5</ele><time>2026-04-22T11:15:47Z</time></trkpt><trkpt lat="44.960381232479456" lon="8.667475018458209"><ele>228.0</ele><time>2026-04-22T11:15:48Z</time></trkpt><trkpt lat="44.9603108933254" lon="8.667626006958042"><ele>228.5</ele><time>2026-04-22T11:15:49Z</time></trkpt><trkpt lat="44.96024804155544" lon="8.667807323308036"><ele>229.0</ele><time>2026-04-22T11:15:50Z</time></trkpt><trkpt lat="44.960176060806056" lon="8.667953197999992"><ele>229.2</ele><time>2026-04-22T11:15:51Z</time></trkpt><trkpt lat="44.960107385738695" lon="8.668058955187758"><ele>229.39999999999998</ele><time>2026-04-22T11:15:52Z</time></trkpt><trkpt lat="44.960046505208574" lon="8.668163183025532"><ele>229.6</ele><time>2026-04-22T11:15:53Z</time></trkpt><trkpt lat="44.96000144870577" lon="8.668255957481653"><ele>229.8</ele><time>2026-04-22T11:15:55.001Z</time></trkpt><trkpt lat="44.95992182606474" lon="8.668361707981413"><ele>230.0</ele><time>2026-04-22T11:15:56.001Z</time></trkpt><trkpt lat="44.959969150379976" lon="8.668524167171155"><ele>230.0</ele><time>2026-04-22T11:16:05.001Z</time></trkpt><trkpt lat="44.96000234899422" lon="8.668647209307514"><ele>230.0</ele><time>2026-04-22T11:16:07.001Z</time></trkpt><trkpt lat="44.9600213417074" lon="8.668780285733185"><ele>230.0</ele><time>2026-04-22T11:16:09.001Z</time></trkpt><trkpt lat="44.960065307496386" lon="8.668934603569726"><ele>230.0</ele><time>2026-04-22T11:16:11.001Z</time></trkpt><trkpt lat="44.960098618636714" lon="8.669095204094633"><ele>230.0</ele><time>2026-04-22T11:16:13.001Z</time></trkpt><trkpt lat="44.9601085396081" lon="8.669189434270818"><ele>230.00000000000003</ele><time>2026-04-22T11:16:14.001Z</time></trkpt><trkpt lat="44.96010846715952" lon="8.669286098364699"><ele>230.0</ele><time>2026-04-22T11:16:15.001Z</time></trkpt><trkpt lat="44.96007135531563" lon="8.669384900284918"><ele>230.0</ele><time>2026-04-22T11:16:16.001Z</time></trkpt><trkpt lat="44.96006675540846" lon="8.669482832046972"><ele>230.0</ele><time>2026-04-22T11:16:17Z</time></trkpt><trkpt lat="44.96005547586266" lon="8.669587877597012"><ele>230.00000000000003</ele><time>2026-04-22T11:16:18Z</time></trkpt><trkpt lat="44.96003900404174" lon="8.669700328495647"><ele>230.0</ele><time>2026-04-22T11:16:19Z</time></trkpt><trkpt lat="44.96002049441259" lon="8.669810311526925"><ele>231.50000000000003</ele><time>2026-04-22T11:16:20Z</time></trkpt><trkpt lat="44.96000003781839" lon="8.66992764559721"><ele>233.0</ele><time>2026-04-22T11:16:21Z</time></trkpt><trkpt lat="44.95998766585561" lon="8.670034362964419"><ele>234.5</ele><time>2026-04-22T11:16:22Z</time></trkpt><trkpt lat="44.959977784506215" lon="8.670140710735621"><ele>236.0</ele><time>2026-04-22T11:16:23Z</time></trkpt><trkpt lat="44.959989810616115" lon="8.670244186156312"><ele>237.50000000000003</ele><time>2026-04-22T11:16:24Z</time></trkpt><trkpt lat="44.96002057144493" lon="8.670375918736735"><ele>239.0</ele><time>2026-04-22T11:16:25Z</time></trkpt><trkpt lat="44.960037640478035" lon="8.670513354091252"><ele>239.0</ele><time>2026-04-22T11:16:26Z</time></trkpt><trkpt lat="44.9600714429546" lon="8.670614620359911"><ele>238.99999999999997</ele><time>2026-04-22T11:16:27Z</time></trkpt><trkpt lat="44.960158183370645" lon="8.670527605183608"><ele>238.99999999999997</ele><time>2026-04-22T11:16:28Z</time></trkpt><trkpt lat="44.96005307823255" lon="8.670701323873262"><ele>239.0</ele><time>2026-04-22T11:16:29Z</time></trkpt><trkpt lat="44.960050757008986" lon="8.670815401341654"><ele>239.0</ele><time>2026-04-22T11:16:32Z</time></trkpt><trkpt lat="44.959998667493906" lon="8.670901358556776"><ele>239.00000000000003</ele><time>2026-04-22T11:16:34Z</time></trkpt><trkpt lat="44.95991470585394" lon="8.670893010252259"><ele>239.0</ele><time>2026-04-22T11:16:37Z</time></trkpt><trkpt lat="44.95989173382142" lon="8.670808920800473"><ele>239.00000000000003</ele><time>2026-04-22T11:16:40Z</time></trkpt><trkpt lat="44.959905479034745" lon="8.67070884502818"><ele>239.00000000000003</ele><time>2026-04-22T11:17:20Z</time></trkpt><trkpt lat="44.95991891207689" lon="8.67060949783"><ele>239.0</ele><time>2026-04-22T11:17:23Z</time></trkpt><trkpt lat="44.95997266742427" lon="8.670540206027606"><ele>239.00000000000003</ele><time>2026-04-22T11:17:29Z</time></trkpt><trkpt lat="44.96005107980539" lon="8.670538925485875"><ele>239.00000000000003</ele><time>2026-04-22T11:17:33Z</time></trkpt><trkpt lat="44.96012087351318" lon="8.670324155930244"><ele>239.0</ele><time>2026-04-22T11:17:34Z</time></trkpt><trkpt lat="44.96005866364229" lon="8.670690272417325"><ele>239.0</ele><time>2026-04-22T11:17:41Z</time></trkpt><trkpt lat="44.96007463641454" lon="8.670781040345496"><ele>239.0</ele><time>2026-04-22T11:17:49Z</time></trkpt><trkpt lat="44.96012186902561" lon="8.670884890249273"><ele>239.0</ele><time>2026-04-22T11:18:00.001Z</time></trkpt><trkpt lat="44.96006931501295" lon="8.67098063637687"><ele>239.33333333333334</ele><time>2026-04-22T11:18:02.001Z</time></trkpt><trkpt lat="44.95998637220165" lon="8.67095076044414"><ele>239.66666666666669</ele><time>2026-04-22T11:18:05.001Z</time></trkpt><trkpt lat="44.95990541388975" lon="8.670899922696897"><ele>240.0</ele><time>2026-04-22T11:18:07.001Z</time></trkpt><trkpt lat="44.95983658750145" lon="8.670871938992423"><ele>240.33333333333331</ele><time>2026-04-22T11:18:10.001Z</time></trkpt><trkpt lat="44.95978924159893" lon="8.670983557120364"><ele>240.66666666666666</ele><time>2026-04-22T11:18:13.001Z</time></trkpt><trkpt lat="44.95978841836391" lon="8.67110529934193"><ele>241.0</ele><time>2026-04-22T11:18:15.001Z</time></trkpt><trkpt lat="44.959778982438635" lon="8.671244308723063"><ele>239.99999999999997</ele><time>2026-04-22T11:18:17.001Z</time></trkpt><trkpt lat="44.959775284346875" lon="8.671345624005676"><ele>239.0</ele><time>2026-04-22T11:18:19.001Z</time></trkpt><trkpt lat="44.95977246724015" lon="8.671475858250895"><ele>238.0</ele><time>2026-04-22T11:18:21.001Z</time></trkpt><trkpt lat="44.95976984795106" lon="8.671623237929722"><ele>237.0</ele><time>2026-04-22T11:18:23.001Z</time></trkpt><trkpt lat="44.95976243930407" lon="8.671713207299888"><ele>235.99999999999997</ele><time>2026-04-22T11:18:24Z</time></trkpt><trkpt lat="44.95975470495975" lon="8.671817544761605"><ele>235.0</ele><time>2026-04-22T11:18:25Z</time></trkpt><trkpt lat="44.95974630057811" lon="8.671912527224393"><ele>233.8</ele><time>2026-04-22T11:18:26Z</time></trkpt><trkpt lat="44.95972990913211" lon="8.67202437761792"><ele>232.6</ele><time>2026-04-22T11:18:27Z</time></trkpt><trkpt lat="44.95968416108579" lon="8.672194163791143"><ele>231.39999999999998</ele><time>2026-04-22T11:18:29Z</time></trkpt><trkpt lat="44.95964054621211" lon="8.67229902664971"><ele>230.2</ele><time>2026-04-22T11:18:30Z</time></trkpt><trkpt lat="44.95960782414553" lon="8.672408082821207"><ele>229.0</ele><time>2026-04-22T11:18:31Z</time></trkpt><trkpt lat="44.95958220397172" lon="8.672542468164554"><ele>229.0</ele><time>2026-04-22T11:18:33Z</time></trkpt><trkpt lat="44.95954571370498" lon="8.672696660032592"><ele>228.99999999999997</ele><time>2026-04-22T11:18:34Z</time></trkpt><trkpt lat="44.95951624880168" lon="8.672824634855443"><ele>228.99999999999997</ele><time>2026-04-22T11:18:35Z</time></trkpt><trkpt lat="44.959477702079454" lon="8.672979943246869"><ele>229.0</ele><time>2026-04-22T11:18:37Z</time></trkpt><trkpt lat="44.95945208546882" lon="8.673087612763808"><ele>229.0</ele><time>2026-04-22T11:18:38Z</time></trkpt><trkpt lat="44.959425372326685" lon="8.673185391626303"><ele>228.16666666666666</ele><time>2026-04-22T11:18:39Z</time></trkpt><trkpt lat="44.95939354869345" lon="8.67328351100925"><ele>227.33333333333331</ele><time>2026-04-22T11:18:40Z</time></trkpt><trkpt lat="44.959368082679134" lon="8.673367138529194"><ele>226.5</ele><time>2026-04-22T11:18:41Z</time></trkpt><trkpt lat="44.95932245578592" lon="8.67351305499692"><ele>225.66666666666669</ele><time>2026-04-22T11:18:43Z</time></trkpt><trkpt lat="44.95928750973333" lon="8.673629976026916"><ele>224.83333333333334</ele><time>2026-04-22T11:18:45Z</time></trkpt><trkpt lat="44.95925337141535" lon="8.67377041903862"><ele>224.0</ele><time>2026-04-22T11:18:47Z</time></trkpt><trkpt lat="44.95923585720534" lon="8.673859293803075"><ele>223.16666666666669</ele><time>2026-04-22T11:18:48Z</time></trkpt><trkpt lat="44.95921269762039" lon="8.673987579259146"><ele>222.33333333333334</ele><time>2026-04-22T11:18:51Z</time></trkpt><trkpt lat="44.959172789234245" lon="8.674091098260186"><ele>221.5</ele><time>2026-04-22T11:18:54Z</time></trkpt><trkpt lat="44.95915315234997" lon="8.674238381995583"><ele>220.66666666666669</ele><time>2026-04-22T11:18:56Z</time></trkpt><trkpt lat="44.95916097825124" lon="8.67433113873459"><ele>219.83333333333334</ele><time>2026-04-22T11:18:59Z</time></trkpt><trkpt lat="44.95914616315845" lon="8.674436895413592"><ele>219.0</ele><time>2026-04-22T11:19:01Z</time></trkpt><trkpt lat="44.95914229614224" lon="8.674539021306295"><ele>218.5</ele><time>2026-04-22T11:19:03Z</time></trkpt><trkpt lat="44.95913621885882" lon="8.674638444384886"><ele>218.0</ele><time>2026-04-22T11:19:05Z</time></trkpt><trkpt lat="44.95912935439911" lon="8.674744037059376"><ele>217.5</ele><time>2026-04-22T11:19:08Z</time></trkpt><trkpt lat="44.959098228476186" lon="8.674847904300139"><ele>217.0</ele><time>2026-04-22T11:19:11Z</time></trkpt><trkpt lat="44.95910007828662" lon="8.674974208531221"><ele>216.5</ele><time>2026-04-22T11:19:14Z</time></trkpt><trkpt lat="44.95910609975368" lon="8.675079545566506"><ele>216.0</ele><time>2026-04-22T11:19:16Z</time></trkpt><trkpt lat="44.959126179264445" lon="8.67518530128328"><ele>215.60000000000002</ele><time>2026-04-22T11:19:19Z</time></trkpt><trkpt lat="44.95914508121143" lon="8.67530654155425"><ele>215.20000000000002</ele><time>2026-04-22T11:19:21Z</time></trkpt><trkpt lat="44.95916184737592" lon="8.67541796867017"><ele>214.79999999999998</ele><time>2026-04-22T11:19:23Z</time></trkpt><trkpt lat="44.95920748104789" lon="8.67553038079261"><ele>214.39999999999998</ele><time>2026-04-22T11:19:25Z</time></trkpt><trkpt lat="44.95926282342613" lon="8.67563429320975"><ele>214.0</ele><time>2026-04-22T11:19:27Z</time></trkpt><trkpt lat="44.95933648963708" lon="8.675736708787849"><ele>214.0</ele><time>2026-04-22T11:19:29Z</time></trkpt><trkpt lat="44.959417482585586" lon="8.675827864797835"><ele>214.0</ele><time>2026-04-22T11:19:31Z</time></trkpt><trkpt lat="44.959505392207575" lon="8.675934358405403"><ele>214.0</ele><time>2026-04-22T11:19:33Z</time></trkpt><trkpt lat="44.959596868244965" lon="8.676042812523118"><ele>214.0</ele><time>2026-04-22T11:19:35Z</time></trkpt><trkpt lat="44.95969470460806" lon="8.6761576572398"><ele>213.16666666666666</ele><time>2026-04-22T11:19:37Z</time></trkpt><trkpt lat="44.959740223021065" lon="8.676227969469302"><ele>212.33333333333331</ele><time>2026-04-22T11:19:38Z</time></trkpt><trkpt lat="44.95980982017271" lon="8.676343869897805"><ele>211.5</ele><time>2026-04-22T11:19:40Z</time></trkpt><trkpt lat="44.959852009191074" lon="8.676452418605821"><ele>210.66666666666669</ele><time>2026-04-22T11:19:42Z</time></trkpt><trkpt lat="44.95985311756062" lon="8.676583959681931"><ele>209.83333333333334</ele><time>2026-04-22T11:19:44Z</time></trkpt><trkpt lat="44.95984237376084" lon="8.676711132238921"><ele>209.0</ele><time>2026-04-22T11:19:46Z</time></trkpt><trkpt lat="44.95982771209173" lon="8.676843459277483"><ele>208.83333333333334</ele><time>2026-04-22T11:19:48Z</time></trkpt><trkpt lat="44.95981499985772" lon="8.676978167697749"><ele>208.66666666666669</ele><time>2026-04-22T11:19:50Z</time></trkpt><trkpt lat="44.95980576923178" lon="8.67712051702679"><ele>208.5</ele><time>2026-04-22T11:19:52Z</time></trkpt><trkpt lat="44.95979313713895" lon="8.677237369910802"><ele>208.33333333333331</ele><time>2026-04-22T11:19:54Z</time></trkpt><trkpt lat="44.95978739326081" lon="8.6773479117102"><ele>208.16666666666666</ele><time>2026-04-22T11:19:56Z</time></trkpt><trkpt lat="44.95978110473112" lon="8.67743791621473"><ele>208.0</ele><time>2026-04-22T11:19:58Z</time></trkpt><trkpt lat="44.95976626326091" lon="8.677558652173628"><ele>207.99999999999997</ele><time>2026-04-22T11:20:00Z</time></trkpt><trkpt lat="44.95975966431744" lon="8.677668559445722"><ele>208.0</ele><time>2026-04-22T11:20:02Z</time></trkpt><trkpt lat="44.95975782880386" lon="8.6777786776117"><ele>208.0</ele><time>2026-04-22T11:20:04Z</time></trkpt><trkpt lat="44.95973542246695" lon="8.677898814739317"><ele>208.0</ele><time>2026-04-22T11:20:06.001Z</time></trkpt><trkpt lat="44.95969116768461" lon="8.677999434001412"><ele>207.99999999999997</ele><time>2026-04-22T11:20:08Z</time></trkpt><trkpt lat="44.959641960796596" lon="8.678087602742806"><ele>208.0</ele><time>2026-04-22T11:20:10Z</time></trkpt><trkpt lat="44.959605983280554" lon="8.678194739075652"><ele>207.33333333333331</ele><time>2026-04-22T11:20:12Z</time></trkpt><trkpt lat="44.959584428197296" lon="8.678314539128626"><ele>206.66666666666666</ele><time>2026-04-22T11:20:14Z</time></trkpt><trkpt lat="44.9595575741807" lon="8.678424299311754"><ele>206.0</ele><time>2026-04-22T11:20:16Z</time></trkpt><trkpt lat="44.95954513424535" lon="8.678543187829002"><ele>205.33333333333331</ele><time>2026-04-22T11:20:18Z</time></trkpt><trkpt lat="44.959533716282685" lon="8.678652557432574"><ele>204.66666666666666</ele><time>2026-04-22T11:20:20Z</time></trkpt><trkpt lat="44.95952560080906" lon="8.678752241007821"><ele>204.0</ele><time>2026-04-22T11:20:22Z</time></trkpt><trkpt lat="44.9595316964675" lon="8.678849606543595"><ele>203.0</ele><time>2026-04-22T11:20:24Z</time></trkpt><trkpt lat="44.95952814014491" lon="8.678944755719789"><ele>202.0</ele><time>2026-04-22T11:20:26Z</time></trkpt><trkpt lat="44.95953465138958" lon="8.679067068649173"><ele>201.0</ele><time>2026-04-22T11:20:28Z</time></trkpt><trkpt lat="44.959545875035374" lon="8.6792093641682"><ele>200.0</ele><time>2026-04-22T11:20:30Z</time></trkpt><trkpt lat="44.95951369518034" lon="8.679377157982028"><ele>199.0</ele><time>2026-04-22T11:20:32Z</time></trkpt><trkpt lat="44.95953013435224" lon="8.679514533759939"><ele>198.33333333333331</ele><time>2026-04-22T11:20:34Z</time></trkpt><trkpt lat="44.95950988500983" lon="8.679645721728878"><ele>197.66666666666666</ele><time>2026-04-22T11:20:36Z</time></trkpt><trkpt lat="44.95950387146499" lon="8.679740700365652"><ele>197.0</ele><time>2026-04-22T11:20:37Z</time></trkpt><trkpt lat="44.959489501517965" lon="8.679839219675983"><ele>196.33333333333331</ele><time>2026-04-22T11:20:38Z</time></trkpt><trkpt lat="44.959456664185296" lon="8.680015380735153"><ele>195.66666666666666</ele><time>2026-04-22T11:20:40Z</time></trkpt><trkpt lat="44.95944120400953" lon="8.680107287446447"><ele>195.0</ele><time>2026-04-22T11:20:41Z</time></trkpt><trkpt lat="44.9594185784944" lon="8.680190532398033"><ele>194.2</ele><time>2026-04-22T11:20:42Z</time></trkpt><trkpt lat="44.959392285847514" lon="8.680275262292954"><ele>193.4</ele><time>2026-04-22T11:20:43Z</time></trkpt><trkpt lat="44.95936295682541" lon="8.680373317449902"><ele>192.60000000000002</ele><time>2026-04-22T11:20:44Z</time></trkpt><trkpt lat="44.95930113158583" lon="8.680515879883606"><ele>191.8</ele><time>2026-04-22T11:20:46Z</time></trkpt><trkpt lat="44.95924935647198" lon="8.680643717042145"><ele>191.0</ele><time>2026-04-22T11:20:48Z</time></trkpt><trkpt lat="44.95918402571712" lon="8.680779866431406"><ele>190.8</ele><time>2026-04-22T11:20:50Z</time></trkpt><trkpt lat="44.95916493916322" lon="8.6808699613639"><ele>190.60000000000002</ele><time>2026-04-22T11:20:51Z</time></trkpt><trkpt lat="44.9591438387441" lon="8.681032263207504"><ele>190.4</ele><time>2026-04-22T11:20:53Z</time></trkpt><trkpt lat="44.95913934565347" lon="8.681189091507648"><ele>190.2</ele><time>2026-04-22T11:20:55Z</time></trkpt><trkpt lat="44.95915067838659" lon="8.68135128224315"><ele>190.0</ele><time>2026-04-22T11:20:57Z</time></trkpt><trkpt lat="44.9591765002159" lon="8.681481052148074"><ele>189.2</ele><time>2026-04-22T11:20:59Z</time></trkpt><trkpt lat="44.95920274513324" lon="8.681602648854607"><ele>188.4</ele><time>2026-04-22T11:21:01Z</time></trkpt><trkpt lat="44.95921160641608" lon="8.681755012645036"><ele>187.60000000000002</ele><time>2026-04-22T11:21:03Z</time></trkpt><trkpt lat="44.95922260132598" lon="8.681843889523865"><ele>186.8</ele><time>2026-04-22T11:21:04Z</time></trkpt><trkpt lat="44.9592364087497" lon="8.682020919900722"><ele>186.0</ele><time>2026-04-22T11:21:06Z</time></trkpt><trkpt lat="44.95924125810135" lon="8.682169029141907"><ele>185.83333333333334</ele><time>2026-04-22T11:21:08Z</time></trkpt><trkpt lat="44.95924137048386" lon="8.682287584470492"><ele>185.66666666666666</ele><time>2026-04-22T11:21:10Z</time></trkpt><trkpt lat="44.95924654837169" lon="8.682386815311036"><ele>185.5</ele><time>2026-04-22T11:21:13Z</time></trkpt><trkpt lat="44.95924493313679" lon="8.682496550230464"><ele>185.33333333333331</ele><time>2026-04-22T11:21:16Z</time></trkpt><trkpt lat="44.95925655515037" lon="8.682599234448162"><ele>185.16666666666666</ele><time>2026-04-22T11:21:20Z</time></trkpt><trkpt lat="44.95928674330411" lon="8.682720804195675"><ele>185.0</ele><time>2026-04-22T11:21:24Z</time></trkpt><trkpt lat="44.95930453629308" lon="8.68281423910401"><ele>184.8</ele><time>2026-04-22T11:21:27Z</time></trkpt><trkpt lat="44.959321029995436" lon="8.68294809990411"><ele>184.6</ele><time>2026-04-22T11:21:30Z</time></trkpt><trkpt lat="44.9593802211424" lon="8.68303775764683"><ele>184.39999999999998</ele><time>2026-04-22T11:21:32Z</time></trkpt><trkpt lat="44.95945279315565" lon="8.683158962009616"><ele>184.2</ele><time>2026-04-22T11:21:34Z</time></trkpt><trkpt lat="44.959510766410666" lon="8.68325264466425"><ele>184.0</ele><time>2026-04-22T11:21:36Z</time></trkpt><trkpt lat="44.959560463289286" lon="8.683316715309335"><ele>184.0</ele><time>2026-04-22T11:21:39Z</time></trkpt><trkpt lat="44.95961616576376" lon="8.683390101035325"><ele>184.0</ele><time>2026-04-22T11:21:42Z</time></trkpt><trkpt lat="44.95966579298904" lon="8.68345913968487"><ele>184.0</ele><time>2026-04-22T11:21:44Z</time></trkpt><trkpt lat="44.959724497608335" lon="8.68352348006741"><ele>184.0</ele><time>2026-04-22T11:21:46Z</time></trkpt><trkpt lat="44.95977382578365" lon="8.68360598288968"><ele>184.0</ele><time>2026-04-22T11:21:48Z</time></trkpt><trkpt lat="44.959830412248515" lon="8.683670244776856"><ele>184.0</ele><time>2026-04-22T11:21:50Z</time></trkpt><trkpt lat="44.959875414309465" lon="8.683740659783503"><ele>184.0</ele><time>2026-04-22T11:21:52Z</time></trkpt><trkpt lat="44.95992559602335" lon="8.683807361959554"><ele>181.79999999999998</ele><time>2026-04-22T11:21:54Z</time></trkpt><trkpt lat="44.959973762256574" lon="8.683873022863164"><ele>179.6</ele><time>2026-04-22T11:21:56Z</time></trkpt><trkpt lat="44.960033224118064" lon="8.683955904499863"><ele>177.4</ele><time>2026-04-22T11:21:58Z</time></trkpt><trkpt lat="44.96011531100057" lon="8.68404599064137"><ele>175.2</ele><time>2026-04-22T11:22:01Z</time></trkpt><trkpt lat="44.96021262283095" lon="8.68414068687485"><ele>173.0</ele><time>2026-04-22T11:22:03Z</time></trkpt><trkpt lat="44.96030454631647" lon="8.68419782457329"><ele>172.16666666666666</ele><time>2026-04-22T11:22:06Z</time></trkpt><trkpt lat="44.96036933317784" lon="8.68424703709416"><ele>171.33333333333331</ele><time>2026-04-22T11:22:08Z</time></trkpt><trkpt lat="44.96044162215174" lon="8.684304509515751"><ele>170.5</ele><time>2026-04-22T11:22:10Z</time></trkpt><trkpt lat="44.96050066804618" lon="8.684346232920818"><ele>169.66666666666666</ele><time>2026-04-22T11:22:11Z</time></trkpt><trkpt lat="44.96058096226073" lon="8.684400919956285"><ele>168.83333333333334</ele><time>2026-04-22T11:22:13Z</time></trkpt><trkpt lat="44.960650897632455" lon="8.684445564193643"><ele>168.0</ele><time>2026-04-22T11:22:15Z</time></trkpt><trkpt lat="44.960727089405594" lon="8.684484252591078"><ele>167.16666666666666</ele><time>2026-04-22T11:22:17Z</time></trkpt><trkpt lat="44.96080230081308" lon="8.684530239410664"><ele>166.33333333333334</ele><time>2026-04-22T11:22:19Z</time></trkpt><trkpt lat="44.960881712589405" lon="8.684560432852507"><ele>165.5</ele><time>2026-04-22T11:22:21Z</time></trkpt><trkpt lat="44.960954256691856" lon="8.684627627507563"><ele>164.66666666666669</ele><time>2026-04-22T11:22:23Z</time></trkpt><trkpt lat="44.96101968608007" lon="8.684677240785396"><ele>163.83333333333334</ele><time>2026-04-22T11:22:25Z</time></trkpt><trkpt lat="44.961093558259655" lon="8.684736499218294"><ele>163.0</ele><time>2026-04-22T11:22:27Z</time></trkpt><trkpt lat="44.96116314934813" lon="8.684792317312917"><ele>163.0</ele><time>2026-04-22T11:22:29Z</time></trkpt><trkpt lat="44.961239907768295" lon="8.68485647362023"><ele>163.0</ele><time>2026-04-22T11:22:33Z</time></trkpt><trkpt lat="44.961307891755155" lon="8.68489239466007"><ele>163.0</ele><time>2026-04-22T11:22:36Z</time></trkpt><trkpt lat="44.96136225170956" lon="8.684947269559373"><ele>163.0</ele><time>2026-04-22T11:22:39Z</time></trkpt><trkpt lat="44.96141963143393" lon="8.684990933183027"><ele>163.0</ele><time>2026-04-22T11:22:42Z</time></trkpt><trkpt lat="44.961480442257844" lon="8.685039644352592"><ele>163.0</ele><time>2026-04-22T11:22:46Z</time></trkpt><trkpt lat="44.96153527878746" lon="8.685089749765119"><ele>163.0</ele><time>2026-04-22T11:22:50Z</time></trkpt><trkpt lat="44.96159402824045" lon="8.685134824013275"><ele>163.0</ele><time>2026-04-22T11:22:54Z</time></trkpt><trkpt lat="44.96165232555573" lon="8.685212944217012"><ele>163.0</ele><time>2026-04-22T11:23:21Z</time></trkpt><trkpt lat="44.961722527258765" lon="8.685274583602105"><ele>163.0</ele><time>2026-04-22T11:23:23Z</time></trkpt><trkpt lat="44.961803504572394" lon="8.685344628444078"><ele>163.0</ele><time>2026-04-22T11:23:25Z</time></trkpt><trkpt lat="44.961860877573805" lon="8.685390714638697"><ele>163.0</ele><time>2026-04-22T11:23:27Z</time></trkpt><trkpt lat="44.96198090410538" lon="8.685194992655324"><ele>162.85714285714286</ele><time>2026-04-22T11:23:35Z</time></trkpt><trkpt lat="44.96202572640732" lon="8.68512105117317"><ele>162.7142857142857</ele><time>2026-04-22T11:23:36Z</time></trkpt><trkpt lat="44.9620569969198" lon="8.685035581265465"><ele>162.57142857142856</ele><time>2026-04-22T11:23:37Z</time></trkpt><trkpt lat="44.962091157257326" lon="8.684938181663208"><ele>162.42857142857144</ele><time>2026-04-22T11:23:38Z</time></trkpt><trkpt lat="44.96211936527333" lon="8.684857352578765"><ele>162.28571428571428</ele><time>2026-04-22T11:23:39Z</time></trkpt><trkpt lat="44.96215193527979" lon="8.684761166046272"><ele>162.14285714285714</ele><time>2026-04-22T11:23:40Z</time></trkpt><trkpt lat="44.96218384379635" lon="8.684664938791107"><ele>162.0</ele><time>2026-04-22T11:23:41Z</time></trkpt><trkpt lat="44.962212140037494" lon="8.684583843999109"><ele>162.0</ele><time>2026-04-22T11:23:42Z</time></trkpt><trkpt lat="44.96226816626663" lon="8.684432469373457"><ele>162.0</ele><time>2026-04-22T11:23:44Z</time></trkpt><trkpt lat="44.962306054566184" lon="8.684335647645982"><ele>162.0</ele><time>2026-04-22T11:23:45Z</time></trkpt><trkpt lat="44.962343799361214" lon="8.684247516135233"><ele>162.0</ele><time>2026-04-22T11:23:46Z</time></trkpt><trkpt lat="44.96237554484351" lon="8.684142656987158"><ele>162.0</ele><time>2026-04-22T11:23:47Z</time></trkpt><trkpt lat="44.96242261266734" lon="8.684047499839116"><ele>162.0</ele><time>2026-04-22T11:23:48Z</time></trkpt><trkpt lat="44.96248688258201" lon="8.683974685703804"><ele>161.33333333333334</ele><time>2026-04-22T11:23:49Z</time></trkpt><trkpt lat="44.962532926985375" lon="8.683898495424398"><ele>160.66666666666666</ele><time>2026-04-22T11:23:50Z</time></trkpt><trkpt lat="44.9626126861918" lon="8.683820026066245"><ele>160.0</ele><time>2026-04-22T11:23:52Z</time></trkpt><trkpt lat="44.96267320217254" lon="8.683776168974346"><ele>159.33333333333331</ele><time>2026-04-22T11:23:54Z</time></trkpt><trkpt lat="44.962735521956446" lon="8.683732905431986"><ele>158.66666666666666</ele><time>2026-04-22T11:23:57Z</time></trkpt><trkpt lat="44.96265203871424" lon="8.683593796231092"><ele>158.0</ele><time>2026-04-22T11:23:59Z</time></trkpt><trkpt lat="44.96258235736666" lon="8.683617858634918"><ele>158.0</ele><time>2026-04-22T11:24:00Z</time></trkpt><trkpt lat="44.962515458321356" lon="8.683609914830246"><ele>158.0</ele><time>2026-04-22T11:24:01Z</time></trkpt><trkpt lat="44.96268508486951" lon="8.683737087680022"><ele>158.0</ele><time>2026-04-22T11:24:09Z</time></trkpt><trkpt lat="44.96264026405148" lon="8.683801272636327"><ele>158.0</ele><time>2026-04-22T11:24:12.999Z</time></trkpt><trkpt lat="44.96256253466773" lon="8.683851362117025"><ele>158.0</ele><time>2026-04-22T11:24:13.999Z</time></trkpt><trkpt lat="44.96248007764693" lon="8.683917497432418"><ele>159.0</ele><time>2026-04-22T11:24:14.999Z</time></trkpt><trkpt lat="44.96241623769382" lon="8.68403806540041"><ele>160.0</ele><time>2026-04-22T11:24:15.999Z</time></trkpt><trkpt lat="44.962337754480316" lon="8.684207400706756"><ele>161.0</ele><time>2026-04-22T11:24:17Z</time></trkpt><trkpt lat="44.96225545399705" lon="8.68437907059608"><ele>162.0</ele><time>2026-04-22T11:24:18Z</time></trkpt><trkpt lat="44.96220099467251" lon="8.684525870626404"><ele>162.0</ele><time>2026-04-22T11:24:19Z</time></trkpt><trkpt lat="44.962151705518494" lon="8.684669828495618"><ele>162.0</ele><time>2026-04-22T11:24:20Z</time></trkpt><trkpt lat="44.96211338621122" lon="8.684791513598856"><ele>162.0</ele><time>2026-04-22T11:24:21Z</time></trkpt><trkpt lat="44.96207626931813" lon="8.684903725760057"><ele>162.0</ele><time>2026-04-22T11:24:22Z</time></trkpt><trkpt lat="44.96204234636984" lon="8.685006595369167"><ele>162.0</ele><time>2026-04-22T11:24:23Z</time></trkpt><trkpt lat="44.96201077593207" lon="8.68509792527301"><ele>162.0</ele><time>2026-04-22T11:24:24Z</time></trkpt><trkpt lat="44.96198505689958" lon="8.685184458277464"><ele>162.0</ele><time>2026-04-22T11:24:25Z</time></trkpt><trkpt lat="44.96193906822051" lon="8.685317790942422"><ele>162.0</ele><time>2026-04-22T11:24:27Z</time></trkpt><trkpt lat="44.961903868967624" lon="8.685398840630217"><ele>162.0</ele><time>2026-04-22T11:24:29Z</time></trkpt><trkpt lat="44.96183156880568" lon="8.685369432837021"><ele>162.0</ele><time>2026-04-22T11:24:31Z</time></trkpt><trkpt lat="44.96177720455753" lon="8.685300179883175"><ele>162.0</ele><time>2026-04-22T11:24:32Z</time></trkpt><trkpt lat="44.961699388465455" lon="8.685219267445754"><ele>162.0</ele><time>2026-04-22T11:24:33Z</time></trkpt><trkpt lat="44.961592328499776" lon="8.685140191885491"><ele>162.25</ele><time>2026-04-22T11:24:34Z</time></trkpt><trkpt lat="44.96145434209536" lon="8.685034056666519"><ele>162.5</ele><time>2026-04-22T11:24:35Z</time></trkpt><trkpt lat="44.961329190955446" lon="8.684877334151635"><ele>162.75</ele><time>2026-04-22T11:24:36Z</time></trkpt><trkpt lat="44.961223292378264" lon="8.684788057830579"><ele>163.0</ele><time>2026-04-22T11:24:37Z</time></trkpt><trkpt lat="44.96113662085086" lon="8.684717077755609"><ele>163.0</ele><time>2026-04-22T11:24:38Z</time></trkpt><trkpt lat="44.96105709424126" lon="8.684653283465478"><ele>163.0</ele><time>2026-04-22T11:24:39Z</time></trkpt><trkpt lat="44.960961924713956" lon="8.684581873635922"><ele>163.0</ele><time>2026-04-22T11:24:40Z</time></trkpt><trkpt lat="44.96083386451949" lon="8.684506639052767"><ele>163.0</ele><time>2026-04-22T11:24:41Z</time></trkpt><trkpt lat="44.96072737528849" lon="8.684452193731426"><ele>164.0</ele><time>2026-04-22T11:24:42Z</time></trkpt><trkpt lat="44.96064011589032" lon="8.684400766402616"><ele>165.0</ele><time>2026-04-22T11:24:43Z</time></trkpt><trkpt lat="44.96055248803984" lon="8.68434325027386"><ele>166.0</ele><time>2026-04-22T11:24:44Z</time></trkpt><trkpt lat="44.9604737841968" lon="8.684332755603972"><ele>167.0</ele><time>2026-04-22T11:24:45Z</time></trkpt><trkpt lat="44.96038667155688" lon="8.684252433811597"><ele>168.0</ele><time>2026-04-22T11:24:47Z</time></trkpt><trkpt lat="44.96028605408136" lon="8.684193671458964"><ele>168.0</ele><time>2026-04-22T11:24:49Z</time></trkpt><trkpt lat="44.96019899835697" lon="8.684070532530523"><ele>168.0</ele><time>2026-04-22T11:24:51Z</time></trkpt><trkpt lat="44.96014078118784" lon="8.684014369624627"><ele>168.0</ele><time>2026-04-22T11:24:52Z</time></trkpt><trkpt lat="44.96008971790358" lon="8.68395922063642"><ele>168.0</ele><time>2026-04-22T11:24:53Z</time></trkpt><trkpt lat="44.96001040266842" lon="8.683861624481246"><ele>168.0</ele><time>2026-04-22T11:24:55Z</time></trkpt><trkpt lat="44.959947781711826" lon="8.68377290700151"><ele>169.0</ele><time>2026-04-22T11:24:57Z</time></trkpt><trkpt lat="44.959880873211205" lon="8.683675397846773"><ele>170.0</ele><time>2026-04-22T11:24:59Z</time></trkpt><trkpt lat="44.95983519551089" lon="8.683613428670569"><ele>171.0</ele><time>2026-04-22T11:25:00Z</time></trkpt><trkpt lat="44.95975353562498" lon="8.683503391514527"><ele>172.0</ele><time>2026-04-22T11:25:02Z</time></trkpt><trkpt lat="44.95970128580119" lon="8.683436172833138"><ele>173.0</ele><time>2026-04-22T11:25:03Z</time></trkpt><trkpt lat="44.95961269857182" lon="8.683328247343535"><ele>174.83333333333331</ele><time>2026-04-22T11:25:05Z</time></trkpt><trkpt lat="44.959520527302885" lon="8.683215203211631"><ele>176.66666666666666</ele><time>2026-04-22T11:25:07Z</time></trkpt><trkpt lat="44.9594662129241" lon="8.683137634476727"><ele>178.5</ele><time>2026-04-22T11:25:08Z</time></trkpt><trkpt lat="44.95941804929893" lon="8.683057029713817"><ele>180.33333333333334</ele><time>2026-04-22T11:25:09Z</time></trkpt><trkpt lat="44.95937882326879" lon="8.68297964385389"><ele>182.16666666666669</ele><time>2026-04-22T11:25:10Z</time></trkpt><trkpt lat="44.959344773378774" lon="8.682903224412579"><ele>184.0</ele><time>2026-04-22T11:25:11Z</time></trkpt><trkpt lat="44.95931159966375" lon="8.682742553621942"><ele>184.25</ele><time>2026-04-22T11:25:13Z</time></trkpt><trkpt lat="44.95928185339271" lon="8.682524883228597"><ele>184.5</ele><time>2026-04-22T11:25:15Z</time></trkpt><trkpt lat="44.95926326343471" lon="8.682364643954102"><ele>184.75</ele><time>2026-04-22T11:25:17Z</time></trkpt><trkpt lat="44.95927024653358" lon="8.682214886107914"><ele>185.0</ele><time>2026-04-22T11:25:18Z</time></trkpt><trkpt lat="44.959289605820096" lon="8.682093400622295"><ele>185.0</ele><time>2026-04-22T11:25:19Z</time></trkpt><trkpt lat="44.95930313802867" lon="8.681964487956707"><ele>185.0</ele><time>2026-04-22T11:25:20Z</time></trkpt><trkpt lat="44.95920168503957" lon="8.681819831569717"><ele>185.0</ele><time>2026-04-22T11:25:21Z</time></trkpt><trkpt lat="44.95918502486448" lon="8.681708902270307"><ele>185.0</ele><time>2026-04-22T11:25:22Z</time></trkpt><trkpt lat="44.95916951897395" lon="8.681566956372913"><ele>185.0</ele><time>2026-04-22T11:25:23Z</time></trkpt><trkpt lat="44.95915454347137" lon="8.681442821027792"><ele>185.16666666666666</ele><time>2026-04-22T11:25:24Z</time></trkpt><trkpt lat="44.95914056874371" lon="8.681335768701793"><ele>185.33333333333331</ele><time>2026-04-22T11:25:25Z</time></trkpt><trkpt lat="44.95912595844927" lon="8.681201098430137"><ele>185.5</ele><time>2026-04-22T11:25:26Z</time></trkpt><trkpt lat="44.959133048020156" lon="8.681026502838995"><ele>185.66666666666666</ele><time>2026-04-22T11:25:28Z</time></trkpt><trkpt lat="44.959143471222404" lon="8.680924362394956"><ele>185.83333333333334</ele><time>2026-04-22T11:25:29Z</time></trkpt><trkpt lat="44.959163126597474" lon="8.680828139743557"><ele>186.0</ele><time>2026-04-22T11:25:30Z</time></trkpt><trkpt lat="44.959187770030255" lon="8.68073570901398"><ele>186.71428571428572</ele><time>2026-04-22T11:25:31Z</time></trkpt><trkpt lat="44.95921514929375" lon="8.68065217872247"><ele>187.42857142857144</ele><time>2026-04-22T11:25:32Z</time></trkpt><trkpt lat="44.95924982725617" lon="8.680569135744479"><ele>188.14285714285717</ele><time>2026-04-22T11:25:33Z</time></trkpt><trkpt lat="44.95929058550018" lon="8.680482154647581"><ele>188.85714285714286</ele><time>2026-04-22T11:25:34Z</time></trkpt><trkpt lat="44.95932354386277" lon="8.680396572037397"><ele>189.57142857142856</ele><time>2026-04-22T11:25:35Z</time></trkpt><trkpt lat="44.95936329276627" lon="8.680300456821263"><ele>190.2857142857143</ele><time>2026-04-22T11:25:36Z</time></trkpt><trkpt lat="44.95939755892419" lon="8.680219039129112"><ele>191.0</ele><time>2026-04-22T11:25:37Z</time></trkpt><trkpt lat="44.95943542601282" lon="8.680111234828741"><ele>191.8</ele><time>2026-04-22T11:25:38Z</time></trkpt><trkpt lat="44.95946260313808" lon="8.679996988516365"><ele>192.60000000000002</ele><time>2026-04-22T11:25:39Z</time></trkpt><trkpt lat="44.95948131652978" lon="8.679882128557344"><ele>193.4</ele><time>2026-04-22T11:25:40Z</time></trkpt><trkpt lat="44.959498552357395" lon="8.679723565170734"><ele>194.2</ele><time>2026-04-22T11:25:41Z</time></trkpt><trkpt lat="44.959526020959004" lon="8.679568166357313"><ele>195.0</ele><time>2026-04-22T11:25:43Z</time></trkpt><trkpt lat="44.95954456014575" lon="8.679480506292341"><ele>195.66666666666666</ele><time>2026-04-22T11:25:44Z</time></trkpt><trkpt lat="44.959572491921115" lon="8.679373754793435"><ele>196.33333333333331</ele><time>2026-04-22T11:25:45Z</time></trkpt><trkpt lat="44.95959566461545" lon="8.679287761487142"><ele>197.0</ele><time>2026-04-22T11:25:46Z</time></trkpt><trkpt lat="44.95960696086757" lon="8.67918634357723"><ele>197.66666666666666</ele><time>2026-04-22T11:25:47Z</time></trkpt><trkpt lat="44.95959896256968" lon="8.679069220090309"><ele>198.33333333333331</ele><time>2026-04-22T11:25:48Z</time></trkpt><trkpt lat="44.95957929552917" lon="8.678938189603512"><ele>199.0</ele><time>2026-04-22T11:25:49Z</time></trkpt><trkpt lat="44.95957790712897" lon="8.678775207074173"><ele>199.0</ele><time>2026-04-22T11:25:50Z</time></trkpt><trkpt lat="44.95958709341467" lon="8.678630768915777"><ele>199.0</ele><time>2026-04-22T11:25:51Z</time></trkpt><trkpt lat="44.959604550378046" lon="8.678490779696183"><ele>199.0</ele><time>2026-04-22T11:25:52Z</time></trkpt><trkpt lat="44.95963009195356" lon="8.678362152132568"><ele>199.0</ele><time>2026-04-22T11:25:53Z</time></trkpt><trkpt lat="44.95966716316522" lon="8.678221367305477"><ele>199.0</ele><time>2026-04-22T11:25:54Z</time></trkpt><trkpt lat="44.959709552316255" lon="8.678115006348852"><ele>199.83333333333331</ele><time>2026-04-22T11:25:55Z</time></trkpt><trkpt lat="44.95975401371226" lon="8.67803273090562"><ele>200.66666666666666</ele><time>2026-04-22T11:25:56Z</time></trkpt><trkpt lat="44.95980912756542" lon="8.67795612930508"><ele>201.5</ele><time>2026-04-22T11:25:57Z</time></trkpt><trkpt lat="44.95986557768455" lon="8.677908764890981"><ele>202.33333333333331</ele><time>2026-04-22T11:25:58Z</time></trkpt><trkpt lat="44.95994115571346" lon="8.677868930001098"><ele>203.16666666666666</ele><time>2026-04-22T11:25:59Z</time></trkpt><trkpt lat="44.96002960407828" lon="8.677841678141668"><ele>204.0</ele><time>2026-04-22T11:26:00Z</time></trkpt><trkpt lat="44.96011882825136" lon="8.677831254347888"><ele>204.5</ele><time>2026-04-22T11:26:01Z</time></trkpt><trkpt lat="44.9602358438135" lon="8.677800966085073"><ele>205.0</ele><time>2026-04-22T11:26:02Z</time></trkpt><trkpt lat="44.96030898968458" lon="8.677779217747347"><ele>205.5</ele><time>2026-04-22T11:26:03Z</time></trkpt><trkpt lat="44.960401927658786" lon="8.677762654833248"><ele>206.0</ele><time>2026-04-22T11:26:05Z</time></trkpt><trkpt lat="44.96044769255381" lon="8.677684487435352"><ele>206.5</ele><time>2026-04-22T11:26:08Z</time></trkpt><trkpt lat="44.960398069766036" lon="8.677598547699128"><ele>207.0</ele><time>2026-04-22T11:26:10Z</time></trkpt><trkpt lat="44.96032987283446" lon="8.677455499093787"><ele>207.0</ele><time>2026-04-22T11:26:12Z</time></trkpt><trkpt lat="44.96028579367447" lon="8.67735637688413"><ele>207.0</ele><time>2026-04-22T11:26:13Z</time></trkpt><trkpt lat="44.96023276662045" lon="8.677243150222615"><ele>207.0</ele><time>2026-04-22T11:26:14Z</time></trkpt><trkpt lat="44.96016891228941" lon="8.677119923261504"><ele>207.0</ele><time>2026-04-22T11:26:15Z</time></trkpt><trkpt lat="44.96010233100225" lon="8.676995492438522"><ele>207.0</ele><time>2026-04-22T11:26:16Z</time></trkpt><trkpt lat="44.96005462843412" lon="8.676895373308906"><ele>207.39999999999998</ele><time>2026-04-22T11:26:17Z</time></trkpt><trkpt lat="44.9599942919016" lon="8.67678736390591"><ele>207.79999999999998</ele><time>2026-04-22T11:26:18Z</time></trkpt><trkpt lat="44.959925792656755" lon="8.676657505766471"><ele>208.2</ele><time>2026-04-22T11:26:19Z</time></trkpt><trkpt lat="44.9598667781397" lon="8.676545480362556"><ele>208.6</ele><time>2026-04-22T11:26:20Z</time></trkpt><trkpt lat="44.95982255333165" lon="8.67644521226612"><ele>209.0</ele><time>2026-04-22T11:26:21Z</time></trkpt><trkpt lat="44.95978699523854" lon="8.676354213322794"><ele>209.00000000000003</ele><time>2026-04-22T11:26:22Z</time></trkpt><trkpt lat="44.959718227414875" lon="8.676214900710882"><ele>209.0</ele><time>2026-04-22T11:26:24Z</time></trkpt><trkpt lat="44.959662273653734" lon="8.676136525562539"><ele>209.0</ele><time>2026-04-22T11:26:25Z</time></trkpt><trkpt lat="44.959596888950465" lon="8.676068024062781"><ele>209.0</ele><time>2026-04-22T11:26:26Z</time></trkpt><trkpt lat="44.95953745386764" lon="8.675989703951533"><ele>209.00000000000003</ele><time>2026-04-22T11:26:27Z</time></trkpt><trkpt lat="44.959476191470586" lon="8.675926018815977"><ele>209.0</ele><time>2026-04-22T11:26:28Z</time></trkpt><trkpt lat="44.959419430560665" lon="8.675854277303532"><ele>209.0</ele><time>2026-04-22T11:26:29Z</time></trkpt><trkpt lat="44.959314285617786" lon="8.675712597492417"><ele>209.0</ele><time>2026-04-22T11:26:31Z</time></trkpt><trkpt lat="44.959252388516745" lon="8.67564849409892"><ele>209.0</ele><time>2026-04-22T11:26:32Z</time></trkpt><trkpt lat="44.95918731486873" lon="8.675510969201849"><ele>209.0</ele><time>2026-04-22T11:26:34Z</time></trkpt><trkpt lat="44.95915393395767" lon="8.675402871817957"><ele>209.0</ele><time>2026-04-22T11:26:35Z</time></trkpt><trkpt lat="44.95911680885493" lon="8.675230040976162"><ele>210.16666666666669</ele><time>2026-04-22T11:26:37Z</time></trkpt><trkpt lat="44.959103856052494" lon="8.675122808403893"><ele>211.33333333333334</ele><time>2026-04-22T11:26:38Z</time></trkpt><trkpt lat="44.95909370705441" lon="8.675010704323944"><ele>212.5</ele><time>2026-04-22T11:26:39Z</time></trkpt><trkpt lat="44.95909236911404" lon="8.674902955759503"><ele>213.66666666666669</ele><time>2026-04-22T11:26:40Z</time></trkpt><trkpt lat="44.95909332902399" lon="8.674786042439784"><ele>214.83333333333334</ele><time>2026-04-22T11:26:41Z</time></trkpt><trkpt lat="44.959118304180855" lon="8.674644446666287"><ele>216.0</ele><time>2026-04-22T11:26:43Z</time></trkpt><trkpt lat="44.95911979581985" lon="8.674461185647388"><ele>216.60000000000002</ele><time>2026-04-22T11:26:44Z</time></trkpt><trkpt lat="44.95912767262229" lon="8.674313934417007"><ele>217.20000000000002</ele><time>2026-04-22T11:26:45Z</time></trkpt><trkpt lat="44.95913920368874" lon="8.674193260028344"><ele>217.79999999999998</ele><time>2026-04-22T11:26:46Z</time></trkpt><trkpt lat="44.959158081211555" lon="8.67406225401342"><ele>218.39999999999998</ele><time>2026-04-22T11:26:47Z</time></trkpt><trkpt lat="44.95918497622265" lon="8.673924498538376"><ele>219.0</ele><time>2026-04-22T11:26:48Z</time></trkpt><trkpt lat="44.95920036309528" lon="8.673824552088217"><ele>219.0</ele><time>2026-04-22T11:26:49Z</time></trkpt><trkpt lat="44.9592349983518" lon="8.673679672754263"><ele>219.0</ele><time>2026-04-22T11:26:51Z</time></trkpt><trkpt lat="44.95925697520566" lon="8.673595904464129"><ele>219.0</ele><time>2026-04-22T11:26:52Z</time></trkpt><trkpt lat="44.95928565786376" lon="8.673509345303247"><ele>219.0</ele><time>2026-04-22T11:26:53Z</time></trkpt><trkpt lat="44.959318637405275" lon="8.673406426385823"><ele>219.0</ele><time>2026-04-22T11:26:54Z</time></trkpt><trkpt lat="44.95936032261167" lon="8.6732945551648"><ele>219.0</ele><time>2026-04-22T11:26:55Z</time></trkpt><trkpt lat="44.95938816709176" lon="8.673189447324807"><ele>220.0</ele><time>2026-04-22T11:26:56Z</time></trkpt><trkpt lat="44.9594166840675" lon="8.67307977981687"><ele>220.99999999999997</ele><time>2026-04-22T11:26:57Z</time></trkpt><trkpt lat="44.95945338095318" lon="8.672966947044891"><ele>221.99999999999997</ele><time>2026-04-22T11:26:58Z</time></trkpt><trkpt lat="44.95948482893613" lon="8.67282834256398"><ele>223.0</ele><time>2026-04-22T11:26:59Z</time></trkpt><trkpt lat="44.95952380813873" lon="8.672673729223185"><ele>224.0</ele><time>2026-04-22T11:27:00Z</time></trkpt><trkpt lat="44.959556523616236" lon="8.67251641204722"><ele>224.83333333333334</ele><time>2026-04-22T11:27:01Z</time></trkpt><trkpt lat="44.95957879264752" lon="8.672398330054781"><ele>225.66666666666669</ele><time>2026-04-22T11:27:02Z</time></trkpt><trkpt lat="44.9596109762256" lon="8.672296775127874"><ele>226.5</ele><time>2026-04-22T11:27:03Z</time></trkpt><trkpt lat="44.959649276867964" lon="8.672204119040329"><ele>227.33333333333331</ele><time>2026-04-22T11:27:04Z</time></trkpt><trkpt lat="44.959693294199255" lon="8.672082133289083"><ele>228.16666666666666</ele><time>2026-04-22T11:27:05Z</time></trkpt><trkpt lat="44.95970975404663" lon="8.67197652293935"><ele>229.0</ele><time>2026-04-22T11:27:06Z</time></trkpt><trkpt lat="44.95972975115516" lon="8.671846603988191"><ele>229.99999999999997</ele><time>2026-04-22T11:27:07Z</time></trkpt><trkpt lat="44.95974078203702" lon="8.671702821821402"><ele>231.0</ele><time>2026-04-22T11:27:08Z</time></trkpt><trkpt lat="44.959748034416116" lon="8.671555715666646"><ele>232.0</ele><time>2026-04-22T11:27:09Z</time></trkpt><trkpt lat="44.95975001643085" lon="8.671432103373917"><ele>233.0</ele><time>2026-04-22T11:27:10Z</time></trkpt><trkpt lat="44.959749354060904" lon="8.671337178945556"><ele>233.99999999999997</ele><time>2026-04-22T11:27:11Z</time></trkpt><trkpt lat="44.95975384173655" lon="8.671213488646842"><ele>235.0</ele><time>2026-04-22T11:27:12Z</time></trkpt><trkpt lat="44.95976042931048" lon="8.671122035432749"><ele>235.99999999999997</ele><time>2026-04-22T11:27:13Z</time></trkpt><trkpt lat="44.95977105011096" lon="8.670978582284766"><ele>237.0</ele><time>2026-04-22T11:27:15Z</time></trkpt><trkpt lat="44.95981610615811" lon="8.670866213874504"><ele>238.0</ele><time>2026-04-22T11:27:17Z</time></trkpt><trkpt lat="44.959835537929955" lon="8.670764135588872"><ele>239.0</ele><time>2026-04-22T11:27:18Z</time></trkpt><trkpt lat="44.959857615885355" lon="8.670656580648062"><ele>239.99999999999997</ele><time>2026-04-22T11:27:19Z</time></trkpt><trkpt lat="44.95989869193984" lon="8.67053122588648"><ele>241.0</ele><time>2026-04-22T11:27:21Z</time></trkpt><trkpt lat="44.959926136718266" lon="8.670449696227223"><ele>240.99999999999997</ele><time>2026-04-22T11:27:23Z</time></trkpt><trkpt lat="44.959947608608985" lon="8.670323540451077"><ele>241.0</ele><time>2026-04-22T11:27:25Z</time></trkpt><trkpt lat="44.960004500995055" lon="8.6702405370492"><ele>241.0</ele><time>2026-04-22T11:27:26Z</time></trkpt><trkpt lat="44.960012441311626" lon="8.670122685219852"><ele>241.0</ele><time>2026-04-22T11:27:27Z</time></trkpt><trkpt lat="44.96002260133298" lon="8.67002399666955"><ele>240.99999999999997</ele><time>2026-04-22T11:27:28Z</time></trkpt><trkpt lat="44.96003361554093" lon="8.669928990833922"><ele>241.0</ele><time>2026-04-22T11:27:29Z</time></trkpt><trkpt lat="44.960060607911224" lon="8.669775264978655"><ele>239.8</ele><time>2026-04-22T11:27:31Z</time></trkpt><trkpt lat="44.960085250416505" lon="8.669622920189271"><ele>238.60000000000002</ele><time>2026-04-22T11:27:33Z</time></trkpt><trkpt lat="44.960096230143655" lon="8.669519899180795"><ele>237.4</ele><time>2026-04-22T11:27:34Z</time></trkpt><trkpt lat="44.96010628114787" lon="8.6693470231111"><ele>236.2</ele><time>2026-04-22T11:27:36Z</time></trkpt><trkpt lat="44.96010797012599" lon="8.669234816653997"><ele>235.0</ele><time>2026-04-22T11:27:37Z</time></trkpt><trkpt lat="44.96009954199074" lon="8.669111886167888"><ele>235.33333333333331</ele><time>2026-04-22T11:27:38Z</time></trkpt><trkpt lat="44.96007432201709" lon="8.669014704078592"><ele>235.66666666666666</ele><time>2026-04-22T11:27:39Z</time></trkpt><trkpt lat="44.960052534066755" lon="8.668903792931674"><ele>236.0</ele><time>2026-04-22T11:27:40Z</time></trkpt><trkpt lat="44.960029498489064" lon="8.668772207101032"><ele>236.33333333333331</ele><time>2026-04-22T11:27:41Z</time></trkpt><trkpt lat="44.960018695223006" lon="8.668651230513099"><ele>236.66666666666666</ele><time>2026-04-22T11:27:42Z</time></trkpt><trkpt lat="44.96000099267958" lon="8.668505684811254"><ele>237.0</ele><time>2026-04-22T11:27:44Z</time></trkpt><trkpt lat="44.95999374402101" lon="8.668386567307897"><ele>237.0</ele><time>2026-04-22T11:27:46Z</time></trkpt><trkpt lat="44.95998808048707" lon="8.668287999933804"><ele>237.0</ele><time>2026-04-22T11:27:49Z</time></trkpt><trkpt lat="44.9598729836414" lon="8.668234406660542"><ele>237.0</ele><time>2026-04-22T11:27:51Z</time></trkpt><trkpt lat="44.959804608369936" lon="8.668229824564657"><ele>237.0</ele><time>2026-04-22T11:27:52Z</time></trkpt><trkpt lat="44.95971531690665" lon="8.668241975713544"><ele>237.0</ele><time>2026-04-22T11:27:53Z</time></trkpt><trkpt lat="44.959646513925414" lon="8.668253552743447"><ele>237.0</ele><time>2026-04-22T11:27:54Z</time></trkpt><trkpt lat="44.95957876819547" lon="8.668265123656221"><ele>237.0</ele><time>2026-04-22T11:27:55Z</time></trkpt><trkpt lat="44.95950632376404" lon="8.668295343890067"><ele>237.0</ele><time>2026-04-22T11:27:56Z</time></trkpt><trkpt lat="44.95942888168747" lon="8.668308782864184"><ele>237.0</ele><time>2026-04-22T11:27:57Z</time></trkpt><trkpt lat="44.95934950278304" lon="8.668297329307476"><ele>237.0</ele><time>2026-04-22T11:27:58Z</time></trkpt><trkpt lat="44.95926526284903" lon="8.668309162760025"><ele>237.0</ele><time>2026-04-22T11:27:59Z</time></trkpt><trkpt lat="44.95918307034971" lon="8.668343531979046"><ele>237.0</ele><time>2026-04-22T11:28:00Z</time></trkpt><trkpt lat="44.95910580307522" lon="8.668329496503452"><ele>236.1428571428571</ele><time>2026-04-22T11:28:01Z</time></trkpt><trkpt lat="44.95903175004219" lon="8.668337333717117"><ele>235.28571428571428</ele><time>2026-04-22T11:28:02Z</time></trkpt><trkpt lat="44.958959092495675" lon="8.668367538171934"><ele>234.42857142857142</ele><time>2026-04-22T11:28:03Z</time></trkpt><trkpt lat="44.95888897141766" lon="8.668374056345659"><ele>233.57142857142856</ele><time>2026-04-22T11:28:04Z</time></trkpt><trkpt lat="44.95881485835961" lon="8.668381223010948"><ele>232.71428571428572</ele><time>2026-04-22T11:28:05Z</time></trkpt><trkpt lat="44.95874838529197" lon="8.668388777220553"><ele>231.85714285714286</ele><time>2026-04-22T11:28:06Z</time></trkpt><trkpt lat="44.95868276332689" lon="8.668396492548728"><ele>231.0</ele><time>2026-04-22T11:28:07Z</time></trkpt><trkpt lat="44.958546250459804" lon="8.668390316143835"><ele>231.0</ele><time>2026-04-22T11:28:09Z</time></trkpt><trkpt lat="44.958479164079975" lon="8.668398522588783"><ele>231.0</ele><time>2026-04-22T11:28:10Z</time></trkpt><trkpt lat="44.958416123717875" lon="8.668406234097079"><ele>231.0</ele><time>2026-04-22T11:28:11Z</time></trkpt><trkpt lat="44.958345076323894" lon="8.668414925075838"><ele>231.0</ele><time>2026-04-22T11:28:12Z</time></trkpt><trkpt lat="44.9582774450641" lon="8.668426043240453"><ele>231.0</ele><time>2026-04-22T11:28:13Z</time></trkpt><trkpt lat="44.958163624670995" lon="8.668446763385045"><ele>231.0</ele><time>2026-04-22T11:28:15Z</time></trkpt><trkpt lat="44.95810103895111" lon="8.6684635259073"><ele>231.0</ele><time>2026-04-22T11:28:16Z</time></trkpt><trkpt lat="44.95803640172606" lon="8.668488575400989"><ele>229.66666666666666</ele><time>2026-04-22T11:28:17Z</time></trkpt><trkpt lat="44.95797207595841" lon="8.668522762798814"><ele>228.33333333333331</ele><time>2026-04-22T11:28:18Z</time></trkpt><trkpt lat="44.9579036858043" lon="8.668560600769124"><ele>227.0</ele><time>2026-04-22T11:28:19Z</time></trkpt><trkpt lat="44.95779720635749" lon="8.668608392493521"><ele>225.66666666666666</ele><time>2026-04-22T11:28:21Z</time></trkpt><trkpt lat="44.9577164012734" lon="8.668628857845494"><ele>224.33333333333331</ele><time>2026-04-22T11:28:23Z</time></trkpt><trkpt lat="44.957644174530145" lon="8.668677078918613"><ele>223.0</ele><time>2026-04-22T11:28:25Z</time></trkpt><trkpt lat="44.95755656555865" lon="8.66867404374524"><ele>222.60000000000002</ele><time>2026-04-22T11:28:27.999Z</time></trkpt><trkpt lat="44.95754272473618" lon="8.668985106069885"><ele>222.20000000000002</ele><time>2026-04-22T11:28:30Z</time></trkpt><trkpt lat="44.95748107352202" lon="8.669062203791977"><ele>221.8</ele><time>2026-04-22T11:28:32Z</time></trkpt><trkpt lat="44.957430185977316" lon="8.669121274863098"><ele>221.4</ele><time>2026-04-22T11:28:33Z</time></trkpt><trkpt lat="44.95737021354574" lon="8.669175998567123"><ele>221.0</ele><time>2026-04-22T11:28:34Z</time></trkpt><trkpt lat="44.95731715675602" lon="8.669234426486188"><ele>220.00000000000003</ele><time>2026-04-22T11:28:35Z</time></trkpt><trkpt lat="44.95725415070738" lon="8.669275746662072"><ele>219.0</ele><time>2026-04-22T11:28:36.001Z</time></trkpt><trkpt lat="44.95719581121875" lon="8.669327431859486"><ele>218.0</ele><time>2026-04-22T11:28:37Z</time></trkpt><trkpt lat="44.95709447838729" lon="8.669413564802397"><ele>217.0</ele><time>2026-04-22T11:28:39Z</time></trkpt><trkpt lat="44.95700071404542" lon="8.669507990596815"><ele>216.00000000000003</ele><time>2026-04-22T11:28:41Z</time></trkpt><trkpt lat="44.95694350970997" lon="8.669578582454852"><ele>215.0</ele><time>2026-04-22T11:28:42Z</time></trkpt><trkpt lat="44.9568862833207" lon="8.66963688809427"><ele>213.66666666666669</ele><time>2026-04-22T11:28:43Z</time></trkpt><trkpt lat="44.9568371312198" lon="8.669695318692806"><ele>212.33333333333334</ele><time>2026-04-22T11:28:44Z</time></trkpt><trkpt lat="44.9567888594889" lon="8.669760931349254"><ele>211.0</ele><time>2026-04-22T11:28:45Z</time></trkpt><trkpt lat="44.95672509647184" lon="8.669829671271842"><ele>209.66666666666669</ele><time>2026-04-22T11:28:46Z</time></trkpt><trkpt lat="44.95662898024187" lon="8.66994175386493"><ele>208.33333333333334</ele><time>2026-04-22T11:28:48Z</time></trkpt><trkpt lat="44.95657563472045" lon="8.670005199990799"><ele>207.0</ele><time>2026-04-22T11:28:49Z</time></trkpt><trkpt lat="44.95651823816005" lon="8.670067146599957"><ele>207.0</ele><time>2026-04-22T11:28:50Z</time></trkpt><trkpt lat="44.956449833566666" lon="8.67012749478884"><ele>207.0</ele><time>2026-04-22T11:28:51Z</time></trkpt><trkpt lat="44.95638071476993" lon="8.670180918831488"><ele>207.0</ele><time>2026-04-22T11:28:52Z</time></trkpt><trkpt lat="44.956297755211494" lon="8.670229538168666"><ele>207.0</ele><time>2026-04-22T11:28:53Z</time></trkpt><trkpt lat="44.956208826244044" lon="8.670260241956617"><ele>207.0</ele><time>2026-04-22T11:28:54Z</time></trkpt><trkpt lat="44.95612179339622" lon="8.670293469984438"><ele>207.0</ele><time>2026-04-22T11:28:55Z</time></trkpt><trkpt lat="44.95605334356551" lon="8.670320379059433"><ele>204.0</ele><time>2026-04-22T11:28:56Z</time></trkpt><trkpt lat="44.95598975588661" lon="8.670326241382766"><ele>201.0</ele><time>2026-04-22T11:28:57Z</time></trkpt><trkpt lat="44.955871160400754" lon="8.670361563753767"><ele>198.0</ele><time>2026-04-22T11:28:59Z</time></trkpt><trkpt lat="44.9557643104544" lon="8.670394291598667"><ele>195.0</ele><time>2026-04-22T11:29:01Z</time></trkpt><trkpt lat="44.955644076839995" lon="8.670389626081107"><ele>192.0</ele><time>2026-04-22T11:29:03Z</time></trkpt><trkpt lat="44.95557210403192" lon="8.670384080975088"><ele>192.0</ele><time>2026-04-22T11:29:04Z</time></trkpt><trkpt lat="44.95550165133842" lon="8.67036354061812"><ele>192.0</ele><time>2026-04-22T11:29:05Z</time></trkpt><trkpt lat="44.955385694831435" lon="8.67030529559425"><ele>192.0</ele><time>2026-04-22T11:29:07Z</time></trkpt><trkpt lat="44.95528517896219" lon="8.670281051605903"><ele>192.0</ele><time>2026-04-22T11:29:09Z</time></trkpt><trkpt lat="44.95521131739678" lon="8.670249066514376"><ele>192.0</ele><time>2026-04-22T11:29:11Z</time></trkpt><trkpt lat="44.955142037029056" lon="8.670223756168296"><ele>192.0</ele><time>2026-04-22T11:29:12Z</time></trkpt><trkpt lat="44.955077718078165" lon="8.670222255862797"><ele>191.83333333333334</ele><time>2026-04-22T11:29:13Z</time></trkpt><trkpt lat="44.95500660315871" lon="8.670224910703247"><ele>191.66666666666666</ele><time>2026-04-22T11:29:14Z</time></trkpt><trkpt lat="44.954926727181075" lon="8.670234282514015"><ele>191.5</ele><time>2026-04-22T11:29:15Z</time></trkpt><trkpt lat="44.954847572958535" lon="8.67024703119737"><ele>191.33333333333331</ele><time>2026-04-22T11:29:16Z</time></trkpt><trkpt lat="44.95475896754019" lon="8.670267057235693"><ele>191.16666666666666</ele><time>2026-04-22T11:29:17Z</time></trkpt><trkpt lat="44.95468304196659" lon="8.670291301381289"><ele>191.0</ele><time>2026-04-22T11:29:18Z</time></trkpt><trkpt lat="44.954606744825114" lon="8.67031989943974"><ele>191.0</ele><time>2026-04-22T11:29:19Z</time></trkpt><trkpt lat="44.954533991366056" lon="8.67035448733516"><ele>191.0</ele><time>2026-04-22T11:29:20Z</time></trkpt><trkpt lat="44.954457544472355" lon="8.670399423183603"><ele>191.0</ele><time>2026-04-22T11:29:21Z</time></trkpt><trkpt lat="44.95438079053391" lon="8.670440569516359"><ele>191.0</ele><time>2026-04-22T11:29:22Z</time></trkpt><trkpt lat="44.954310449406954" lon="8.670485508563946"><ele>191.0</ele><time>2026-04-22T11:29:23Z</time></trkpt><trkpt lat="44.95420083222143" lon="8.670565438150305"><ele>191.0</ele><time>2026-04-22T11:29:25Z</time></trkpt><trkpt lat="44.954140805417225" lon="8.670613865680268"><ele>191.33333333333331</ele><time>2026-04-22T11:29:26Z</time></trkpt><trkpt lat="44.954075022791145" lon="8.67065875844352"><ele>191.66666666666666</ele><time>2026-04-22T11:29:27Z</time></trkpt><trkpt lat="44.95400933609492" lon="8.670716986663662"><ele>192.0</ele><time>2026-04-22T11:29:28Z</time></trkpt><trkpt lat="44.953938422903896" lon="8.67078292473783"><ele>192.33333333333331</ele><time>2026-04-22T11:29:29Z</time></trkpt><trkpt lat="44.95387640156172" lon="8.670845083243345"><ele>192.66666666666666</ele><time>2026-04-22T11:29:30Z</time></trkpt><trkpt lat="44.95378902674262" lon="8.670948423370383"><ele>193.0</ele><time>2026-04-22T11:29:32Z</time></trkpt><trkpt lat="44.953714462096" lon="8.671038964649945"><ele>192.2</ele><time>2026-04-22T11:29:34Z</time></trkpt><trkpt lat="44.95363789954627" lon="8.671121276990476"><ele>191.4</ele><time>2026-04-22T11:29:36Z</time></trkpt><trkpt lat="44.95354364469385" lon="8.671224859340608"><ele>190.6</ele><time>2026-04-22T11:29:38Z</time></trkpt><trkpt lat="44.95348212901254" lon="8.671303199769108"><ele>189.79999999999998</ele><time>2026-04-22T11:29:40Z</time></trkpt><trkpt lat="44.95342812846471" lon="8.671374637610526"><ele>189.0</ele><time>2026-04-22T11:29:42Z</time></trkpt><trkpt lat="44.9533498806447" lon="8.671469652351329"><ele>189.0</ele><time>2026-04-22T11:29:44Z</time></trkpt><trkpt lat="44.95328442852008" lon="8.671549326645826"><ele>189.0</ele><time>2026-04-22T11:29:46Z</time></trkpt><trkpt lat="44.95321349661853" lon="8.671657664552423"><ele>189.0</ele><time>2026-04-22T11:29:48Z</time></trkpt><trkpt lat="44.953129085145044" lon="8.671752694284324"><ele>189.0</ele><time>2026-04-22T11:29:50Z</time></trkpt><trkpt lat="44.95304633968329" lon="8.671868373591723"><ele>189.0</ele><time>2026-04-22T11:29:52Z</time></trkpt><trkpt lat="44.95296974750263" lon="8.671955348049693"><ele>187.39999999999998</ele><time>2026-04-22T11:29:54Z</time></trkpt><trkpt lat="44.952914299737294" lon="8.672006037941916"><ele>185.8</ele><time>2026-04-22T11:29:55Z</time></trkpt><trkpt lat="44.95280067650278" lon="8.672114945803592"><ele>184.2</ele><time>2026-04-22T11:29:57Z</time></trkpt><trkpt lat="44.952703522180286" lon="8.672182136056238"><ele>182.60000000000002</ele><time>2026-04-22T11:29:59Z</time></trkpt><trkpt lat="44.95260704397452" lon="8.672239936180567"><ele>181.0</ele><time>2026-04-22T11:30:01Z</time></trkpt><trkpt lat="44.952552866877056" lon="8.672331140899791"><ele>180.66666666666669</ele><time>2026-04-22T11:30:05Z</time></trkpt><trkpt lat="44.95251783921149" lon="8.672415885718726"><ele>180.33333333333334</ele><time>2026-04-22T11:30:07Z</time></trkpt><trkpt lat="44.952501931352145" lon="8.672504130314369"><ele>180.0</ele><time>2026-04-22T11:30:18Z</time></trkpt><trkpt lat="44.95247335152101" lon="8.672647478800686"><ele>179.66666666666666</ele><time>2026-04-22T11:30:21Z</time></trkpt><trkpt lat="44.95244855518441" lon="8.672759567427061"><ele>179.33333333333331</ele><time>2026-04-22T11:30:25Z</time></trkpt><trkpt lat="44.95243586660806" lon="8.672877718513034"><ele>179.0</ele><time>2026-04-22T11:30:26.999Z</time></trkpt><trkpt lat="44.95241113089635" lon="8.673028698340858"><ele>179.0</ele><time>2026-04-22T11:30:28.999Z</time></trkpt><trkpt lat="44.95238285856751" lon="8.67317296603447"><ele>179.0</ele><time>2026-04-22T11:30:30.999Z</time></trkpt><trkpt lat="44.95237301953006" lon="8.673333301976733"><ele>179.0</ele><time>2026-04-22T11:30:32.999Z</time></trkpt><trkpt lat="44.95236803263229" lon="8.673490506389003"><ele>179.0</ele><time>2026-04-22T11:30:35Z</time></trkpt><trkpt lat="44.95235661999093" lon="8.67362144772031"><ele>179.0</ele><time>2026-04-22T11:30:37Z</time></trkpt><trkpt lat="44.95234483159476" lon="8.673773664976306"><ele>178.66666666666666</ele><time>2026-04-22T11:30:39Z</time></trkpt><trkpt lat="44.95234249149243" lon="8.673915045593475"><ele>178.33333333333331</ele><time>2026-04-22T11:30:41Z</time></trkpt><trkpt lat="44.95233933364616" lon="8.67406935788391"><ele>178.0</ele><time>2026-04-22T11:30:43Z</time></trkpt><trkpt lat="44.952335249397024" lon="8.67417334292249"><ele>177.66666666666666</ele><time>2026-04-22T11:30:45Z</time></trkpt><trkpt lat="44.952338904233706" lon="8.674282319572756"><ele>177.33333333333334</ele><time>2026-04-22T11:30:47Z</time></trkpt><trkpt lat="44.95232093042748" lon="8.674401097134497"><ele>177.0</ele><time>2026-04-22T11:30:49Z</time></trkpt><trkpt lat="44.95231546082777" lon="8.674495792995039"><ele>175.6</ele><time>2026-04-22T11:30:51Z</time></trkpt><trkpt lat="44.95230150186682" lon="8.674614234813903"><ele>174.2</ele><time>2026-04-22T11:30:52Z</time></trkpt><trkpt lat="44.95226649946016" lon="8.674759331279759"><ele>172.8</ele><time>2026-04-22T11:30:54Z</time></trkpt><trkpt lat="44.95222163397388" lon="8.674876310579686"><ele>171.4</ele><time>2026-04-22T11:30:56Z</time></trkpt><trkpt lat="44.95216038910703" lon="8.67500420432952"><ele>170.0</ele><time>2026-04-22T11:30:58Z</time></trkpt><trkpt lat="44.95210713621648" lon="8.675140239563923"><ele>170.0</ele><time>2026-04-22T11:31:00Z</time></trkpt><trkpt lat="44.952044842816115" lon="8.675224110673534"><ele>170.0</ele><time>2026-04-22T11:31:02Z</time></trkpt><trkpt lat="44.95199116167123" lon="8.675364433780915"><ele>170.0</ele><time>2026-04-22T11:31:04Z</time></trkpt><trkpt lat="44.951937582970146" lon="8.675432325718823"><ele>170.0</ele><time>2026-04-22T11:31:05Z</time></trkpt><trkpt lat="44.951886976984326" lon="8.67554466011689"><ele>170.0</ele><time>2026-04-22T11:31:07Z</time></trkpt><trkpt lat="44.951838196943015" lon="8.675601243417704"><ele>170.0</ele><time>2026-04-22T11:31:08Z</time></trkpt><trkpt lat="44.951759446741164" lon="8.675715663322755"><ele>168.8</ele><time>2026-04-22T11:31:10Z</time></trkpt><trkpt lat="44.95168180832556" lon="8.675806761610172"><ele>167.6</ele><time>2026-04-22T11:31:12Z</time></trkpt><trkpt lat="44.95158919413706" lon="8.67590282569863"><ele>166.39999999999998</ele><time>2026-04-22T11:31:14Z</time></trkpt><trkpt lat="44.95150229668499" lon="8.67599013008004"><ele>165.2</ele><time>2026-04-22T11:31:16Z</time></trkpt><trkpt lat="44.951434006034994" lon="8.67609446562865"><ele>164.0</ele><time>2026-04-22T11:31:18Z</time></trkpt><trkpt lat="44.95138471069739" lon="8.676187235227506"><ele>162.79999999999998</ele><time>2026-04-22T11:31:19Z</time></trkpt><trkpt lat="44.95133753963464" lon="8.676291768400041"><ele>161.6</ele><time>2026-04-22T11:31:20Z</time></trkpt><trkpt lat="44.95128698833691" lon="8.676421989938595"><ele>160.4</ele><time>2026-04-22T11:31:23Z</time></trkpt><trkpt lat="44.95124824724849" lon="8.676544775616387"><ele>159.2</ele><time>2026-04-22T11:31:25Z</time></trkpt><trkpt lat="44.95122361911931" lon="8.676681381508791"><ele>158.0</ele><time>2026-04-22T11:31:27Z</time></trkpt><trkpt lat="44.951188441815475" lon="8.676778959982437"><ele>158.0</ele><time>2026-04-22T11:31:29Z</time></trkpt><trkpt lat="44.95119667778545" lon="8.676868789372698"><ele>158.0</ele><time>2026-04-22T11:31:40Z</time></trkpt><trkpt lat="44.95109917674269" lon="8.676890222858288"><ele>158.0</ele><time>2026-04-22T11:31:47Z</time></trkpt><trkpt lat="44.95104639204629" lon="8.676764952481452"><ele>158.0</ele><time>2026-04-22T11:31:48Z</time></trkpt><trkpt lat="44.95096923540614" lon="8.676717228238088"><ele>158.0</ele><time>2026-04-22T11:31:49Z</time></trkpt><trkpt lat="44.95090513822332" lon="8.676664849860463"><ele>158.0</ele><time>2026-04-22T11:31:50Z</time></trkpt><trkpt lat="44.95084826126495" lon="8.676615241931952"><ele>157.6</ele><time>2026-04-22T11:31:51Z</time></trkpt><trkpt lat="44.950762073987654" lon="8.676519685306152"><ele>157.20000000000002</ele><time>2026-04-22T11:31:53Z</time></trkpt><trkpt lat="44.950680676583474" lon="8.67642092078542"><ele>156.8</ele><time>2026-04-22T11:31:55Z</time></trkpt><trkpt lat="44.95059274347517" lon="8.676305456807013"><ele>156.4</ele><time>2026-04-22T11:31:57Z</time></trkpt><trkpt lat="44.95053701444869" lon="8.67622675550868"><ele>156.0</ele><time>2026-04-22T11:31:58Z</time></trkpt><trkpt lat="44.95047577487993" lon="8.676140007850869"><ele>156.5</ele><time>2026-04-22T11:31:59Z</time></trkpt><trkpt lat="44.950395026426655" lon="8.676023299589795"><ele>157.0</ele><time>2026-04-22T11:32:00Z</time></trkpt><trkpt lat="44.950319426586695" lon="8.675918264231377"><ele>157.5</ele><time>2026-04-22T11:32:01Z</time></trkpt><trkpt lat="44.95025919706189" lon="8.675841193239707"><ele>158.0</ele><time>2026-04-22T11:32:02Z</time></trkpt><trkpt lat="44.95020083984878" lon="8.675767593193877"><ele>158.5</ele><time>2026-04-22T11:32:03Z</time></trkpt><trkpt lat="44.95015153753819" lon="8.675705413178536"><ele>159.0</ele><time>2026-04-22T11:32:04Z</time></trkpt><trkpt lat="44.95004790749616" lon="8.675601610345012"><ele>156.8</ele><time>2026-04-22T11:32:06Z</time></trkpt><trkpt lat="44.949924267949676" lon="8.675532043619338"><ele>154.60000000000002</ele><time>2026-04-22T11:32:08Z</time></trkpt><trkpt lat="44.949829840162685" lon="8.675488095777716"><ele>152.4</ele><time>2026-04-22T11:32:09Z</time></trkpt><trkpt lat="44.949730872305565" lon="8.67544758486193"><ele>150.20000000000002</ele><time>2026-04-22T11:32:10Z</time></trkpt><trkpt lat="44.94963898626322" lon="8.675413097977792"><ele>148.0</ele><time>2026-04-22T11:32:11Z</time></trkpt><trkpt lat="44.94954220429453" lon="8.675376773539032"><ele>148.0</ele><time>2026-04-22T11:32:12Z</time></trkpt><trkpt lat="44.94947078880608" lon="8.675349969712492"><ele>148.0</ele><time>2026-04-22T11:32:13Z</time></trkpt><trkpt lat="44.949379003670224" lon="8.67530498144728"><ele>148.0</ele><time>2026-04-22T11:32:14Z</time></trkpt><trkpt lat="44.94930575696699" lon="8.675268531195082"><ele>148.0</ele><time>2026-04-22T11:32:15Z</time></trkpt><trkpt lat="44.9492285410172" lon="8.675229645216078"><ele>148.0</ele><time>2026-04-22T11:32:16Z</time></trkpt><trkpt lat="44.94915181544395" lon="8.675190125019963"><ele>148.0</ele><time>2026-04-22T11:32:17Z</time></trkpt><trkpt lat="44.94905987251411" lon="8.67514182182733"><ele>147.4</ele><time>2026-04-22T11:32:17.999Z</time></trkpt><trkpt lat="44.94896366839634" lon="8.675075211456711"><ele>146.8</ele><time>2026-04-22T11:32:18.999Z</time></trkpt><trkpt lat="44.94887991339603" lon="8.674998033023574"><ele>146.2</ele><time>2026-04-22T11:32:19.999Z</time></trkpt><trkpt lat="44.94880659810656" lon="8.674929706952184"><ele>145.6</ele><time>2026-04-22T11:32:20.999Z</time></trkpt><trkpt lat="44.94872922553336" lon="8.67487541876504"><ele>145.0</ele><time>2026-04-22T11:32:21.999Z</time></trkpt><trkpt lat="44.94864999833543" lon="8.674824632219897"><ele>145.0</ele><time>2026-04-22T11:32:22.999Z</time></trkpt><trkpt lat="44.94857503045537" lon="8.674784004702863"><ele>145.0</ele><time>2026-04-22T11:32:23.999Z</time></trkpt><trkpt lat="44.94850917445003" lon="8.674751208096758"><ele>145.0</ele><time>2026-04-22T11:32:24.999Z</time></trkpt><trkpt lat="44.94844562697819" lon="8.674719561150356"><ele>145.0</ele><time>2026-04-22T11:32:25.999Z</time></trkpt><trkpt lat="44.94833688925121" lon="8.674665409239596"><ele>145.0</ele><time>2026-04-22T11:32:27.999Z</time></trkpt><trkpt lat="44.948237030885366" lon="8.674594010892285"><ele>145.0</ele><time>2026-04-22T11:32:29.999Z</time></trkpt><trkpt lat="44.94820092968795" lon="8.674510146537465"><ele>145.0</ele><time>2026-04-22T11:32:31.999Z</time></trkpt><trkpt lat="44.94823504770049" lon="8.67458825883149"><ele>145.0</ele><time>2026-04-22T11:32:36.999Z</time></trkpt><trkpt lat="44.948185645848035" lon="8.674529021809827"><ele>145.0</ele><time>2026-04-22T11:32:37.999Z</time></trkpt><trkpt lat="44.948325891237985" lon="8.674728679702287"><ele>145.0</ele><time>2026-04-22T11:32:38.999Z</time></trkpt><trkpt lat="44.94843141928513" lon="8.674765807967622"><ele>145.0</ele><time>2026-04-22T11:32:39.999Z</time></trkpt><trkpt lat="44.948550997519476" lon="8.67482108057512"><ele>145.0</ele><time>2026-04-22T11:32:41Z</time></trkpt><trkpt lat="44.94872169440924" lon="8.674920879756566"><ele>145.0</ele><time>2026-04-22T11:32:42Z</time></trkpt><trkpt lat="44.94885949330356" lon="8.67501108175787"><ele>145.0</ele><time>2026-04-22T11:32:43Z</time></trkpt><trkpt lat="44.948969474690266" lon="8.67510816449393"><ele>145.0</ele><time>2026-04-22T11:32:44Z</time></trkpt><trkpt lat="44.94907259873638" lon="8.675187479139286"><ele>145.0</ele><time>2026-04-22T11:32:45Z</time></trkpt><trkpt lat="44.94919147774812" lon="8.675257448860798"><ele>145.0</ele><time>2026-04-22T11:32:46Z</time></trkpt><trkpt lat="44.949313753039384" lon="8.675318950753455"><ele>145.0</ele><time>2026-04-22T11:32:47Z</time></trkpt><trkpt lat="44.949427421115324" lon="8.675372889802269"><ele>145.75</ele><time>2026-04-22T11:32:48Z</time></trkpt><trkpt lat="44.949524072826634" lon="8.675406376807933"><ele>146.5</ele><time>2026-04-22T11:32:49Z</time></trkpt><trkpt lat="44.949631968942" lon="8.675445017815225"><ele>147.25</ele><time>2026-04-22T11:32:50Z</time></trkpt><trkpt lat="44.94974762665732" lon="8.675484971453834"><ele>148.0</ele><time>2026-04-22T11:32:51Z</time></trkpt><trkpt lat="44.94987149161008" lon="8.67554621639993"><ele>148.0</ele><time>2026-04-22T11:32:52Z</time></trkpt><trkpt lat="44.94998565461649" lon="8.675604475543611"><ele>148.0</ele><time>2026-04-22T11:32:53Z</time></trkpt><trkpt lat="44.950069642011435" lon="8.67566381042907"><ele>148.0</ele><time>2026-04-22T11:32:54Z</time></trkpt><trkpt lat="44.95012941040418" lon="8.675717226203846"><ele>148.0</ele><time>2026-04-22T11:32:55Z</time></trkpt><trkpt lat="44.95022970302204" lon="8.675838525228897"><ele>148.0</ele><time>2026-04-22T11:32:57Z</time></trkpt><trkpt lat="44.95029766859382" lon="8.675938014388224"><ele>150.0</ele><time>2026-04-22T11:32:58Z</time></trkpt><trkpt lat="44.950381532542096" lon="8.676045833195987"><ele>152.0</ele><time>2026-04-22T11:32:59Z</time></trkpt><trkpt lat="44.95046739679301" lon="8.676163192833185"><ele>154.0</ele><time>2026-04-22T11:33:00Z</time></trkpt><trkpt lat="44.950559145607095" lon="8.67629405222189"><ele>156.0</ele><time>2026-04-22T11:33:01Z</time></trkpt><trkpt lat="44.950661913804396" lon="8.676441065619565"><ele>156.0</ele><time>2026-04-22T11:33:02Z</time></trkpt><trkpt lat="44.95074317692573" lon="8.676536733939509"><ele>156.0</ele><time>2026-04-22T11:33:03Z</time></trkpt><trkpt lat="44.95079734075516" lon="8.676605452534986"><ele>156.0</ele><time>2026-04-22T11:33:04Z</time></trkpt><trkpt lat="44.95084844040228" lon="8.67666001695623"><ele>156.0</ele><time>2026-04-22T11:33:06Z</time></trkpt><trkpt lat="44.95078053460766" lon="8.676817071166582"><ele>156.0</ele><time>2026-04-22T11:33:13Z</time></trkpt><trkpt lat="44.95071993330073" lon="8.676900203243058"><ele>156.0</ele><time>2026-04-22T11:33:15Z</time></trkpt><trkpt lat="44.95066411541279" lon="8.67701731080373"><ele>156.0</ele><time>2026-04-22T11:33:17Z</time></trkpt><trkpt lat="44.950626126026194" lon="8.677089893121547"><ele>156.0</ele><time>2026-04-22T11:33:18Z</time></trkpt><trkpt lat="44.950577754109325" lon="8.677203570245885"><ele>156.0</ele><time>2026-04-22T11:33:20Z</time></trkpt><trkpt lat="44.95053225127242" lon="8.67730589911848"><ele>156.0</ele><time>2026-04-22T11:33:22Z</time></trkpt><trkpt lat="44.95050539647203" lon="8.677398490108816"><ele>156.0</ele><time>2026-04-22T11:33:26Z</time></trkpt><trkpt lat="44.95045909473437" lon="8.677478252333968"><ele>156.0</ele><time>2026-04-22T11:33:29Z</time></trkpt><trkpt lat="44.95038906004188" lon="8.67754486474671"><ele>156.0</ele><time>2026-04-22T11:33:31Z</time></trkpt><trkpt lat="44.950293313766714" lon="8.677641631393245"><ele>156.0</ele><time>2026-04-22T11:33:33Z</time></trkpt><trkpt lat="44.95021399358376" lon="8.67770053799451"><ele>156.0</ele><time>2026-04-22T11:33:34Z</time></trkpt><trkpt lat="44.95012827148502" lon="8.677752123828094"><ele>156.0</ele><time>2026-04-22T11:33:35Z</time></trkpt><trkpt lat="44.950018818147974" lon="8.67785642624536"><ele>155.0</ele><time>2026-04-22T11:33:39Z</time></trkpt><trkpt lat="44.949952750605924" lon="8.677865595586809"><ele>154.0</ele><time>2026-04-22T11:33:40Z</time></trkpt><trkpt lat="44.94985439828767" lon="8.67790139439462"><ele>153.0</ele><time>2026-04-22T11:33:42Z</time></trkpt><trkpt lat="44.949771239120196" lon="8.677966092569816"><ele>152.0</ele><time>2026-04-22T11:33:44Z</time></trkpt><trkpt lat="44.949683677868464" lon="8.678033039584651"><ele>151.0</ele><time>2026-04-22T11:33:46Z</time></trkpt><trkpt lat="44.94960618668673" lon="8.678110160532352"><ele>151.0</ele><time>2026-04-22T11:33:48Z</time></trkpt><trkpt lat="44.94953150137522" lon="8.678157704466134"><ele>151.0</ele><time>2026-04-22T11:33:50Z</time></trkpt><trkpt lat="44.949441055658376" lon="8.678171084402624"><ele>151.0</ele><time>2026-04-22T11:33:52Z</time></trkpt><trkpt lat="44.94933378475636" lon="8.67816163386745"><ele>151.0</ele><time>2026-04-22T11:33:54Z</time></trkpt><trkpt lat="44.949261878884506" lon="8.678198143156488"><ele>151.0</ele><time>2026-04-22T11:33:56Z</time></trkpt><trkpt lat="44.949189145312566" lon="8.678234892324658"><ele>151.0</ele><time>2026-04-22T11:33:58Z</time></trkpt><trkpt lat="44.94912243974732" lon="8.678206568761217"><ele>147.5</ele><time>2026-04-22T11:34:00Z</time></trkpt><trkpt lat="44.949045612507355" lon="8.678148011278424"><ele>144.0</ele><time>2026-04-22T11:34:02Z</time></trkpt><trkpt lat="44.94898022080162" lon="8.678202778645721"><ele>140.5</ele><time>2026-04-22T11:34:04Z</time></trkpt><trkpt lat="44.94888574509981" lon="8.678283801237855"><ele>137.0</ele><time>2026-04-22T11:34:06Z</time></trkpt><trkpt lat="44.94880990341155" lon="8.678345850253752"><ele>133.5</ele><time>2026-04-22T11:34:08Z</time></trkpt><trkpt lat="44.94874663598317" lon="8.678401847292562"><ele>130.0</ele><time>2026-04-22T11:34:10Z</time></trkpt><trkpt lat="44.948674097899925" lon="8.678410872052677"><ele>130.0</ele><time>2026-04-22T11:34:12Z</time></trkpt><trkpt lat="44.94860543143103" lon="8.678432633897556"><ele>130.0</ele><time>2026-04-22T11:34:14Z</time></trkpt><trkpt lat="44.94852424173574" lon="8.678469900223272"><ele>130.0</ele><time>2026-04-22T11:34:16Z</time></trkpt><trkpt lat="44.94844907600851" lon="8.67853535915651"><ele>130.0</ele><time>2026-04-22T11:34:18Z</time></trkpt><trkpt lat="44.948373365121604" lon="8.67858405190792"><ele>130.0</ele><time>2026-04-22T11:34:26.999Z</time></trkpt><trkpt lat="44.94829938642232" lon="8.678629378384565"><ele>130.0</ele><time>2026-04-22T11:34:29.999Z</time></trkpt><trkpt lat="44.94823406652015" lon="8.6786757033962"><ele>127.83333333333334</ele><time>2026-04-22T11:34:31.999Z</time></trkpt><trkpt lat="44.948138236008084" lon="8.678740035944571"><ele>125.66666666666667</ele><time>2026-04-22T11:34:34.999Z</time></trkpt><trkpt lat="44.94805598928515" lon="8.678767988173224"><ele>123.5</ele><time>2026-04-22T11:34:36.999Z</time></trkpt><trkpt lat="44.94798524507818" lon="8.678816617909675"><ele>121.33333333333334</ele><time>2026-04-22T11:34:38.999Z</time></trkpt><trkpt lat="44.94791246535726" lon="8.678841910527108"><ele>119.16666666666667</ele><time>2026-04-22T11:34:40.999Z</time></trkpt><trkpt lat="44.94783700096207" lon="8.678887213757642"><ele>117.0</ele><time>2026-04-22T11:34:42.999Z</time></trkpt><trkpt lat="44.94775568703794" lon="8.678922292448068"><ele>117.0</ele><time>2026-04-22T11:34:44.999Z</time></trkpt><trkpt lat="44.94765689983374" lon="8.678979516020112"><ele>117.0</ele><time>2026-04-22T11:34:47Z</time></trkpt><trkpt lat="44.94758115543498" lon="8.678987028557493"><ele>117.0</ele><time>2026-04-22T11:34:49Z</time></trkpt><trkpt lat="44.947513154424755" lon="8.67897965504739"><ele>117.0</ele><time>2026-04-22T11:34:51Z</time></trkpt><trkpt lat="44.94742180637097" lon="8.6789577107032"><ele>117.0</ele><time>2026-04-22T11:34:53Z</time></trkpt><trkpt lat="44.94733963097843" lon="8.678946390359886"><ele>117.0</ele><time>2026-04-22T11:34:56Z</time></trkpt><trkpt lat="44.947280154618944" lon="8.678902650729826"><ele>113.33333333333333</ele><time>2026-04-22T11:34:58Z</time></trkpt><trkpt lat="44.947204992941685" lon="8.678880205430804"><ele>109.66666666666667</ele><time>2026-04-22T11:35:00Z</time></trkpt><trkpt lat="44.947119899428415" lon="8.678913760238325"><ele>106.0</ele><time>2026-04-22T11:35:02Z</time></trkpt><trkpt lat="44.947054403727606" lon="8.678975708317145"><ele>102.33333333333334</ele><time>2026-04-22T11:35:04Z</time></trkpt><trkpt lat="44.947012775997756" lon="8.679072047570402"><ele>98.66666666666667</ele><time>2026-04-22T11:35:06Z</time></trkpt><trkpt lat="44.946958898702974" lon="8.679134110006837"><ele>95.0</ele><time>2026-04-22T11:35:09Z</time></trkpt><trkpt lat="44.94689217171092" lon="8.679134028851937"><ele>95.0</ele><time>2026-04-22T11:36:26Z</time></trkpt><trkpt lat="44.94685701197537" lon="8.679031630537763"><ele>95.0</ele><time>2026-04-22T11:36:27.999Z</time></trkpt><trkpt lat="44.9468890011822" lon="8.678918572108504"><ele>95.0</ele><time>2026-04-22T11:36:28.999Z</time></trkpt><trkpt lat="44.94687458072315" lon="8.678795217175287"><ele>95.0</ele><time>2026-04-22T11:36:29.999Z</time></trkpt><trkpt lat="44.946887394626366" lon="8.678660719895685"><ele>95.0</ele><time>2026-04-22T11:36:30.999Z</time></trkpt><trkpt lat="44.94687475077869" lon="8.678500314883582"><ele>95.25</ele><time>2026-04-22T11:36:31.999Z</time></trkpt><trkpt lat="44.94687323054531" lon="8.678336582233877"><ele>95.5</ele><time>2026-04-22T11:36:32.999Z</time></trkpt><trkpt lat="44.94686929188571" lon="8.678156116248644"><ele>95.75</ele><time>2026-04-22T11:36:33.999Z</time></trkpt><trkpt lat="44.94686289941849" lon="8.677980160371492"><ele>96.0</ele><time>2026-04-22T11:36:34.999Z</time></trkpt><trkpt lat="44.94685941073665" lon="8.677794038567315"><ele>96.25</ele><time>2026-04-22T11:36:35.999Z</time></trkpt><trkpt lat="44.94683839833227" lon="8.677609795483974"><ele>96.5</ele><time>2026-04-22T11:36:36.999Z</time></trkpt><trkpt lat="44.94681525488872" lon="8.677415113712016"><ele>96.75</ele><time>2026-04-22T11:36:37.999Z</time></trkpt><trkpt lat="44.946780662419876" lon="8.677231803154461"><ele>97.0</ele><time>2026-04-22T11:36:38.999Z</time></trkpt><trkpt lat="44.94672682682692" lon="8.677045778529779"><ele>95.25</ele><time>2026-04-22T11:36:39.999Z</time></trkpt><trkpt lat="44.946674986753514" lon="8.676859655835948"><ele>93.5</ele><time>2026-04-22T11:36:40.999Z</time></trkpt><trkpt lat="44.946619427629344" lon="8.67667382045356"><ele>91.75</ele><time>2026-04-22T11:36:41.999Z</time></trkpt><trkpt lat="44.946554966554054" lon="8.676496436681985"><ele>90.0</ele><time>2026-04-22T11:36:42.999Z</time></trkpt><trkpt lat="44.94647985459609" lon="8.676316575034972"><ele>90.0</ele><time>2026-04-22T11:36:43.999Z</time></trkpt><trkpt lat="44.94640479946641" lon="8.676128252883991"><ele>90.0</ele><time>2026-04-22T11:36:44.999Z</time></trkpt><trkpt lat="44.94632315760531" lon="8.675940975462671"><ele>90.0</ele><time>2026-04-22T11:36:45.999Z</time></trkpt><trkpt lat="44.946257475051596" lon="8.675734535558922"><ele>91.66666666666667</ele><time>2026-04-22T11:36:46.999Z</time></trkpt><trkpt lat="44.946178195494234" lon="8.675538068172397"><ele>93.33333333333334</ele><time>2026-04-22T11:36:47.999Z</time></trkpt><trkpt lat="44.9460974523222" lon="8.675337973745542"><ele>95.0</ele><time>2026-04-22T11:36:48.999Z</time></trkpt><trkpt lat="44.946018446960146" lon="8.675142185883455"><ele>97.33333333333334</ele><time>2026-04-22T11:36:49.999Z</time></trkpt><trkpt lat="44.94593785932774" lon="8.67494334532777"><ele>99.66666666666667</ele><time>2026-04-22T11:36:50.999Z</time></trkpt><trkpt lat="44.945854418275374" lon="8.674741188358798"><ele>102.0</ele><time>2026-04-22T11:36:51.999Z</time></trkpt><trkpt lat="44.94576861052388" lon="8.674535052725389"><ele>99.0</ele><time>2026-04-22T11:36:53Z</time></trkpt><trkpt lat="44.94566434344365" lon="8.674344654978395"><ele>96.0</ele><time>2026-04-22T11:36:54Z</time></trkpt><trkpt lat="44.94557188572335" lon="8.67413893908139"><ele>93.0</ele><time>2026-04-22T11:36:55Z</time></trkpt><trkpt lat="44.945472648096384" lon="8.67394103558469"><ele>93.0</ele><time>2026-04-22T11:36:56Z</time></trkpt><trkpt lat="44.94534246212019" lon="8.673774021598252"><ele>93.0</ele><time>2026-04-22T11:36:57Z</time></trkpt><trkpt lat="44.94520201778324" lon="8.673621398020368"><ele>93.0</ele><time>2026-04-22T11:36:58Z</time></trkpt><trkpt lat="44.94504720478159" lon="8.673499074435064"><ele>91.66666666666667</ele><time>2026-04-22T11:36:59Z</time></trkpt><trkpt lat="44.94490116773067" lon="8.673362368867416"><ele>90.33333333333334</ele><time>2026-04-22T11:37:00Z</time></trkpt><trkpt lat="44.944760831276476" lon="8.673240756509838"><ele>89.0</ele><time>2026-04-22T11:37:01Z</time></trkpt><trkpt lat="44.944621411997" lon="8.673119307157815"><ele>89.0</ele><time>2026-04-22T11:37:02Z</time></trkpt><trkpt lat="44.944470957024535" lon="8.672988244469709"><ele>89.0</ele><time>2026-04-22T11:37:03Z</time></trkpt><trkpt lat="44.94432606879556" lon="8.672861667028355"><ele>89.0</ele><time>2026-04-22T11:37:04Z</time></trkpt><trkpt lat="44.94418183741812" lon="8.672734113998834"><ele>89.66666666666667</ele><time>2026-04-22T11:37:05Z</time></trkpt><trkpt lat="44.944037090069344" lon="8.672606270919962"><ele>90.33333333333333</ele><time>2026-04-22T11:37:06Z</time></trkpt><trkpt lat="44.943885874675175" lon="8.672474547217032"><ele>91.0</ele><time>2026-04-22T11:37:07Z</time></trkpt><trkpt lat="44.94373486058847" lon="8.672348102578043"><ele>91.0</ele><time>2026-04-22T11:37:08Z</time></trkpt><trkpt lat="44.943585114066515" lon="8.67222761924745"><ele>91.0</ele><time>2026-04-22T11:37:09Z</time></trkpt><trkpt lat="44.94341797460493" lon="8.672095187478076"><ele>91.0</ele><time>2026-04-22T11:37:10Z</time></trkpt><trkpt lat="44.94326365445813" lon="8.671975433645477"><ele>91.33333333333333</ele><time>2026-04-22T11:37:11Z</time></trkpt><trkpt lat="44.94311271113355" lon="8.67185830024628"><ele>91.66666666666667</ele><time>2026-04-22T11:37:12Z</time></trkpt><trkpt lat="44.94296401872939" lon="8.671746074314045"><ele>92.0</ele><time>2026-04-22T11:37:13Z</time></trkpt><trkpt lat="44.942820671858115" lon="8.671638645649281"><ele>92.0</ele><time>2026-04-22T11:37:14Z</time></trkpt><trkpt lat="44.942677314798665" lon="8.671531209341858"><ele>92.0</ele><time>2026-04-22T11:37:15Z</time></trkpt><trkpt lat="44.94253103887893" lon="8.671419159700994"><ele>92.0</ele><time>2026-04-22T11:37:16Z</time></trkpt><trkpt lat="44.942391574964226" lon="8.6713097110393"><ele>90.66666666666667</ele><time>2026-04-22T11:37:17Z</time></trkpt><trkpt lat="44.942241304482664" lon="8.671193315794332"><ele>89.33333333333333</ele><time>2026-04-22T11:37:18Z</time></trkpt><trkpt lat="44.94211005009661" lon="8.67107506701533"><ele>88.0</ele><time>2026-04-22T11:37:19Z</time></trkpt><trkpt lat="44.9419767170359" lon="8.670926309162772"><ele>88.0</ele><time>2026-04-22T11:37:20Z</time></trkpt><trkpt lat="44.94186797833983" lon="8.670768354749317"><ele>88.0</ele><time>2026-04-22T11:37:21Z</time></trkpt><trkpt lat="44.941753053401634" lon="8.67057132218717"><ele>88.0</ele><time>2026-04-22T11:37:22Z</time></trkpt><trkpt lat="44.94169860624126" lon="8.670351034201282"><ele>87.33333333333333</ele><time>2026-04-22T11:37:23Z</time></trkpt><trkpt lat="44.94164328379619" lon="8.670136880593597"><ele>86.66666666666667</ele><time>2026-04-22T11:37:24Z</time></trkpt><trkpt lat="44.941622671607334" lon="8.669890714736258"><ele>86.0</ele><time>2026-04-22T11:37:25Z</time></trkpt><trkpt lat="44.941631337136755" lon="8.669671133600817"><ele>86.33333333333334</ele><time>2026-04-22T11:37:26Z</time></trkpt><trkpt lat="44.941669607651576" lon="8.66943097077313"><ele>86.66666666666667</ele><time>2026-04-22T11:37:27Z</time></trkpt><trkpt lat="44.941717401980185" lon="8.669213431605908"><ele>87.0</ele><time>2026-04-22T11:37:28Z</time></trkpt><trkpt lat="44.9417603026707" lon="8.668975769116283"><ele>87.33333333333333</ele><time>2026-04-22T11:37:29Z</time></trkpt><trkpt lat="44.941797980926104" lon="8.668768713270781"><ele>87.66666666666666</ele><time>2026-04-22T11:37:30Z</time></trkpt><trkpt lat="44.94183494413655" lon="8.66854833145612"><ele>88.0</ele><time>2026-04-22T11:37:31Z</time></trkpt><trkpt lat="44.941877766294816" lon="8.668319800815448"><ele>88.75</ele><time>2026-04-22T11:37:32Z</time></trkpt><trkpt lat="44.94191830441831" lon="8.668119282626312"><ele>89.5</ele><time>2026-04-22T11:37:33Z</time></trkpt><trkpt lat="44.94195521447983" lon="8.667949931719741"><ele>90.25</ele><time>2026-04-22T11:37:34Z</time></trkpt><trkpt lat="44.94197550243445" lon="8.66778963750902"><ele>91.0</ele><time>2026-04-22T11:37:35Z</time></trkpt><trkpt lat="44.94196478566757" lon="8.667645774389912"><ele>91.5</ele><time>2026-04-22T11:37:36Z</time></trkpt><trkpt lat="44.941909563232535" lon="8.667517129559753"><ele>92.0</ele><time>2026-04-22T11:37:37Z</time></trkpt><trkpt lat="44.94180961687644" lon="8.667423907753273"><ele>92.5</ele><time>2026-04-22T11:37:38Z</time></trkpt><trkpt lat="44.94169119726926" lon="8.667353791218188"><ele>93.0</ele><time>2026-04-22T11:37:39Z</time></trkpt><trkpt lat="44.94158422622945" lon="8.667242679849753"><ele>93.0</ele><time>2026-04-22T11:37:40Z</time></trkpt><trkpt lat="44.94146335929" lon="8.667138442665664"><ele>93.0</ele><time>2026-04-22T11:37:41Z</time></trkpt><trkpt lat="44.941335320584514" lon="8.667027822549546"><ele>93.0</ele><time>2026-04-22T11:37:42Z</time></trkpt><trkpt lat="44.941202753450575" lon="8.666915592565813"><ele>93.0</ele><time>2026-04-22T11:37:43Z</time></trkpt><trkpt lat="44.941067302927664" lon="8.666800806478017"><ele>95.0</ele><time>2026-04-22T11:37:44Z</time></trkpt><trkpt lat="44.94093891068389" lon="8.666697951291761"><ele>97.0</ele><time>2026-04-22T11:37:45Z</time></trkpt><trkpt lat="44.94082254871226" lon="8.666627433164205"><ele>99.0</ele><time>2026-04-22T11:37:46Z</time></trkpt><trkpt lat="44.94069620089387" lon="8.666608035259564"><ele>101.0</ele><time>2026-04-22T11:37:47Z</time></trkpt><trkpt lat="44.94055792548352" lon="8.66667101220436"><ele>101.66666666666666</ele><time>2026-04-22T11:37:48Z</time></trkpt><trkpt lat="44.94040120783865" lon="8.666740943983063"><ele>102.33333333333334</ele><time>2026-04-22T11:37:49Z</time></trkpt><trkpt lat="44.94024782360437" lon="8.666821976969509"><ele>103.0</ele><time>2026-04-22T11:37:50Z</time></trkpt><trkpt lat="44.940073066986656" lon="8.66689013951419"><ele>99.66666666666667</ele><time>2026-04-22T11:37:51Z</time></trkpt><trkpt lat="44.93990627164185" lon="8.666946501861856"><ele>96.33333333333334</ele><time>2026-04-22T11:37:52Z</time></trkpt><trkpt lat="44.93973157032733" lon="8.666994897831682"><ele>93.0</ele><time>2026-04-22T11:37:53Z</time></trkpt><trkpt lat="44.93956169128934" lon="8.667007645069633"><ele>93.0</ele><time>2026-04-22T11:37:54Z</time></trkpt><trkpt lat="44.93938435025769" lon="8.666995840038744"><ele>93.0</ele><time>2026-04-22T11:37:55Z</time></trkpt><trkpt lat="44.939209054949515" lon="8.666978978690105"><ele>93.0</ele><time>2026-04-22T11:37:56Z</time></trkpt><trkpt lat="44.93904598165916" lon="8.666951841372498"><ele>99.66666666666666</ele><time>2026-04-22T11:37:57Z</time></trkpt><trkpt lat="44.9388749338192" lon="8.666898523042887"><ele>106.33333333333333</ele><time>2026-04-22T11:37:58Z</time></trkpt><trkpt lat="44.93873869647154" lon="8.66684200232205"><ele>113.0</ele><time>2026-04-22T11:37:59Z</time></trkpt><trkpt lat="44.93861799836065" lon="8.666754636380345"><ele>113.0</ele><time>2026-04-22T11:38:00Z</time></trkpt><trkpt lat="44.938498201626246" lon="8.666632564102217"><ele>113.0</ele><time>2026-04-22T11:38:01Z</time></trkpt><trkpt lat="44.93837486329531" lon="8.666504302161085"><ele>113.0</ele><time>2026-04-22T11:38:02Z</time></trkpt><trkpt lat="44.93825276256352" lon="8.666364649174419"><ele>112.0</ele><time>2026-04-22T11:38:03Z</time></trkpt><trkpt lat="44.93813766000579" lon="8.666235146939027"><ele>111.0</ele><time>2026-04-22T11:38:04Z</time></trkpt><trkpt lat="44.93801683359843" lon="8.666102361378138"><ele>110.0</ele><time>2026-04-22T11:38:05Z</time></trkpt><trkpt lat="44.9379021762911" lon="8.665961023229341"><ele>110.25</ele><time>2026-04-22T11:38:06Z</time></trkpt><trkpt lat="44.93780998661396" lon="8.665818767714429"><ele>110.5</ele><time>2026-04-22T11:38:07Z</time></trkpt><trkpt lat="44.937698842406434" lon="8.665666827709485"><ele>110.75</ele><time>2026-04-22T11:38:08Z</time></trkpt><trkpt lat="44.93761789347664" lon="8.665489977194719"><ele>111.0</ele><time>2026-04-22T11:38:09Z</time></trkpt><trkpt lat="44.93753055865498" lon="8.665331367829436"><ele>112.25</ele><time>2026-04-22T11:38:10Z</time></trkpt><trkpt lat="44.937442235188236" lon="8.665168452646173"><ele>113.5</ele><time>2026-04-22T11:38:11Z</time></trkpt><trkpt lat="44.937355466855" lon="8.664999896370302"><ele>114.75</ele><time>2026-04-22T11:38:12Z</time></trkpt><trkpt lat="44.93727329487466" lon="8.664833094504868"><ele>116.0</ele><time>2026-04-22T11:38:13Z</time></trkpt><trkpt lat="44.93719845424177" lon="8.66465958012052"><ele>116.0</ele><time>2026-04-22T11:38:14Z</time></trkpt><trkpt lat="44.93712565655618" lon="8.664463830295832"><ele>116.0</ele><time>2026-04-22T11:38:15Z</time></trkpt><trkpt lat="44.93703891636467" lon="8.664266690956692"><ele>116.0</ele><time>2026-04-22T11:38:16Z</time></trkpt><trkpt lat="44.93696544351597" lon="8.664063317175957"><ele>115.33333333333333</ele><time>2026-04-22T11:38:17Z</time></trkpt><trkpt lat="44.93688467667757" lon="8.663845227705735"><ele>114.66666666666666</ele><time>2026-04-22T11:38:18Z</time></trkpt><trkpt lat="44.936785606713045" lon="8.663643113747348"><ele>114.0</ele><time>2026-04-22T11:38:19Z</time></trkpt><trkpt lat="44.93667696298076" lon="8.663426895313131"><ele>114.0</ele><time>2026-04-22T11:38:20Z</time></trkpt><trkpt lat="44.93656932221784" lon="8.663223535730092"><ele>114.0</ele><time>2026-04-22T11:38:21Z</time></trkpt><trkpt lat="44.93647332518686" lon="8.66303155719895"><ele>114.0</ele><time>2026-04-22T11:38:22Z</time></trkpt><trkpt lat="44.93638914144972" lon="8.662875822813717"><ele>114.5</ele><time>2026-04-22T11:38:23Z</time></trkpt><trkpt lat="44.936282826229416" lon="8.662731514944959"><ele>115.0</ele><time>2026-04-22T11:38:23.999Z</time></trkpt><trkpt lat="44.93618268677902" lon="8.662601086296846"><ele>115.5</ele><time>2026-04-22T11:38:24.999Z</time></trkpt><trkpt lat="44.936107064179126" lon="8.6624767320319"><ele>116.0</ele><time>2026-04-22T11:38:25.999Z</time></trkpt><trkpt lat="44.93605636393743" lon="8.662355042385915"><ele>116.0</ele><time>2026-04-22T11:38:26.999Z</time></trkpt><trkpt lat="44.93603878973387" lon="8.662226075977141"><ele>116.0</ele><time>2026-04-22T11:38:27.999Z</time></trkpt><trkpt lat="44.93604832386342" lon="8.662071627931775"><ele>116.0</ele><time>2026-04-22T11:38:28.999Z</time></trkpt><trkpt lat="44.93605168349448" lon="8.66189006041967"><ele>116.0</ele><time>2026-04-22T11:38:29.999Z</time></trkpt><trkpt lat="44.93607317034864" lon="8.661684772982639"><ele>115.0</ele><time>2026-04-22T11:38:30.999Z</time></trkpt><trkpt lat="44.93608444856275" lon="8.661482711945176"><ele>114.0</ele><time>2026-04-22T11:38:31.999Z</time></trkpt><trkpt lat="44.93610509362194" lon="8.66128267278635"><ele>113.0</ele><time>2026-04-22T11:38:32.999Z</time></trkpt><trkpt lat="44.936123286882996" lon="8.66109583730074"><ele>112.0</ele><time>2026-04-22T11:38:33.999Z</time></trkpt><trkpt lat="44.9361394617003" lon="8.66091442787667"><ele>110.25</ele><time>2026-04-22T11:38:34.999Z</time></trkpt><trkpt lat="44.93618296369978" lon="8.66072330555186"><ele>108.5</ele><time>2026-04-22T11:38:35.999Z</time></trkpt><trkpt lat="44.93626651180992" lon="8.660570778018892"><ele>106.75</ele><time>2026-04-22T11:38:36.999Z</time></trkpt><trkpt lat="44.93634629804524" lon="8.660408988586525"><ele>105.0</ele><time>2026-04-22T11:38:37.999Z</time></trkpt><trkpt lat="44.936454504422855" lon="8.660272372420925"><ele>104.0</ele><time>2026-04-22T11:38:38.999Z</time></trkpt><trkpt lat="44.93658327005128" lon="8.660146601112292"><ele>103.0</ele><time>2026-04-22T11:38:39.999Z</time></trkpt><trkpt lat="44.93671941990359" lon="8.660032785938562"><ele>102.0</ele><time>2026-04-22T11:38:40.999Z</time></trkpt><trkpt lat="44.93684596309536" lon="8.65991747043395"><ele>102.0</ele><time>2026-04-22T11:38:41.999Z</time></trkpt><trkpt lat="44.936978374727865" lon="8.659802447290605"><ele>102.0</ele><time>2026-04-22T11:38:42.999Z</time></trkpt><trkpt lat="44.93711183460574" lon="8.659671605381432"><ele>102.0</ele><time>2026-04-22T11:38:43.999Z</time></trkpt><trkpt lat="44.937241354501765" lon="8.659536290348584"><ele>101.0</ele><time>2026-04-22T11:38:44.999Z</time></trkpt><trkpt lat="44.93737943924271" lon="8.659412027625173"><ele>100.0</ele><time>2026-04-22T11:38:45.999Z</time></trkpt><trkpt lat="44.93751284826755" lon="8.659288412654389"><ele>99.0</ele><time>2026-04-22T11:38:46.999Z</time></trkpt><trkpt lat="44.937648227325205" lon="8.659157082741318"><ele>99.0</ele><time>2026-04-22T11:38:47.999Z</time></trkpt><trkpt lat="44.93779548634295" lon="8.659022910255494"><ele>99.0</ele><time>2026-04-22T11:38:48.999Z</time></trkpt><trkpt lat="44.93792626259214" lon="8.658885118291451"><ele>99.0</ele><time>2026-04-22T11:38:49.999Z</time></trkpt><trkpt lat="44.93805107727574" lon="8.658739710524044"><ele>100.33333333333334</ele><time>2026-04-22T11:38:50.999Z</time></trkpt><trkpt lat="44.93818257493558" lon="8.658586900779259"><ele>101.66666666666667</ele><time>2026-04-22T11:38:51.999Z</time></trkpt><trkpt lat="44.93830279692969" lon="8.658472063492058"><ele>103.0</ele><time>2026-04-22T11:38:52.999Z</time></trkpt><trkpt lat="44.93843362296944" lon="8.658328779971109"><ele>103.0</ele><time>2026-04-22T11:38:53.999Z</time></trkpt><trkpt lat="44.93856986524842" lon="8.658201982254921"><ele>103.0</ele><time>2026-04-22T11:38:54.999Z</time></trkpt><trkpt lat="44.938715532929244" lon="8.658080933621568"><ele>103.0</ele><time>2026-04-22T11:38:55.999Z</time></trkpt><trkpt lat="44.938859664449346" lon="8.657960785657561"><ele>103.0</ele><time>2026-04-22T11:38:56.999Z</time></trkpt><trkpt lat="44.93900771763851" lon="8.657834578445518"><ele>103.0</ele><time>2026-04-22T11:38:57.999Z</time></trkpt><trkpt lat="44.93914906429439" lon="8.657697620601592"><ele>103.0</ele><time>2026-04-22T11:38:59Z</time></trkpt><trkpt lat="44.939304420523484" lon="8.65758542432667"><ele>102.0</ele><time>2026-04-22T11:39:00Z</time></trkpt><trkpt lat="44.93944768986905" lon="8.657419205981665"><ele>101.0</ele><time>2026-04-22T11:39:01Z</time></trkpt><trkpt lat="44.93960146525164" lon="8.657262736241577"><ele>100.0</ele><time>2026-04-22T11:39:02Z</time></trkpt><trkpt lat="44.939747192399906" lon="8.65709806963675"><ele>101.0</ele><time>2026-04-22T11:39:03Z</time></trkpt><trkpt lat="44.93989396153609" lon="8.656932903945622"><ele>102.0</ele><time>2026-04-22T11:39:04Z</time></trkpt><trkpt lat="44.94003378065801" lon="8.656759734344147"><ele>103.0</ele><time>2026-04-22T11:39:05Z</time></trkpt><trkpt lat="44.940159409065465" lon="8.65657477792846"><ele>103.0</ele><time>2026-04-22T11:39:06Z</time></trkpt><trkpt lat="44.94030373204717" lon="8.65641128557515"><ele>103.0</ele><time>2026-04-22T11:39:07Z</time></trkpt><trkpt lat="44.94043849274204" lon="8.656234321110789"><ele>103.0</ele><time>2026-04-22T11:39:08Z</time></trkpt><trkpt lat="44.940564409247095" lon="8.656036630722292"><ele>104.0</ele><time>2026-04-22T11:39:09Z</time></trkpt><trkpt lat="44.940696327596825" lon="8.655863294776735"><ele>105.0</ele><time>2026-04-22T11:39:10Z</time></trkpt><trkpt lat="44.94082802849234" lon="8.655691765358334"><ele>106.0</ele><time>2026-04-22T11:39:11Z</time></trkpt><trkpt lat="44.94096748032978" lon="8.655542469217606"><ele>106.0</ele><time>2026-04-22T11:39:12Z</time></trkpt><trkpt lat="44.94110591802627" lon="8.655383186059991"><ele>106.0</ele><time>2026-04-22T11:39:13Z</time></trkpt><trkpt lat="44.94124878116515" lon="8.655244085538614"><ele>106.0</ele><time>2026-04-22T11:39:14Z</time></trkpt><trkpt lat="44.941398016027705" lon="8.655108110971259"><ele>104.0</ele><time>2026-04-22T11:39:15Z</time></trkpt><trkpt lat="44.94154739947319" lon="8.654969982830298"><ele>102.0</ele><time>2026-04-22T11:39:16Z</time></trkpt><trkpt lat="44.941688151659655" lon="8.65483606862138"><ele>100.0</ele><time>2026-04-22T11:39:17Z</time></trkpt><trkpt lat="44.941819890564325" lon="8.654680756508299"><ele>100.0</ele><time>2026-04-22T11:39:18Z</time></trkpt><trkpt lat="44.9419500231213" lon="8.654530658686884"><ele>100.0</ele><time>2026-04-22T11:39:19Z</time></trkpt><trkpt lat="44.94208123463034" lon="8.654381634418215"><ele>100.0</ele><time>2026-04-22T11:39:20Z</time></trkpt><trkpt lat="44.942209284317016" lon="8.654223058686554"><ele>98.33333333333334</ele><time>2026-04-22T11:39:21Z</time></trkpt><trkpt lat="44.94234357542835" lon="8.654083526528849"><ele>96.66666666666667</ele><time>2026-04-22T11:39:22Z</time></trkpt><trkpt lat="44.94247044043683" lon="8.653924437070895"><ele>95.0</ele><time>2026-04-22T11:39:23Z</time></trkpt><trkpt lat="44.94259902718334" lon="8.653748120576736"><ele>98.33333333333334</ele><time>2026-04-22T11:39:24Z</time></trkpt><trkpt lat="44.94272676330764" lon="8.65357710372527"><ele>101.66666666666667</ele><time>2026-04-22T11:39:25Z</time></trkpt><trkpt lat="44.94285845931044" lon="8.653400785351002"><ele>105.0</ele><time>2026-04-22T11:39:26Z</time></trkpt><trkpt lat="44.942977685052945" lon="8.653213271476124"><ele>105.0</ele><time>2026-04-22T11:39:27Z</time></trkpt><trkpt lat="44.943122932201554" lon="8.653051688016113"><ele>105.0</ele><time>2026-04-22T11:39:28Z</time></trkpt><trkpt lat="44.94325577326219" lon="8.652877351041198"><ele>105.0</ele><time>2026-04-22T11:39:29Z</time></trkpt><trkpt lat="44.94339313323386" lon="8.652697083183526"><ele>106.0</ele><time>2026-04-22T11:39:30Z</time></trkpt><trkpt lat="44.943521528062014" lon="8.652499528842853"><ele>107.0</ele><time>2026-04-22T11:39:31Z</time></trkpt><trkpt lat="44.94366078825646" lon="8.652320183810412"><ele>108.0</ele><time>2026-04-22T11:39:32Z</time></trkpt><trkpt lat="44.943795273940054" lon="8.652140399088763"><ele>108.0</ele><time>2026-04-22T11:39:33Z</time></trkpt><trkpt lat="44.9439298257405" lon="8.651959187362937"><ele>108.0</ele><time>2026-04-22T11:39:34Z</time></trkpt><trkpt lat="44.94407466905835" lon="8.651796777958085"><ele>108.0</ele><time>2026-04-22T11:39:35Z</time></trkpt><trkpt lat="44.94419292781335" lon="8.651608729469862"><ele>108.33333333333334</ele><time>2026-04-22T11:39:36Z</time></trkpt><trkpt lat="44.944324165123064" lon="8.651437736955788"><ele>108.66666666666667</ele><time>2026-04-22T11:39:37Z</time></trkpt><trkpt lat="44.94446231573631" lon="8.651275825272247"><ele>109.0</ele><time>2026-04-22T11:39:38Z</time></trkpt><trkpt lat="44.94459448437155" lon="8.65109732310773"><ele>105.66666666666667</ele><time>2026-04-22T11:39:39Z</time></trkpt><trkpt lat="44.944728585616666" lon="8.650917156539872"><ele>102.33333333333334</ele><time>2026-04-22T11:39:40Z</time></trkpt><trkpt lat="44.944870990846624" lon="8.650734600010047"><ele>99.0</ele><time>2026-04-22T11:39:41Z</time></trkpt><trkpt lat="44.94500780847407" lon="8.650570182854299"><ele>99.0</ele><time>2026-04-22T11:39:42Z</time></trkpt><trkpt lat="44.9451357218163" lon="8.650404410522466"><ele>99.0</ele><time>2026-04-22T11:39:43Z</time></trkpt><trkpt lat="44.94527587799072" lon="8.65025378622992"><ele>99.0</ele><time>2026-04-22T11:39:44Z</time></trkpt><trkpt lat="44.94542440903762" lon="8.650107028040408"><ele>99.0</ele><time>2026-04-22T11:39:45Z</time></trkpt><trkpt lat="44.94555133968864" lon="8.649952035090653"><ele>99.0</ele><time>2026-04-22T11:39:46Z</time></trkpt><trkpt lat="44.945688016632836" lon="8.649808593829157"><ele>99.0</ele><time>2026-04-22T11:39:47Z</time></trkpt><trkpt lat="44.94581252118963" lon="8.649670827875289"><ele>99.5</ele><time>2026-04-22T11:39:48Z</time></trkpt><trkpt lat="44.945918372129434" lon="8.649557449133777"><ele>100.0</ele><time>2026-04-22T11:39:49Z</time></trkpt><trkpt lat="44.94601773789218" lon="8.64943883593111"><ele>100.5</ele><time>2026-04-22T11:39:50Z</time></trkpt><trkpt lat="44.94612211632112" lon="8.649329144403143"><ele>101.0</ele><time>2026-04-22T11:39:51Z</time></trkpt><trkpt lat="44.946240434448036" lon="8.649196232574377"><ele>101.0</ele><time>2026-04-22T11:39:52Z</time></trkpt><trkpt lat="44.94636674245353" lon="8.649062426022033"><ele>101.0</ele><time>2026-04-22T11:39:53Z</time></trkpt><trkpt lat="44.946480404165676" lon="8.64891963652135"><ele>101.0</ele><time>2026-04-22T11:39:54Z</time></trkpt><trkpt lat="44.9466136591189" lon="8.648752305849968"><ele>102.0</ele><time>2026-04-22T11:39:55Z</time></trkpt><trkpt lat="44.94674898831488" lon="8.64857811074183"><ele>103.0</ele><time>2026-04-22T11:39:56Z</time></trkpt><trkpt lat="44.94690665900833" lon="8.648350631056495"><ele>104.0</ele><time>2026-04-22T11:39:57Z</time></trkpt><trkpt lat="44.9470983363706" lon="8.648088828946449"><ele>104.0</ele><time>2026-04-22T11:39:58Z</time></trkpt><trkpt lat="44.947308430119186" lon="8.64780716492621"><ele>104.0</ele><time>2026-04-22T11:39:59Z</time></trkpt><trkpt lat="44.94752233793381" lon="8.647513886480155"><ele>104.5</ele><time>2026-04-22T11:40:00Z</time></trkpt><trkpt lat="44.94770585812067" lon="8.647258218106723"><ele>105.0</ele><time>2026-04-22T11:40:01Z</time></trkpt><trkpt lat="44.94786990964573" lon="8.647027021868398"><ele>102.66666666666666</ele><time>2026-04-22T11:40:02Z</time></trkpt><trkpt lat="44.94802904253732" lon="8.64681154472961"><ele>100.33333333333333</ele><time>2026-04-22T11:40:03Z</time></trkpt><trkpt lat="44.94817089550569" lon="8.646621775620824"><ele>98.0</ele><time>2026-04-22T11:40:04Z</time></trkpt><trkpt lat="44.948309726940096" lon="8.646452909132286"><ele>100.0</ele><time>2026-04-22T11:40:05Z</time></trkpt><trkpt lat="44.94841927820451" lon="8.64625348608276"><ele>102.0</ele><time>2026-04-22T11:40:06Z</time></trkpt><trkpt lat="44.9485315584531" lon="8.646048074678497"><ele>104.0</ele><time>2026-04-22T11:40:07Z</time></trkpt><trkpt lat="44.94863926511084" lon="8.645824767418677"><ele>104.0</ele><time>2026-04-22T11:40:08Z</time></trkpt><trkpt lat="44.948738632295594" lon="8.645561861010806"><ele>104.0</ele><time>2026-04-22T11:40:09Z</time></trkpt><trkpt lat="44.948837381659665" lon="8.64527310234763"><ele>104.0</ele><time>2026-04-22T11:40:10Z</time></trkpt><trkpt lat="44.94895868618253" lon="8.644985106231516"><ele>101.5</ele><time>2026-04-22T11:40:11Z</time></trkpt><trkpt lat="44.94905282586329" lon="8.644660970215668"><ele>99.0</ele><time>2026-04-22T11:40:12Z</time></trkpt><trkpt lat="44.94913232358638" lon="8.644391206338438"><ele>98.66666666666666</ele><time>2026-04-22T11:40:13Z</time></trkpt><trkpt lat="44.94918985355667" lon="8.644144323380795"><ele>98.33333333333333</ele><time>2026-04-22T11:40:14Z</time></trkpt><trkpt lat="44.949239336033095" lon="8.643918361334379"><ele>98.0</ele><time>2026-04-22T11:40:15Z</time></trkpt><trkpt lat="44.94931170405159" lon="8.643698219135334"><ele>99.66666666666666</ele><time>2026-04-22T11:40:16Z</time></trkpt><trkpt lat="44.9493511651869" lon="8.643492539491284"><ele>101.33333333333334</ele><time>2026-04-22T11:40:17Z</time></trkpt><trkpt lat="44.9494265974746" lon="8.643280683533828"><ele>103.0</ele><time>2026-04-22T11:40:18Z</time></trkpt><trkpt lat="44.949488043490675" lon="8.643066594060327"><ele>103.0</ele><time>2026-04-22T11:40:19Z</time></trkpt><trkpt lat="44.94955792770823" lon="8.642824715310734"><ele>103.0</ele><time>2026-04-22T11:40:20Z</time></trkpt><trkpt lat="44.94961770867409" lon="8.642617153047732"><ele>103.0</ele><time>2026-04-22T11:40:21Z</time></trkpt><trkpt lat="44.94966289590678" lon="8.642390766430088"><ele>102.66666666666667</ele><time>2026-04-22T11:40:22Z</time></trkpt><trkpt lat="44.94974935227357" lon="8.642154072703667"><ele>102.33333333333334</ele><time>2026-04-22T11:40:23Z</time></trkpt><trkpt lat="44.949817519782385" lon="8.641937065389838"><ele>102.0</ele><time>2026-04-22T11:40:24Z</time></trkpt><trkpt lat="44.94988294128907" lon="8.641749800834312"><ele>102.5</ele><time>2026-04-22T11:40:25Z</time></trkpt><trkpt lat="44.94994601018978" lon="8.641546105323892"><ele>103.0</ele><time>2026-04-22T11:40:26Z</time></trkpt><trkpt lat="44.95001230365198" lon="8.6413930322004"><ele>103.5</ele><time>2026-04-22T11:40:27Z</time></trkpt><trkpt lat="44.9500774466937" lon="8.641246140288576"><ele>104.0</ele><time>2026-04-22T11:40:28Z</time></trkpt><trkpt lat="44.95013659475193" lon="8.64112296384738"><ele>103.16666666666666</ele><time>2026-04-22T11:40:29Z</time></trkpt><trkpt lat="44.95019106515076" lon="8.640998332487609"><ele>102.33333333333333</ele><time>2026-04-22T11:40:30Z</time></trkpt><trkpt lat="44.95024398359971" lon="8.640884925198637"><ele>101.5</ele><time>2026-04-22T11:40:31Z</time></trkpt><trkpt lat="44.95029328719991" lon="8.640784925372511"><ele>100.66666666666666</ele><time>2026-04-22T11:40:32Z</time></trkpt><trkpt lat="44.950350782951006" lon="8.640700164261283"><ele>99.83333333333333</ele><time>2026-04-22T11:40:33Z</time></trkpt><trkpt lat="44.95038906950139" lon="8.640614187399212"><ele>99.0</ele><time>2026-04-22T11:40:34Z</time></trkpt><trkpt lat="44.950411237542426" lon="8.640523618001774"><ele>99.0</ele><time>2026-04-22T11:40:35Z</time></trkpt><trkpt lat="44.950449741394934" lon="8.640447401201383"><ele>99.0</ele><time>2026-04-22T11:40:36Z</time></trkpt><trkpt lat="44.95050029788623" lon="8.640332451841283"><ele>99.0</ele><time>2026-04-22T11:40:38Z</time></trkpt><trkpt lat="44.95052672887826" lon="8.640203610557846"><ele>99.0</ele><time>2026-04-22T11:40:50.999Z</time></trkpt><trkpt lat="44.95056661120573" lon="8.640113383182783"><ele>99.0</ele><time>2026-04-22T11:40:51.999Z</time></trkpt><trkpt lat="44.95060103118313" lon="8.639940621317233"><ele>98.75</ele><time>2026-04-22T11:40:52.999Z</time></trkpt><trkpt lat="44.95062862277833" lon="8.639779661915108"><ele>98.5</ele><time>2026-04-22T11:40:53.999Z</time></trkpt><trkpt lat="44.9506667744613" lon="8.639590605036663"><ele>98.25</ele><time>2026-04-22T11:40:54.999Z</time></trkpt><trkpt lat="44.95072409029648" lon="8.639337320897377"><ele>98.0</ele><time>2026-04-22T11:40:55.999Z</time></trkpt><trkpt lat="44.950785072533904" lon="8.63908519331439"><ele>97.66666666666666</ele><time>2026-04-22T11:40:56.999Z</time></trkpt><trkpt lat="44.95084409844591" lon="8.63885035707917"><ele>97.33333333333334</ele><time>2026-04-22T11:40:57.999Z</time></trkpt><trkpt lat="44.95090035471568" lon="8.638626539884953"><ele>97.0</ele><time>2026-04-22T11:40:58.999Z</time></trkpt><trkpt lat="44.95095302094893" lon="8.638417005769856"><ele>97.66666666666667</ele><time>2026-04-22T11:40:59.999Z</time></trkpt><trkpt lat="44.95099134035467" lon="8.6382064224298"><ele>98.33333333333334</ele><time>2026-04-22T11:41:00.999Z</time></trkpt><trkpt lat="44.951062125487994" lon="8.637957510396248"><ele>99.0</ele><time>2026-04-22T11:41:01.999Z</time></trkpt><trkpt lat="44.95110080788197" lon="8.637746795611086"><ele>99.0</ele><time>2026-04-22T11:41:02.999Z</time></trkpt><trkpt lat="44.95113776322301" lon="8.637521197606263"><ele>99.0</ele><time>2026-04-22T11:41:03.999Z</time></trkpt><trkpt lat="44.951171694042195" lon="8.637294048338203"><ele>99.0</ele><time>2026-04-22T11:41:05Z</time></trkpt><trkpt lat="44.95119787035504" lon="8.637090231892666"><ele>99.0</ele><time>2026-04-22T11:41:06Z</time></trkpt><trkpt lat="44.951219402369155" lon="8.636911191334317"><ele>99.0</ele><time>2026-04-22T11:41:07Z</time></trkpt><trkpt lat="44.95124006924567" lon="8.636737597796712"><ele>99.0</ele><time>2026-04-22T11:41:08Z</time></trkpt><trkpt lat="44.951227595807744" lon="8.636583237548768"><ele>99.0</ele><time>2026-04-22T11:41:09Z</time></trkpt><trkpt lat="44.951247188646526" lon="8.636444286404977"><ele>99.0</ele><time>2026-04-22T11:41:10Z</time></trkpt><trkpt lat="44.95126242062007" lon="8.636314637638703"><ele>99.0</ele><time>2026-04-22T11:41:11Z</time></trkpt><trkpt lat="44.95127982750063" lon="8.636168790263845"><ele>99.0</ele><time>2026-04-22T11:41:12Z</time></trkpt><trkpt lat="44.95132454763715" lon="8.636010268860424"><ele>99.0</ele><time>2026-04-22T11:41:13Z</time></trkpt><trkpt lat="44.95135119175469" lon="8.635833172766135"><ele>99.0</ele><time>2026-04-22T11:41:14Z</time></trkpt><trkpt lat="44.951381513538315" lon="8.635647616572353"><ele>98.75</ele><time>2026-04-22T11:41:15Z</time></trkpt><trkpt lat="44.95140714901065" lon="8.635450623294103"><ele>98.5</ele><time>2026-04-22T11:41:16Z</time></trkpt><trkpt lat="44.951426262161505" lon="8.63525637642984"><ele>98.25</ele><time>2026-04-22T11:41:17Z</time></trkpt><trkpt lat="44.95144522509914" lon="8.635050246798917"><ele>98.0</ele><time>2026-04-22T11:41:18Z</time></trkpt><trkpt lat="44.95146484184376" lon="8.634845677820913"><ele>98.0</ele><time>2026-04-22T11:41:19Z</time></trkpt><trkpt lat="44.95148733186658" lon="8.634630886171642"><ele>98.0</ele><time>2026-04-22T11:41:20Z</time></trkpt><trkpt lat="44.95151239351063" lon="8.634416026732234"><ele>98.0</ele><time>2026-04-22T11:41:21Z</time></trkpt><trkpt lat="44.9515399189516" lon="8.634192644898013"><ele>98.33333333333333</ele><time>2026-04-22T11:41:22Z</time></trkpt><trkpt lat="44.951568703281076" lon="8.633967927954918"><ele>98.66666666666666</ele><time>2026-04-22T11:41:23Z</time></trkpt><trkpt lat="44.95159976454433" lon="8.633737049478174"><ele>99.0</ele><time>2026-04-22T11:41:24Z</time></trkpt><trkpt lat="44.95163025175106" lon="8.633514651698881"><ele>99.33333333333334</ele><time>2026-04-22T11:41:25Z</time></trkpt><trkpt lat="44.95166197231636" lon="8.63328325684141"><ele>99.66666666666667</ele><time>2026-04-22T11:41:26Z</time></trkpt><trkpt lat="44.95169244229274" lon="8.633072722170567"><ele>100.0</ele><time>2026-04-22T11:41:27Z</time></trkpt><trkpt lat="44.95172921073058" lon="8.632848903073143"><ele>99.33333333333334</ele><time>2026-04-22T11:41:28Z</time></trkpt><trkpt lat="44.9517743057762" lon="8.632625058719558"><ele>98.66666666666666</ele><time>2026-04-22T11:41:29Z</time></trkpt><trkpt lat="44.951835149509186" lon="8.632409248193216"><ele>98.0</ele><time>2026-04-22T11:41:30Z</time></trkpt><trkpt lat="44.951904401749466" lon="8.632197124177658"><ele>98.66666666666666</ele><time>2026-04-22T11:41:31Z</time></trkpt><trkpt lat="44.95197897274121" lon="8.631969735441457"><ele>99.33333333333334</ele><time>2026-04-22T11:41:32Z</time></trkpt><trkpt lat="44.95204860000371" lon="8.631750004197096"><ele>100.0</ele><time>2026-04-22T11:41:33Z</time></trkpt><trkpt lat="44.95211601451005" lon="8.631533915298885"><ele>100.0</ele><time>2026-04-22T11:41:34Z</time></trkpt><trkpt lat="44.9521877465665" lon="8.631308322106422"><ele>100.0</ele><time>2026-04-22T11:41:35Z</time></trkpt><trkpt lat="44.95225598096858" lon="8.631095214052534"><ele>100.0</ele><time>2026-04-22T11:41:36Z</time></trkpt><trkpt lat="44.95231068572669" lon="8.630924361364674"><ele>100.25</ele><time>2026-04-22T11:41:37Z</time></trkpt><trkpt lat="44.95235753340156" lon="8.630750790110488"><ele>100.5</ele><time>2026-04-22T11:41:38Z</time></trkpt><trkpt lat="44.95240049061969" lon="8.630585937393898"><ele>100.75</ele><time>2026-04-22T11:41:39Z</time></trkpt><trkpt lat="44.95245468174977" lon="8.630418388777109"><ele>101.0</ele><time>2026-04-22T11:41:40Z</time></trkpt><trkpt lat="44.95251357196586" lon="8.63023814391429"><ele>101.33333333333333</ele><time>2026-04-22T11:41:41Z</time></trkpt><trkpt lat="44.95258868058321" lon="8.630038838611176"><ele>101.66666666666666</ele><time>2026-04-22T11:41:42Z</time></trkpt><trkpt lat="44.95265968962607" lon="8.629833364150564"><ele>102.0</ele><time>2026-04-22T11:41:43Z</time></trkpt><trkpt lat="44.95270906858495" lon="8.62960412513961"><ele>101.33333333333334</ele><time>2026-04-22T11:41:44Z</time></trkpt><trkpt lat="44.952755433998355" lon="8.629354069202869"><ele>100.66666666666667</ele><time>2026-04-22T11:41:45Z</time></trkpt><trkpt lat="44.95276153946556" lon="8.629074487659452"><ele>100.0</ele><time>2026-04-22T11:41:46Z</time></trkpt><trkpt lat="44.95276488456397" lon="8.628806870264283"><ele>99.66666666666667</ele><time>2026-04-22T11:41:47Z</time></trkpt><trkpt lat="44.9527759211931" lon="8.628537716742933"><ele>99.33333333333334</ele><time>2026-04-22T11:41:48Z</time></trkpt><trkpt lat="44.95281318642845" lon="8.628302590052204"><ele>99.0</ele><time>2026-04-22T11:41:49Z</time></trkpt><trkpt lat="44.95289691041935" lon="8.628074762022498"><ele>99.0</ele><time>2026-04-22T11:41:50Z</time></trkpt><trkpt lat="44.952997596197754" lon="8.627862478233357"><ele>99.0</ele><time>2026-04-22T11:41:51Z</time></trkpt><trkpt lat="44.9530725808419" lon="8.627682441950004"><ele>99.0</ele><time>2026-04-22T11:41:52Z</time></trkpt><trkpt lat="44.9531585862383" lon="8.627535020097833"><ele>99.2</ele><time>2026-04-22T11:41:53Z</time></trkpt><trkpt lat="44.953213653565285" lon="8.627412427414466"><ele>99.4</ele><time>2026-04-22T11:41:54Z</time></trkpt><trkpt lat="44.953254138205374" lon="8.627307075142381"><ele>99.6</ele><time>2026-04-22T11:41:55Z</time></trkpt><trkpt lat="44.953246946770655" lon="8.627189231615459"><ele>99.8</ele><time>2026-04-22T11:41:56Z</time></trkpt><trkpt lat="44.953167029051535" lon="8.62708226385755"><ele>100.0</ele><time>2026-04-22T11:41:57Z</time></trkpt><trkpt lat="44.95305226921059" lon="8.627025502400942"><ele>100.25</ele><time>2026-04-22T11:41:58Z</time></trkpt><trkpt lat="44.952909921773326" lon="8.626919871110406"><ele>100.5</ele><time>2026-04-22T11:41:59Z</time></trkpt><trkpt lat="44.952795220884866" lon="8.626833427554399"><ele>100.75</ele><time>2026-04-22T11:42:00Z</time></trkpt><trkpt lat="44.952727527600324" lon="8.626774389342668"><ele>101.0</ele><time>2026-04-22T11:42:01Z</time></trkpt><trkpt lat="44.95277352371711" lon="8.626535724742597"><ele>101.0</ele><time>2026-04-22T11:42:03Z</time></trkpt><trkpt lat="44.95283707328669" lon="8.626357025456075"><ele>101.0</ele><time>2026-04-22T11:42:04Z</time></trkpt><trkpt lat="44.95293882101637" lon="8.626136600908794"><ele>101.0</ele><time>2026-04-22T11:42:05Z</time></trkpt><trkpt lat="44.95302069510691" lon="8.625957853979042"><ele>101.0</ele><time>2026-04-22T11:42:06Z</time></trkpt><trkpt lat="44.953143776260774" lon="8.625845188521357"><ele>101.0</ele><time>2026-04-22T11:42:07Z</time></trkpt><trkpt lat="44.953259956828994" lon="8.625737986098661"><ele>101.0</ele><time>2026-04-22T11:42:08Z</time></trkpt><trkpt lat="44.95338148164865" lon="8.625609540401424"><ele>101.0</ele><time>2026-04-22T11:42:09Z</time></trkpt><trkpt lat="44.95350298653053" lon="8.62549210924743"><ele>101.66666666666666</ele><time>2026-04-22T11:42:10Z</time></trkpt><trkpt lat="44.95361371051212" lon="8.625338707109123"><ele>102.33333333333334</ele><time>2026-04-22T11:42:11Z</time></trkpt><trkpt lat="44.953708588465645" lon="8.62516018768299"><ele>103.0</ele><time>2026-04-22T11:42:12Z</time></trkpt><trkpt lat="44.95380908535931" lon="8.624958609936227"><ele>103.0</ele><time>2026-04-22T11:42:13Z</time></trkpt><trkpt lat="44.95389394520811" lon="8.624756702553746"><ele>103.0</ele><time>2026-04-22T11:42:14Z</time></trkpt><trkpt lat="44.95399498754412" lon="8.624552166869318"><ele>103.0</ele><time>2026-04-22T11:42:15Z</time></trkpt><trkpt lat="44.954087949820156" lon="8.624371073507932"><ele>102.5</ele><time>2026-04-22T11:42:16Z</time></trkpt><trkpt lat="44.9541870037812" lon="8.624196106884405"><ele>102.0</ele><time>2026-04-22T11:42:17Z</time></trkpt><trkpt lat="44.954275546045665" lon="8.62403963479402"><ele>101.5</ele><time>2026-04-22T11:42:18Z</time></trkpt><trkpt lat="44.954346687637056" lon="8.623920500243125"><ele>101.0</ele><time>2026-04-22T11:42:19Z</time></trkpt><trkpt lat="44.954442608282946" lon="8.623832668191014"><ele>101.8</ele><time>2026-04-22T11:42:20Z</time></trkpt><trkpt lat="44.954555184952305" lon="8.62373860321679"><ele>102.6</ele><time>2026-04-22T11:42:21Z</time></trkpt><trkpt lat="44.95464649259765" lon="8.623644657691237"><ele>103.4</ele><time>2026-04-22T11:42:22Z</time></trkpt><trkpt lat="44.954730142271345" lon="8.62357853728509"><ele>104.2</ele><time>2026-04-22T11:42:23Z</time></trkpt><trkpt lat="44.9548026485955" lon="8.623512961628258"><ele>105.0</ele><time>2026-04-22T11:42:24Z</time></trkpt><trkpt lat="44.95486012010519" lon="8.623418113789693"><ele>105.0</ele><time>2026-04-22T11:42:25Z</time></trkpt><trkpt lat="44.95489591654204" lon="8.623325749100243"><ele>105.0</ele><time>2026-04-22T11:42:26Z</time></trkpt><trkpt lat="44.95492897577737" lon="8.623209958852645"><ele>105.0</ele><time>2026-04-22T11:42:27Z</time></trkpt><trkpt lat="44.9549647650364" lon="8.62307229889756"><ele>105.0</ele><time>2026-04-22T11:42:28Z</time></trkpt><trkpt lat="44.95500852290451" lon="8.62291435763314"><ele>105.0</ele><time>2026-04-22T11:42:29Z</time></trkpt><trkpt lat="44.9550302273129" lon="8.6227277584938"><ele>104.75</ele><time>2026-04-22T11:42:30Z</time></trkpt><trkpt lat="44.955027139425695" lon="8.622529492172498"><ele>104.5</ele><time>2026-04-22T11:42:31Z</time></trkpt><trkpt lat="44.95505815644711" lon="8.62232024030957"><ele>104.25</ele><time>2026-04-22T11:42:32Z</time></trkpt><trkpt lat="44.95509285131098" lon="8.622110033684624"><ele>104.0</ele><time>2026-04-22T11:42:33Z</time></trkpt><trkpt lat="44.95516012348041" lon="8.621875676797709"><ele>104.0</ele><time>2026-04-22T11:42:34Z</time></trkpt><trkpt lat="44.955238600372695" lon="8.621640852604639"><ele>104.0</ele><time>2026-04-22T11:42:35Z</time></trkpt><trkpt lat="44.955292570148444" lon="8.621397145537161"><ele>104.0</ele><time>2026-04-22T11:42:36Z</time></trkpt><trkpt lat="44.955340705961916" lon="8.621162134888822"><ele>104.66666666666666</ele><time>2026-04-22T11:42:37Z</time></trkpt><trkpt lat="44.95537310373563" lon="8.62092555275983"><ele>105.33333333333334</ele><time>2026-04-22T11:42:38Z</time></trkpt><trkpt lat="44.95540973843259" lon="8.620709325668305"><ele>106.0</ele><time>2026-04-22T11:42:39Z</time></trkpt><trkpt lat="44.955442502221885" lon="8.62049556239719"><ele>106.66666666666667</ele><time>2026-04-22T11:42:40Z</time></trkpt><trkpt lat="44.95549643145736" lon="8.620287992042885"><ele>107.33333333333334</ele><time>2026-04-22T11:42:41Z</time></trkpt><trkpt lat="44.955566653494394" lon="8.620083773425847"><ele>108.0</ele><time>2026-04-22T11:42:42Z</time></trkpt><trkpt lat="44.95563430410529" lon="8.619876363516363"><ele>108.0</ele><time>2026-04-22T11:42:43Z</time></trkpt><trkpt lat="44.9556984447846" lon="8.619648345838709"><ele>108.0</ele><time>2026-04-22T11:42:44Z</time></trkpt><trkpt lat="44.95575218170417" lon="8.619448065642011"><ele>108.0</ele><time>2026-04-22T11:42:45Z</time></trkpt><trkpt lat="44.95585139221102" lon="8.619106686017345"><ele>109.0</ele><time>2026-04-22T11:42:47Z</time></trkpt></trkseg></trk></gpx>